<?xml version='1.0' encoding='UTF-8'?><gpx version="1.1" creator="JPX - https://github.com/jenetics/jpx" xmlns="http://www.topografix.com/GPX/1/1"><trk><trkseg><trkpt lat="45.59453942730055" lon="10.13450748292649"><ele>164.0</ele><time>2026-04-28T16:16:17Z</time></trkpt><trkpt lat="45.59455314820874" lon="10.13436050302114"><ele>164.0</ele><time>2026-04-28T16:16:22Z</time></trkpt><trkpt lat="45.5945646228031" lon="10.1342469372708"><ele>164.0</ele><time>2026-04-28T16:16:26Z</time></trkpt><trkpt lat="45.59458590464002" lon="10.134138371274789"><ele>164.0</ele><time>2026-04-28T16:16:30Z</time></trkpt><trkpt lat="45.59460400197248" lon="10.134034516587883"><ele>164.0</ele><time>2026-04-28T16:16:34Z</time></trkpt><trkpt lat="45.59461914030196" lon="10.133917847941055"><ele>164.0</ele><time>2026-04-28T16:16:37Z</time></trkpt><trkpt lat="45.59463972633386" lon="10.133818104224817"><ele>164.0</ele><time>2026-04-28T16:16:40Z</time></trkpt><trkpt lat="45.59464889600381" lon="10.133686209607959"><ele>164.0</ele><time>2026-04-28T16:16:44Z</time></trkpt><trkpt lat="45.5946563704516" lon="10.133567015151252"><ele>164.0</ele><time>2026-04-28T16:16:47Z</time></trkpt><trkpt lat="45.594669679957725" lon="10.133464808328922"><ele>164.0</ele><time>2026-04-28T16:16:50Z</time></trkpt><trkpt lat="45.5946949322735" lon="10.13335252352011"><ele>164.0</ele><time>2026-04-28T16:16:53Z</time></trkpt><trkpt lat="45.59470825063013" lon="10.133249929884316"><ele>164.0</ele><time>2026-04-28T16:16:56Z</time></trkpt><trkpt lat="45.594715288067384" lon="10.133144219161014"><ele>163.57142857142856</ele><time>2026-04-28T16:16:59Z</time></trkpt><trkpt lat="45.59473817129621" lon="10.133048069239072"><ele>163.14285714285714</ele><time>2026-04-28T16:17:02Z</time></trkpt><trkpt lat="45.594756755045374" lon="10.132952203012403"><ele>162.71428571428572</ele><time>2026-04-28T16:17:05Z</time></trkpt><trkpt lat="45.594781636141875" lon="10.132864417791174"><ele>162.28571428571428</ele><time>2026-04-28T16:17:08Z</time></trkpt><trkpt lat="45.59478709417734" lon="10.132770608126124"><ele>161.85714285714286</ele><time>2026-04-28T16:17:11.001Z</time></trkpt><trkpt lat="45.59480859103397" lon="10.132685995065717"><ele>161.42857142857142</ele><time>2026-04-28T16:17:14.001Z</time></trkpt><trkpt lat="45.594827663248346" lon="10.1325853923237"><ele>161.0</ele><time>2026-04-28T16:17:17.001Z</time></trkpt><trkpt lat="45.594849984040096" lon="10.132493775168541"><ele>161.0</ele><time>2026-04-28T16:17:20.001Z</time></trkpt><trkpt lat="45.59487777803403" lon="10.132397777645572"><ele>161.0</ele><time>2026-04-28T16:17:23.001Z</time></trkpt><trkpt lat="45.594889192265775" lon="10.132296447102547"><ele>161.0</ele><time>2026-04-28T16:17:26.001Z</time></trkpt><trkpt lat="45.59489794940301" lon="10.132206640442424"><ele>161.0</ele><time>2026-04-28T16:17:29.001Z</time></trkpt><trkpt lat="45.594919332947896" lon="10.13212153392801"><ele>161.0</ele><time>2026-04-28T16:17:32.001Z</time></trkpt><trkpt lat="45.59494118708537" lon="10.132008522868517"><ele>161.0</ele><time>2026-04-28T16:17:36.001Z</time></trkpt><trkpt lat="45.59496578077901" lon="10.13191778506496"><ele>161.0</ele><time>2026-04-28T16:17:39.001Z</time></trkpt><trkpt lat="45.59498388244499" lon="10.131810613667481"><ele>160.85714285714286</ele><time>2026-04-28T16:17:43.001Z</time></trkpt><trkpt lat="45.59502706299051" lon="10.131725601023208"><ele>160.71428571428572</ele><time>2026-04-28T16:17:47.001Z</time></trkpt><trkpt lat="45.59508428806689" lon="10.13166355720345"><ele>160.57142857142856</ele><time>2026-04-28T16:17:51.001Z</time></trkpt><trkpt lat="45.59516118913582" lon="10.131623191859235"><ele>160.42857142857144</ele><time>2026-04-28T16:17:56.001Z</time></trkpt><trkpt lat="45.59522734238172" lon="10.131620079917566"><ele>160.28571428571428</ele><time>2026-04-28T16:18:00.001Z</time></trkpt><trkpt lat="45.59529203028956" lon="10.131639768714079"><ele>160.14285714285714</ele><time>2026-04-28T16:18:04.001Z</time></trkpt><trkpt lat="45.59536899744584" lon="10.131631930046122"><ele>160.0</ele><time>2026-04-28T16:18:08.001Z</time></trkpt><trkpt lat="45.595440034465284" lon="10.131615895003787"><ele>160.71428571428572</ele><time>2026-04-28T16:18:11.001Z</time></trkpt><trkpt lat="45.59550154336139" lon="10.131593203603057"><ele>161.42857142857144</ele><time>2026-04-28T16:18:13.001Z</time></trkpt><trkpt lat="45.59557956544706" lon="10.131588290303666"><ele>162.14285714285717</ele><time>2026-04-28T16:18:16.001Z</time></trkpt><trkpt lat="45.59564817929514" lon="10.131640621855759"><ele>162.85714285714286</ele><time>2026-04-28T16:18:19.001Z</time></trkpt><trkpt lat="45.59570877757349" lon="10.131701181778887"><ele>163.57142857142858</ele><time>2026-04-28T16:18:22.001Z</time></trkpt><trkpt lat="45.59576281459113" lon="10.131756435722568"><ele>164.2857142857143</ele><time>2026-04-28T16:18:25.001Z</time></trkpt><trkpt lat="45.595817169399" lon="10.131805802243528"><ele>165.0</ele><time>2026-04-28T16:18:28.001Z</time></trkpt><trkpt lat="45.59587970941147" lon="10.131861401741176"><ele>165.0</ele><time>2026-04-28T16:18:31.001Z</time></trkpt><trkpt lat="45.59593768491287" lon="10.131920670452729"><ele>165.0</ele><time>2026-04-28T16:18:34.001Z</time></trkpt><trkpt lat="45.59601277600451" lon="10.131976694844905"><ele>165.0</ele><time>2026-04-28T16:18:37.001Z</time></trkpt><trkpt lat="45.59608324699258" lon="10.132036297319331"><ele>165.0</ele><time>2026-04-28T16:18:40.001Z</time></trkpt><trkpt lat="45.59616236479375" lon="10.132091066975633"><ele>165.0</ele><time>2026-04-28T16:18:43.001Z</time></trkpt><trkpt lat="45.596228125662826" lon="10.132127109906088"><ele>165.0</ele><time>2026-04-28T16:18:46.001Z</time></trkpt><trkpt lat="45.59630959000741" lon="10.13210953530873"><ele>165.33333333333334</ele><time>2026-04-28T16:18:49.002Z</time></trkpt><trkpt lat="45.596389348290636" lon="10.132091916146017"><ele>165.66666666666666</ele><time>2026-04-28T16:18:52.002Z</time></trkpt><trkpt lat="45.59645334918887" lon="10.132000350401485"><ele>166.0</ele><time>2026-04-28T16:18:55.002Z</time></trkpt><trkpt lat="45.59651262116068" lon="10.131926367758373"><ele>166.33333333333331</ele><time>2026-04-28T16:18:58.002Z</time></trkpt><trkpt lat="45.596571282639545" lon="10.131836346629726"><ele>166.66666666666666</ele><time>2026-04-28T16:19:01.002Z</time></trkpt><trkpt lat="45.59660509056656" lon="10.131743267986705"><ele>167.0</ele><time>2026-04-28T16:19:04.002Z</time></trkpt><trkpt lat="45.596628954336616" lon="10.131631286599598"><ele>166.57142857142856</ele><time>2026-04-28T16:19:07.002Z</time></trkpt><trkpt lat="45.59666413748065" lon="10.131524934084652"><ele>166.14285714285714</ele><time>2026-04-28T16:19:10.002Z</time></trkpt><trkpt lat="45.59670050405769" lon="10.13143048514039"><ele>165.71428571428572</ele><time>2026-04-28T16:19:13.002Z</time></trkpt><trkpt lat="45.59672868160749" lon="10.131332651174555"><ele>165.28571428571428</ele><time>2026-04-28T16:19:16.002Z</time></trkpt><trkpt lat="45.596751504938986" lon="10.131230422008356"><ele>164.85714285714286</ele><time>2026-04-28T16:19:19.002Z</time></trkpt><trkpt lat="45.59677425157729" lon="10.13113022649324"><ele>164.42857142857142</ele><time>2026-04-28T16:19:22.002Z</time></trkpt><trkpt lat="45.59678993002476" lon="10.131042052565357"><ele>164.0</ele><time>2026-04-28T16:19:25.002Z</time></trkpt><trkpt lat="45.59679001798033" lon="10.130951270504294"><ele>163.99999999999997</ele><time>2026-04-28T16:19:28.002Z</time></trkpt><trkpt lat="45.59678325062109" lon="10.130857440722636"><ele>164.0</ele><time>2026-04-28T16:19:31.002Z</time></trkpt><trkpt lat="45.59678199364141" lon="10.130766676991554"><ele>164.0</ele><time>2026-04-28T16:19:34.002Z</time></trkpt><trkpt lat="45.59677377733772" lon="10.130674690954988"><ele>164.0</ele><time>2026-04-28T16:19:37.002Z</time></trkpt><trkpt lat="45.596770262264776" lon="10.130580926396235"><ele>164.0</ele><time>2026-04-28T16:19:40.002Z</time></trkpt><trkpt lat="45.59676707443296" lon="10.130487524629594"><ele>163.99999999999997</ele><time>2026-04-28T16:19:43.002Z</time></trkpt><trkpt lat="45.59677272142054" lon="10.130386803674506"><ele>164.0</ele><time>2026-04-28T16:19:46.002Z</time></trkpt><trkpt lat="45.59677277706007" lon="10.130283987756085"><ele>163.85714285714283</ele><time>2026-04-28T16:19:49.002Z</time></trkpt><trkpt lat="45.59677857804225" lon="10.130189236153406"><ele>163.71428571428572</ele><time>2026-04-28T16:19:52.002Z</time></trkpt><trkpt lat="45.59678934250251" lon="10.130090563118126"><ele>163.57142857142856</ele><time>2026-04-28T16:19:55.002Z</time></trkpt><trkpt lat="45.59679864958919" lon="10.12999228846235"><ele>163.42857142857142</ele><time>2026-04-28T16:19:58.002Z</time></trkpt><trkpt lat="45.59679807730805" lon="10.129895700987216"><ele>163.28571428571428</ele><time>2026-04-28T16:20:01.002Z</time></trkpt><trkpt lat="45.59679990329366" lon="10.129805504607504"><ele>163.14285714285714</ele><time>2026-04-28T16:20:04.002Z</time></trkpt><trkpt lat="45.59678994252061" lon="10.12971341280851"><ele>163.0</ele><time>2026-04-28T16:20:07.002Z</time></trkpt><trkpt lat="45.59680667579599" lon="10.129610741917833"><ele>163.0</ele><time>2026-04-28T16:20:10.002Z</time></trkpt><trkpt lat="45.59678649574647" lon="10.129510974365342"><ele>163.0</ele><time>2026-04-28T16:20:13.002Z</time></trkpt><trkpt lat="45.59674571955943" lon="10.12940770892855"><ele>163.0</ele><time>2026-04-28T16:20:16.002Z</time></trkpt><trkpt lat="45.59672422743214" lon="10.129304344547162"><ele>163.0</ele><time>2026-04-28T16:20:19.002Z</time></trkpt><trkpt lat="45.59670639299537" lon="10.129196828784455"><ele>163.0</ele><time>2026-04-28T16:20:22.002Z</time></trkpt><trkpt lat="45.59669289056863" lon="10.129092785049949"><ele>163.0</ele><time>2026-04-28T16:20:25.002Z</time></trkpt><trkpt lat="45.59667624272595" lon="10.128992073823188"><ele>162.71428571428572</ele><time>2026-04-28T16:20:28.003Z</time></trkpt><trkpt lat="45.59666259221757" lon="10.12889255543077"><ele>162.42857142857142</ele><time>2026-04-28T16:20:31.003Z</time></trkpt><trkpt lat="45.59664880989486" lon="10.128799349077404"><ele>162.14285714285714</ele><time>2026-04-28T16:20:34.003Z</time></trkpt><trkpt lat="45.596632519525784" lon="10.128697493387369"><ele>161.85714285714286</ele><time>2026-04-28T16:20:37.003Z</time></trkpt><trkpt lat="45.59662012249027" lon="10.128593367124736"><ele>161.57142857142856</ele><time>2026-04-28T16:20:40.003Z</time></trkpt><trkpt lat="45.5966094740608" lon="10.128481427840084"><ele>161.28571428571428</ele><time>2026-04-28T16:20:43.003Z</time></trkpt><trkpt lat="45.59659311766976" lon="10.128379677547954"><ele>161.0</ele><time>2026-04-28T16:20:46.003Z</time></trkpt><trkpt lat="45.59657387746286" lon="10.128279454384849"><ele>161.28571428571428</ele><time>2026-04-28T16:20:49.003Z</time></trkpt><trkpt lat="45.596559652613294" lon="10.12817603938843"><ele>161.57142857142856</ele><time>2026-04-28T16:20:52.003Z</time></trkpt><trkpt lat="45.59655104293342" lon="10.128076370826564"><ele>161.85714285714286</ele><time>2026-04-28T16:20:55.003Z</time></trkpt><trkpt lat="45.596531942737094" lon="10.127976043140182"><ele>162.14285714285714</ele><time>2026-04-28T16:20:59.003Z</time></trkpt><trkpt lat="45.5965209406928" lon="10.127878617778943"><ele>162.42857142857142</ele><time>2026-04-28T16:21:03.003Z</time></trkpt><trkpt lat="45.59650904484654" lon="10.127786033442645"><ele>162.71428571428572</ele><time>2026-04-28T16:21:07.003Z</time></trkpt><trkpt lat="45.5965058317652" lon="10.127694881427564"><ele>163.0</ele><time>2026-04-28T16:21:10.003Z</time></trkpt><trkpt lat="45.59650044261119" lon="10.12759349398885"><ele>163.0</ele><time>2026-04-28T16:21:14.003Z</time></trkpt><trkpt lat="45.596494248130874" lon="10.127501116457362"><ele>163.0</ele><time>2026-04-28T16:21:17.003Z</time></trkpt><trkpt lat="45.59649768509809" lon="10.127410287759897"><ele>163.0</ele><time>2026-04-28T16:21:20.003Z</time></trkpt><trkpt lat="45.59649671452361" lon="10.127309762053928"><ele>163.0</ele><time>2026-04-28T16:21:23.003Z</time></trkpt><trkpt lat="45.59650140911749" lon="10.127208833248394"><ele>163.0</ele><time>2026-04-28T16:21:26.003Z</time></trkpt><trkpt lat="45.5964973765466" lon="10.127109048296944"><ele>163.0</ele><time>2026-04-28T16:21:29.003Z</time></trkpt><trkpt lat="45.59649699631719" lon="10.127011872723264"><ele>163.0</ele><time>2026-04-28T16:21:32.003Z</time></trkpt><trkpt lat="45.596497621924605" lon="10.126897803323097"><ele>163.33333333333334</ele><time>2026-04-28T16:21:35.003Z</time></trkpt><trkpt lat="45.59650059241646" lon="10.126791884914535"><ele>163.66666666666669</ele><time>2026-04-28T16:21:38.003Z</time></trkpt><trkpt lat="45.59649641658524" lon="10.12668982272647"><ele>164.0</ele><time>2026-04-28T16:21:41.003Z</time></trkpt><trkpt lat="45.59649608244222" lon="10.12658729619565"><ele>164.33333333333334</ele><time>2026-04-28T16:21:44.003Z</time></trkpt><trkpt lat="45.596513690801594" lon="10.126478159516715"><ele>164.66666666666666</ele><time>2026-04-28T16:21:47.003Z</time></trkpt><trkpt lat="45.59653319450296" lon="10.12636738326611"><ele>165.0</ele><time>2026-04-28T16:21:50.003Z</time></trkpt><trkpt lat="45.59654430084768" lon="10.126250256079576"><ele>165.42857142857144</ele><time>2026-04-28T16:21:53.003Z</time></trkpt><trkpt lat="45.596551343248" lon="10.126140345611724"><ele>165.85714285714286</ele><time>2026-04-28T16:21:56.003Z</time></trkpt><trkpt lat="45.59654761198999" lon="10.126030713769357"><ele>166.28571428571428</ele><time>2026-04-28T16:21:59.003Z</time></trkpt><trkpt lat="45.59655501650839" lon="10.125919017910492"><ele>166.71428571428572</ele><time>2026-04-28T16:22:02.003Z</time></trkpt><trkpt lat="45.59655809835749" lon="10.125810760415582"><ele>167.14285714285714</ele><time>2026-04-28T16:22:05.003Z</time></trkpt><trkpt lat="45.59655461215788" lon="10.125705349852723"><ele>167.57142857142858</ele><time>2026-04-28T16:22:08.004Z</time></trkpt><trkpt lat="45.59656349677119" lon="10.125611946535551"><ele>168.0</ele><time>2026-04-28T16:22:11.004Z</time></trkpt><trkpt lat="45.59656774405529" lon="10.12551635032184"><ele>168.0</ele><time>2026-04-28T16:22:14.004Z</time></trkpt><trkpt lat="45.59659877114659" lon="10.125414644731347"><ele>168.0</ele><time>2026-04-28T16:22:17.004Z</time></trkpt><trkpt lat="45.59660835478606" lon="10.125307421716379"><ele>168.0</ele><time>2026-04-28T16:22:20.004Z</time></trkpt><trkpt lat="45.596619373300214" lon="10.1251956244529"><ele>168.0</ele><time>2026-04-28T16:22:23.004Z</time></trkpt><trkpt lat="45.5966251206862" lon="10.125087054330889"><ele>168.0</ele><time>2026-04-28T16:22:26.004Z</time></trkpt><trkpt lat="45.596627031269925" lon="10.124977302173692"><ele>168.0</ele><time>2026-04-28T16:22:29.004Z</time></trkpt><trkpt lat="45.59663205418243" lon="10.124863514978651"><ele>168.0</ele><time>2026-04-28T16:22:32.004Z</time></trkpt><trkpt lat="45.596631801221214" lon="10.124743301688284"><ele>168.0</ele><time>2026-04-28T16:22:35.004Z</time></trkpt><trkpt lat="45.59662568002364" lon="10.1246381286622"><ele>168.0</ele><time>2026-04-28T16:22:38.004Z</time></trkpt><trkpt lat="45.59661024727866" lon="10.124519763156433"><ele>168.0</ele><time>2026-04-28T16:22:41.004Z</time></trkpt><trkpt lat="45.59660238212891" lon="10.12441860698812"><ele>168.0</ele><time>2026-04-28T16:22:44.004Z</time></trkpt><trkpt lat="45.59660911382421" lon="10.124311228000161"><ele>168.0</ele><time>2026-04-28T16:22:47.004Z</time></trkpt><trkpt lat="45.59662268895968" lon="10.124207916408551"><ele>168.0</ele><time>2026-04-28T16:22:50.004Z</time></trkpt><trkpt lat="45.59656862268348" lon="10.124113428982705"><ele>168.0</ele><time>2026-04-28T16:22:53.004Z</time></trkpt><trkpt lat="45.596568134785564" lon="10.124001153374689"><ele>168.0</ele><time>2026-04-28T16:22:56.004Z</time></trkpt><trkpt lat="45.59657889473699" lon="10.12387828549527"><ele>168.0</ele><time>2026-04-28T16:22:59.004Z</time></trkpt><trkpt lat="45.59660360918091" lon="10.12377707896228"><ele>168.0</ele><time>2026-04-28T16:23:02.004Z</time></trkpt><trkpt lat="45.596602211565056" lon="10.12366189618286"><ele>168.0</ele><time>2026-04-28T16:23:05.004Z</time></trkpt><trkpt lat="45.59660035011857" lon="10.123545921386318"><ele>168.0</ele><time>2026-04-28T16:23:08.004Z</time></trkpt><trkpt lat="45.596596512257406" lon="10.123436009772158"><ele>168.0</ele><time>2026-04-28T16:23:11.004Z</time></trkpt><trkpt lat="45.59659300541946" lon="10.123328118672841"><ele>168.0</ele><time>2026-04-28T16:23:14.004Z</time></trkpt><trkpt lat="45.59658367245685" lon="10.123217558317094"><ele>168.0</ele><time>2026-04-28T16:23:17.004Z</time></trkpt><trkpt lat="45.59656573314414" lon="10.123114282154972"><ele>168.0</ele><time>2026-04-28T16:23:20.004Z</time></trkpt><trkpt lat="45.5965480223902" lon="10.122996934094848"><ele>168.0</ele><time>2026-04-28T16:23:23.004Z</time></trkpt><trkpt lat="45.596533391145066" lon="10.122895976820097"><ele>167.71428571428572</ele><time>2026-04-28T16:23:26.004Z</time></trkpt><trkpt lat="45.59653049966069" lon="10.12279316420671"><ele>167.42857142857144</ele><time>2026-04-28T16:23:29.004Z</time></trkpt><trkpt lat="45.5965288776544" lon="10.122690313942538"><ele>167.14285714285714</ele><time>2026-04-28T16:23:32.004Z</time></trkpt><trkpt lat="45.59653603156116" lon="10.122584632251964"><ele>166.85714285714286</ele><time>2026-04-28T16:23:35.004Z</time></trkpt><trkpt lat="45.59655411813032" lon="10.122483855536045"><ele>166.57142857142858</ele><time>2026-04-28T16:23:38.004Z</time></trkpt><trkpt lat="45.59656854324746" lon="10.122375898381431"><ele>166.28571428571428</ele><time>2026-04-28T16:23:41.004Z</time></trkpt><trkpt lat="45.59659180718355" lon="10.122274083849758"><ele>166.0</ele><time>2026-04-28T16:23:44.004Z</time></trkpt><trkpt lat="45.5966385057075" lon="10.122168891137328"><ele>165.83333333333334</ele><time>2026-04-28T16:23:47.005Z</time></trkpt><trkpt lat="45.59666711392857" lon="10.122060628981234"><ele>165.66666666666669</ele><time>2026-04-28T16:23:50.005Z</time></trkpt><trkpt lat="45.596703609558624" lon="10.121966711841225"><ele>165.5</ele><time>2026-04-28T16:23:53.005Z</time></trkpt><trkpt lat="45.59672086111086" lon="10.121859631483595"><ele>165.33333333333334</ele><time>2026-04-28T16:23:56.005Z</time></trkpt><trkpt lat="45.59673830815467" lon="10.121757295078513"><ele>165.16666666666666</ele><time>2026-04-28T16:23:59.005Z</time></trkpt><trkpt lat="45.596746703338255" lon="10.121654638582504"><ele>165.0</ele><time>2026-04-28T16:24:02.005Z</time></trkpt><trkpt lat="45.59675958602516" lon="10.121555230610895"><ele>165.0</ele><time>2026-04-28T16:24:05.005Z</time></trkpt><trkpt lat="45.596765702456665" lon="10.121443987076093"><ele>165.0</ele><time>2026-04-28T16:24:09.005Z</time></trkpt><trkpt lat="45.59678199751527" lon="10.121332385241454"><ele>165.0</ele><time>2026-04-28T16:24:13.005Z</time></trkpt><trkpt lat="45.596801176743206" lon="10.121217370024246"><ele>165.0</ele><time>2026-04-28T16:24:17.005Z</time></trkpt><trkpt lat="45.5968111442889" lon="10.121103455856789"><ele>165.0</ele><time>2026-04-28T16:24:21.005Z</time></trkpt><trkpt lat="45.596818034118265" lon="10.120979632010071"><ele>165.0</ele><time>2026-04-28T16:24:25.005Z</time></trkpt><trkpt lat="45.59683080311906" lon="10.120889479839732"><ele>165.00000000000003</ele><time>2026-04-28T16:24:28.005Z</time></trkpt><trkpt lat="45.596845807508416" lon="10.120783071480515"><ele>165.0</ele><time>2026-04-28T16:24:31.005Z</time></trkpt><trkpt lat="45.59685057313225" lon="10.120677946103697"><ele>165.0</ele><time>2026-04-28T16:24:34.005Z</time></trkpt><trkpt lat="45.59686183522947" lon="10.12056985638252"><ele>165.0</ele><time>2026-04-28T16:24:37.005Z</time></trkpt><trkpt lat="45.59686936802169" lon="10.12046552430607"><ele>165.0</ele><time>2026-04-28T16:24:40.005Z</time></trkpt><trkpt lat="45.59687001523995" lon="10.12035479234782"><ele>165.00000000000003</ele><time>2026-04-28T16:24:43.005Z</time></trkpt><trkpt lat="45.5968744460168" lon="10.120256385888807"><ele>165.0</ele><time>2026-04-28T16:24:46.005Z</time></trkpt><trkpt lat="45.5968764138627" lon="10.120142492716631"><ele>165.14285714285717</ele><time>2026-04-28T16:24:49.005Z</time></trkpt><trkpt lat="45.59688673698966" lon="10.120023957388351"><ele>165.28571428571428</ele><time>2026-04-28T16:24:53.005Z</time></trkpt><trkpt lat="45.59688824270248" lon="10.11992177136345"><ele>165.42857142857144</ele><time>2026-04-28T16:24:56.005Z</time></trkpt><trkpt lat="45.596897091534345" lon="10.119821230827846"><ele>165.57142857142858</ele><time>2026-04-28T16:24:59.005Z</time></trkpt><trkpt lat="45.59691110901018" lon="10.119718748243203"><ele>165.71428571428572</ele><time>2026-04-28T16:25:02.005Z</time></trkpt><trkpt lat="45.596911865178505" lon="10.119619259873017"><ele>165.85714285714286</ele><time>2026-04-28T16:25:05.005Z</time></trkpt><trkpt lat="45.596919283552445" lon="10.119519962770656"><ele>166.0</ele><time>2026-04-28T16:25:08.005Z</time></trkpt><trkpt lat="45.596930152308104" lon="10.119428499098674"><ele>166.33333333333334</ele><time>2026-04-28T16:25:11.005Z</time></trkpt><trkpt lat="45.596941673421306" lon="10.119313610768325"><ele>166.66666666666669</ele><time>2026-04-28T16:25:15.005Z</time></trkpt><trkpt lat="45.5969618275167" lon="10.119203886733452"><ele>167.0</ele><time>2026-04-28T16:25:19.005Z</time></trkpt><trkpt lat="45.596987876246" lon="10.119095763897047"><ele>167.33333333333334</ele><time>2026-04-28T16:25:23.005Z</time></trkpt><trkpt lat="45.59700587032927" lon="10.118988882121318"><ele>167.66666666666666</ele><time>2026-04-28T16:25:27.006Z</time></trkpt><trkpt lat="45.597012933002915" lon="10.11887590167116"><ele>168.0</ele><time>2026-04-28T16:25:31.006Z</time></trkpt><trkpt lat="45.597022197766385" lon="10.1187739622076"><ele>168.0</ele><time>2026-04-28T16:25:34.006Z</time></trkpt><trkpt lat="45.59701701384219" lon="10.118672392026687"><ele>168.0</ele><time>2026-04-28T16:25:37.006Z</time></trkpt><trkpt lat="45.59701705357611" lon="10.118563389954875"><ele>168.0</ele><time>2026-04-28T16:25:40.006Z</time></trkpt><trkpt lat="45.59703700940118" lon="10.11846005167875"><ele>168.0</ele><time>2026-04-28T16:25:43.006Z</time></trkpt><trkpt lat="45.59704233432952" lon="10.11834693387473"><ele>168.0</ele><time>2026-04-28T16:25:46.006Z</time></trkpt><trkpt lat="45.597056128942604" lon="10.118248203736782"><ele>168.0</ele><time>2026-04-28T16:25:49.006Z</time></trkpt><trkpt lat="45.59705279959083" lon="10.11813804338434"><ele>168.0</ele><time>2026-04-28T16:25:52.006Z</time></trkpt><trkpt lat="45.59705436520813" lon="10.118038093830965"><ele>168.33333333333334</ele><time>2026-04-28T16:25:55.006Z</time></trkpt><trkpt lat="45.59706513867724" lon="10.117932772711686"><ele>168.66666666666666</ele><time>2026-04-28T16:25:58.006Z</time></trkpt><trkpt lat="45.59707502033471" lon="10.117815101672198"><ele>169.0</ele><time>2026-04-28T16:26:01.006Z</time></trkpt><trkpt lat="45.59708573977418" lon="10.117704880387947"><ele>169.33333333333331</ele><time>2026-04-28T16:26:04.006Z</time></trkpt><trkpt lat="45.59710927798838" lon="10.11760758923834"><ele>169.66666666666666</ele><time>2026-04-28T16:26:07.006Z</time></trkpt><trkpt lat="45.59712602436123" lon="10.117493769974661"><ele>170.0</ele><time>2026-04-28T16:26:10.006Z</time></trkpt><trkpt lat="45.59713315520322" lon="10.117367457707369"><ele>170.16666666666666</ele><time>2026-04-28T16:26:13.006Z</time></trkpt><trkpt lat="45.597133387317065" lon="10.11724214120821"><ele>170.33333333333331</ele><time>2026-04-28T16:26:16.006Z</time></trkpt><trkpt lat="45.5971283415546" lon="10.11712115310715"><ele>170.5</ele><time>2026-04-28T16:26:19.006Z</time></trkpt><trkpt lat="45.59712008434103" lon="10.1170093430071"><ele>170.66666666666666</ele><time>2026-04-28T16:26:22.006Z</time></trkpt><trkpt lat="45.59712077243519" lon="10.116897254592375"><ele>170.83333333333334</ele><time>2026-04-28T16:26:25.006Z</time></trkpt><trkpt lat="45.59712293986786" lon="10.116791982878965"><ele>171.0</ele><time>2026-04-28T16:26:28.006Z</time></trkpt><trkpt lat="45.597119875390334" lon="10.116682027657424"><ele>171.0</ele><time>2026-04-28T16:26:31.006Z</time></trkpt><trkpt lat="45.59711082296817" lon="10.116570583582131"><ele>171.0</ele><time>2026-04-28T16:26:34.006Z</time></trkpt><trkpt lat="45.597106787443494" lon="10.116460146046817"><ele>171.0</ele><time>2026-04-28T16:26:37.006Z</time></trkpt><trkpt lat="45.59709559994877" lon="10.11634990226711"><ele>171.0</ele><time>2026-04-28T16:26:40.006Z</time></trkpt><trkpt lat="45.59708364576499" lon="10.11624269433804"><ele>171.0</ele><time>2026-04-28T16:26:43.006Z</time></trkpt><trkpt lat="45.59708308976348" lon="10.116128862964617"><ele>171.0</ele><time>2026-04-28T16:26:46.006Z</time></trkpt><trkpt lat="45.59706459183316" lon="10.116013184694236"><ele>171.0</ele><time>2026-04-28T16:26:49.006Z</time></trkpt><trkpt lat="45.59704601682201" lon="10.115896487984312"><ele>171.0</ele><time>2026-04-28T16:26:52.006Z</time></trkpt><trkpt lat="45.59702616519402" lon="10.115786788049563"><ele>171.0</ele><time>2026-04-28T16:26:55.006Z</time></trkpt><trkpt lat="45.59701190743732" lon="10.115680420266814"><ele>171.0</ele><time>2026-04-28T16:26:58.006Z</time></trkpt><trkpt lat="45.596999822712135" lon="10.115567929618928"><ele>171.0</ele><time>2026-04-28T16:27:01.006Z</time></trkpt><trkpt lat="45.596978425276205" lon="10.115468302793778"><ele>171.0</ele><time>2026-04-28T16:27:04.006Z</time></trkpt><trkpt lat="45.596961733878324" lon="10.115370900304882"><ele>170.99999999999997</ele><time>2026-04-28T16:27:07.007Z</time></trkpt><trkpt lat="45.59694719404995" lon="10.115272619606388"><ele>171.0</ele><time>2026-04-28T16:27:10.007Z</time></trkpt><trkpt lat="45.596940241056934" lon="10.115166984299083"><ele>171.0</ele><time>2026-04-28T16:27:13.007Z</time></trkpt><trkpt lat="45.596924329832106" lon="10.115072811997257"><ele>171.0</ele><time>2026-04-28T16:27:16.007Z</time></trkpt><trkpt lat="45.59691767164308" lon="10.114968841085588"><ele>171.0</ele><time>2026-04-28T16:27:19.007Z</time></trkpt><trkpt lat="45.59690584852801" lon="10.114845364993569"><ele>170.99999999999997</ele><time>2026-04-28T16:27:23.007Z</time></trkpt><trkpt lat="45.59689510706281" lon="10.114748304581536"><ele>171.0</ele><time>2026-04-28T16:27:26.007Z</time></trkpt><trkpt lat="45.59688609874144" lon="10.114644072644085"><ele>171.14285714285714</ele><time>2026-04-28T16:27:29.007Z</time></trkpt><trkpt lat="45.596872667240085" lon="10.114547101867398"><ele>171.28571428571428</ele><time>2026-04-28T16:27:32.007Z</time></trkpt><trkpt lat="45.59685597541068" lon="10.114449845831736"><ele>171.42857142857144</ele><time>2026-04-28T16:27:35.007Z</time></trkpt><trkpt lat="45.596843107402485" lon="10.114346550327802"><ele>171.57142857142856</ele><time>2026-04-28T16:27:38.007Z</time></trkpt><trkpt lat="45.59683787437185" lon="10.114246114516384"><ele>171.71428571428572</ele><time>2026-04-28T16:27:41.007Z</time></trkpt><trkpt lat="45.596824988583" lon="10.114147491992421"><ele>171.85714285714286</ele><time>2026-04-28T16:27:44.007Z</time></trkpt><trkpt lat="45.59681275557982" lon="10.114050738510247"><ele>172.0</ele><time>2026-04-28T16:27:47.007Z</time></trkpt><trkpt lat="45.59680156262174" lon="10.113945776339968"><ele>172.14285714285717</ele><time>2026-04-28T16:27:50.007Z</time></trkpt><trkpt lat="45.59679339842558" lon="10.113850321010277"><ele>172.28571428571428</ele><time>2026-04-28T16:27:53.007Z</time></trkpt><trkpt lat="45.59678185814935" lon="10.11375227026737"><ele>172.42857142857144</ele><time>2026-04-28T16:27:56.007Z</time></trkpt><trkpt lat="45.59677351412258" lon="10.11365639972001"><ele>172.57142857142858</ele><time>2026-04-28T16:27:59.007Z</time></trkpt><trkpt lat="45.59677834617442" lon="10.113555212896966"><ele>172.71428571428572</ele><time>2026-04-28T16:28:02.007Z</time></trkpt><trkpt lat="45.59677759989754" lon="10.113456306700497"><ele>172.85714285714286</ele><time>2026-04-28T16:28:05.007Z</time></trkpt><trkpt lat="45.596782437859986" lon="10.113360253075134"><ele>173.0</ele><time>2026-04-28T16:28:08.007Z</time></trkpt><trkpt lat="45.5967770384914" lon="10.113265044200215"><ele>173.0</ele><time>2026-04-28T16:28:11.007Z</time></trkpt><trkpt lat="45.59678652147441" lon="10.11315948558648"><ele>173.0</ele><time>2026-04-28T16:28:14.007Z</time></trkpt><trkpt lat="45.59679112563321" lon="10.113061132122976"><ele>173.0</ele><time>2026-04-28T16:28:17.007Z</time></trkpt><trkpt lat="45.59679215469553" lon="10.112965286035053"><ele>173.0</ele><time>2026-04-28T16:28:20.007Z</time></trkpt><trkpt lat="45.59681499442832" lon="10.112850570386247"><ele>173.0</ele><time>2026-04-28T16:28:24.007Z</time></trkpt><trkpt lat="45.59683611158418" lon="10.11276261523745"><ele>173.0</ele><time>2026-04-28T16:28:27.007Z</time></trkpt><trkpt lat="45.596855966312376" lon="10.112672668259323"><ele>173.0</ele><time>2026-04-28T16:28:30.007Z</time></trkpt><trkpt lat="45.59687590153919" lon="10.112579229299312"><ele>173.0</ele><time>2026-04-28T16:28:33.007Z</time></trkpt><trkpt lat="45.59689309332392" lon="10.11248986280034"><ele>173.0</ele><time>2026-04-28T16:28:36.007Z</time></trkpt><trkpt lat="45.59692564984895" lon="10.112400805278469"><ele>173.0</ele><time>2026-04-28T16:28:39.007Z</time></trkpt><trkpt lat="45.59694576285621" lon="10.112304824527728"><ele>173.0</ele><time>2026-04-28T16:28:42.007Z</time></trkpt><trkpt lat="45.59698840381784" lon="10.112223197362496"><ele>173.0</ele><time>2026-04-28T16:28:45.008Z</time></trkpt><trkpt lat="45.59703434238226" lon="10.112154076783446"><ele>173.0</ele><time>2026-04-28T16:28:48.008Z</time></trkpt><trkpt lat="45.597091258989835" lon="10.112070921680841"><ele>173.0</ele><time>2026-04-28T16:28:52.008Z</time></trkpt><trkpt lat="45.59714344312577" lon="10.111991408170407"><ele>173.66666666666666</ele><time>2026-04-28T16:28:56.008Z</time></trkpt><trkpt lat="45.59716367759376" lon="10.111898310484117"><ele>174.33333333333331</ele><time>2026-04-28T16:28:59.008Z</time></trkpt><trkpt lat="45.59718756919133" lon="10.111807315773333"><ele>175.0</ele><time>2026-04-28T16:29:02.008Z</time></trkpt><trkpt lat="45.59723324307614" lon="10.111723964002724"><ele>175.66666666666666</ele><time>2026-04-28T16:29:05.008Z</time></trkpt><trkpt lat="45.59726875595062" lon="10.111622459982797"><ele>176.33333333333334</ele><time>2026-04-28T16:29:08.008Z</time></trkpt><trkpt lat="45.59730515087743" lon="10.111513345936649"><ele>177.0</ele><time>2026-04-28T16:29:11.008Z</time></trkpt><trkpt lat="45.59735061719545" lon="10.111406529857451"><ele>177.0</ele><time>2026-04-28T16:29:14.008Z</time></trkpt><trkpt lat="45.59740078627905" lon="10.111317832335782"><ele>177.0</ele><time>2026-04-28T16:29:17.008Z</time></trkpt><trkpt lat="45.59745040389296" lon="10.111246024563172"><ele>177.0</ele><time>2026-04-28T16:29:20.008Z</time></trkpt><trkpt lat="45.59751137487708" lon="10.111165973917686"><ele>177.0</ele><time>2026-04-28T16:29:23.008Z</time></trkpt><trkpt lat="45.59754111450268" lon="10.111056051649015"><ele>177.0</ele><time>2026-04-28T16:29:26.008Z</time></trkpt><trkpt lat="45.59757844118808" lon="10.110960208840341"><ele>177.0</ele><time>2026-04-28T16:29:29.008Z</time></trkpt><trkpt lat="45.59757527766404" lon="10.110830287662909"><ele>177.0</ele><time>2026-04-28T16:29:32.008Z</time></trkpt><trkpt lat="45.59764526887288" lon="10.110757133786517"><ele>177.0</ele><time>2026-04-28T16:29:35.008Z</time></trkpt><trkpt lat="45.59771856689219" lon="10.110774589171424"><ele>177.0</ele><time>2026-04-28T16:29:38.008Z</time></trkpt><trkpt lat="45.59776534322499" lon="10.110838156463583"><ele>177.0</ele><time>2026-04-28T16:29:41.008Z</time></trkpt><trkpt lat="45.59781880160731" lon="10.110909678664685"><ele>177.0</ele><time>2026-04-28T16:29:44.008Z</time></trkpt><trkpt lat="45.59789502109169" lon="10.110964420010651"><ele>177.0</ele><time>2026-04-28T16:29:48.008Z</time></trkpt><trkpt lat="45.59796825715386" lon="10.110994606611838"><ele>176.5</ele><time>2026-04-28T16:29:51.008Z</time></trkpt><trkpt lat="45.59804138132465" lon="10.111020518602068"><ele>176.0</ele><time>2026-04-28T16:29:54.008Z</time></trkpt><trkpt lat="45.59812257674503" lon="10.111030363473988"><ele>175.5</ele><time>2026-04-28T16:29:57.008Z</time></trkpt><trkpt lat="45.5981926024287" lon="10.11107132886644"><ele>175.0</ele><time>2026-04-28T16:30:00.008Z</time></trkpt><trkpt lat="45.59825522545356" lon="10.111120835701945"><ele>174.5</ele><time>2026-04-28T16:30:03.008Z</time></trkpt><trkpt lat="45.59832079036503" lon="10.111178842463152"><ele>174.0</ele><time>2026-04-28T16:30:06.008Z</time></trkpt><trkpt lat="45.598382622072194" lon="10.11123201363838"><ele>174.0</ele><time>2026-04-28T16:30:09.008Z</time></trkpt><trkpt lat="45.598449418582426" lon="10.1112802904047"><ele>174.0</ele><time>2026-04-28T16:30:12.008Z</time></trkpt><trkpt lat="45.59852660165518" lon="10.111318107472817"><ele>174.0</ele><time>2026-04-28T16:30:15.008Z</time></trkpt><trkpt lat="45.59859475011769" lon="10.111355292368978"><ele>174.0</ele><time>2026-04-28T16:30:18.008Z</time></trkpt><trkpt lat="45.598663178056036" lon="10.111400610883479"><ele>174.0</ele><time>2026-04-28T16:30:21.008Z</time></trkpt><trkpt lat="45.598727533428075" lon="10.111453967335981"><ele>174.0</ele><time>2026-04-28T16:30:24.008Z</time></trkpt><trkpt lat="45.59879475216541" lon="10.111486775233201"><ele>174.14285714285714</ele><time>2026-04-28T16:30:27.009Z</time></trkpt><trkpt lat="45.59886155434056" lon="10.111521077389952"><ele>174.28571428571428</ele><time>2026-04-28T16:30:30.009Z</time></trkpt><trkpt lat="45.59893792712813" lon="10.111536123838698"><ele>174.42857142857144</ele><time>2026-04-28T16:30:33.009Z</time></trkpt><trkpt lat="45.59901662528453" lon="10.111536860677727"><ele>174.57142857142856</ele><time>2026-04-28T16:30:36.009Z</time></trkpt><trkpt lat="45.599089181517954" lon="10.111540132143313"><ele>174.71428571428572</ele><time>2026-04-28T16:30:39.009Z</time></trkpt><trkpt lat="45.599154358944084" lon="10.111535288775764"><ele>174.85714285714286</ele><time>2026-04-28T16:30:42.009Z</time></trkpt><trkpt lat="45.599224154724936" lon="10.111532240203886"><ele>175.0</ele><time>2026-04-28T16:30:45.009Z</time></trkpt><trkpt lat="45.59929652275007" lon="10.11152016130634"><ele>175.0</ele><time>2026-04-28T16:30:48.009Z</time></trkpt><trkpt lat="45.599364520705485" lon="10.111511484055818"><ele>175.0</ele><time>2026-04-28T16:30:51.009Z</time></trkpt><trkpt lat="45.59943296841147" lon="10.11147891556102"><ele>175.0</ele><time>2026-04-28T16:30:54.009Z</time></trkpt><trkpt lat="45.59950235042237" lon="10.111431754867883"><ele>175.0</ele><time>2026-04-28T16:30:58.009Z</time></trkpt><trkpt lat="45.5995637861148" lon="10.111373412910169"><ele>175.0</ele><time>2026-04-28T16:31:01.009Z</time></trkpt><trkpt lat="45.599621450639674" lon="10.11130223838349"><ele>175.0</ele><time>2026-04-28T16:31:04.009Z</time></trkpt><trkpt lat="45.599676883198605" lon="10.11123065688583"><ele>175.0</ele><time>2026-04-28T16:31:07.009Z</time></trkpt><trkpt lat="45.59973018916188" lon="10.111151695935689"><ele>175.5</ele><time>2026-04-28T16:31:10.009Z</time></trkpt><trkpt lat="45.599770658571614" lon="10.111054816571402"><ele>176.0</ele><time>2026-04-28T16:31:13.009Z</time></trkpt><trkpt lat="45.59982158967547" lon="10.110967919369163"><ele>176.5</ele><time>2026-04-28T16:31:16.009Z</time></trkpt><trkpt lat="45.59988233111967" lon="10.110883529530899"><ele>177.0</ele><time>2026-04-28T16:31:19.009Z</time></trkpt><trkpt lat="45.59993171408125" lon="10.11079676157391"><ele>177.5</ele><time>2026-04-28T16:31:22.009Z</time></trkpt><trkpt lat="45.59999222005041" lon="10.110724688160108"><ele>178.0</ele><time>2026-04-28T16:31:25.009Z</time></trkpt><trkpt lat="45.60005672629342" lon="10.110668923114746"><ele>177.99999999999997</ele><time>2026-04-28T16:31:28.009Z</time></trkpt><trkpt lat="45.600126603821366" lon="10.110634843341398"><ele>178.0</ele><time>2026-04-28T16:31:31.009Z</time></trkpt><trkpt lat="45.60020027350641" lon="10.110615184586985"><ele>178.0</ele><time>2026-04-28T16:31:34.009Z</time></trkpt><trkpt lat="45.60027131263579" lon="10.110625068822527"><ele>178.0</ele><time>2026-04-28T16:31:38.009Z</time></trkpt><trkpt lat="45.600347706228455" lon="10.110609861595027"><ele>178.0</ele><time>2026-04-28T16:31:41.009Z</time></trkpt><trkpt lat="45.600418407576825" lon="10.110592472780727"><ele>177.99999999999997</ele><time>2026-04-28T16:31:44.009Z</time></trkpt><trkpt lat="45.60048330374775" lon="10.110572280989498"><ele>178.0</ele><time>2026-04-28T16:31:47.009Z</time></trkpt><trkpt lat="45.60055385918343" lon="10.110572757657211"><ele>177.85714285714283</ele><time>2026-04-28T16:31:50.009Z</time></trkpt><trkpt lat="45.600626497351946" lon="10.110578481324428"><ele>177.71428571428572</ele><time>2026-04-28T16:31:53.009Z</time></trkpt><trkpt lat="45.60070606786842" lon="10.110573570823348"><ele>177.57142857142856</ele><time>2026-04-28T16:31:56.009Z</time></trkpt><trkpt lat="45.600782881274895" lon="10.110589131827512"><ele>177.42857142857142</ele><time>2026-04-28T16:31:59.009Z</time></trkpt><trkpt lat="45.60085258808399" lon="10.11060593125276"><ele>177.28571428571428</ele><time>2026-04-28T16:32:02.009Z</time></trkpt><trkpt lat="45.60092431485054" lon="10.110626793527977"><ele>177.14285714285714</ele><time>2026-04-28T16:32:05.01Z</time></trkpt><trkpt lat="45.60099681594008" lon="10.110652577645203"><ele>177.0</ele><time>2026-04-28T16:32:08.01Z</time></trkpt><trkpt lat="45.6010720009709" lon="10.110674360586412"><ele>177.0</ele><time>2026-04-28T16:32:11.01Z</time></trkpt><trkpt lat="45.60113726645982" lon="10.110724405163813"><ele>177.0</ele><time>2026-04-28T16:32:14.01Z</time></trkpt><trkpt lat="45.60120383521427" lon="10.110769785250033"><ele>177.0</ele><time>2026-04-28T16:32:17.01Z</time></trkpt><trkpt lat="45.6012634669335" lon="10.110835907384937"><ele>177.0</ele><time>2026-04-28T16:32:20.01Z</time></trkpt><trkpt lat="45.60132332310657" lon="10.110889118927833"><ele>177.0</ele><time>2026-04-28T16:32:23.01Z</time></trkpt><trkpt lat="45.601390213299105" lon="10.110918749177129"><ele>177.0</ele><time>2026-04-28T16:32:26.01Z</time></trkpt><trkpt lat="45.60146099186979" lon="10.110887819663324"><ele>177.0</ele><time>2026-04-28T16:32:29.01Z</time></trkpt><trkpt lat="45.601529676348534" lon="10.11082884876885"><ele>177.0</ele><time>2026-04-28T16:32:33.01Z</time></trkpt><trkpt lat="45.60151950680134" lon="10.110738230475658"><ele>177.0</ele><time>2026-04-28T16:32:37.01Z</time></trkpt><trkpt lat="45.601481314520065" lon="10.110643506665296"><ele>177.0</ele><time>2026-04-28T16:32:40.01Z</time></trkpt><trkpt lat="45.60140152837719" lon="10.110616170697245"><ele>177.0</ele><time>2026-04-28T16:32:43.01Z</time></trkpt><trkpt lat="45.60133319062461" lon="10.110560830799558"><ele>177.0</ele><time>2026-04-28T16:32:46.01Z</time></trkpt><trkpt lat="45.60126785408949" lon="10.110514642010749"><ele>177.0</ele><time>2026-04-28T16:32:49.01Z</time></trkpt><trkpt lat="45.60120019777312" lon="10.110469356958845"><ele>177.0</ele><time>2026-04-28T16:32:52.01Z</time></trkpt><trkpt lat="45.60113326169325" lon="10.110424144076106"><ele>177.0</ele><time>2026-04-28T16:32:55.01Z</time></trkpt><trkpt lat="45.601065727019225" lon="10.110387778642718"><ele>177.0</ele><time>2026-04-28T16:32:58.01Z</time></trkpt><trkpt lat="45.60098973257864" lon="10.110329887270447"><ele>177.0</ele><time>2026-04-28T16:33:02.01Z</time></trkpt><trkpt lat="45.60095360249678" lon="10.110231469259293"><ele>177.0</ele><time>2026-04-28T16:33:05.01Z</time></trkpt><trkpt lat="45.60097432036298" lon="10.110131310106638"><ele>177.0</ele><time>2026-04-28T16:33:08.01Z</time></trkpt><trkpt lat="45.60099346890776" lon="10.110036689491084"><ele>177.0</ele><time>2026-04-28T16:33:11.01Z</time></trkpt><trkpt lat="45.601009765234465" lon="10.10993331237044"><ele>176.85714285714286</ele><time>2026-04-28T16:33:14.01Z</time></trkpt><trkpt lat="45.60102692556889" lon="10.109829689764446"><ele>176.7142857142857</ele><time>2026-04-28T16:33:17.01Z</time></trkpt><trkpt lat="45.601044696014505" lon="10.109725273402637"><ele>176.57142857142856</ele><time>2026-04-28T16:33:20.01Z</time></trkpt><trkpt lat="45.60105945198503" lon="10.109627767254704"><ele>176.42857142857144</ele><time>2026-04-28T16:33:23.01Z</time></trkpt><trkpt lat="45.60107833535563" lon="10.10953546066725"><ele>176.28571428571428</ele><time>2026-04-28T16:33:26.01Z</time></trkpt><trkpt lat="45.601097633283246" lon="10.109440052051726"><ele>176.14285714285714</ele><time>2026-04-28T16:33:29.01Z</time></trkpt><trkpt lat="45.60112809001827" lon="10.109344239259851"><ele>176.0</ele><time>2026-04-28T16:33:32.01Z</time></trkpt><trkpt lat="45.601142864909384" lon="10.109233728228645"><ele>176.0</ele><time>2026-04-28T16:33:35.01Z</time></trkpt><trkpt lat="45.601155112347904" lon="10.109124570971709"><ele>176.0</ele><time>2026-04-28T16:33:38.01Z</time></trkpt><trkpt lat="45.601171992730556" lon="10.109019203525051"><ele>176.0</ele><time>2026-04-28T16:33:41.01Z</time></trkpt><trkpt lat="45.60120450524243" lon="10.108916252464676"><ele>176.0</ele><time>2026-04-28T16:33:44.011Z</time></trkpt><trkpt lat="45.60121335410787" lon="10.108810148462277"><ele>176.0</ele><time>2026-04-28T16:33:47.011Z</time></trkpt><trkpt lat="45.60123326881932" lon="10.108713982567197"><ele>176.0</ele><time>2026-04-28T16:33:50.011Z</time></trkpt><trkpt lat="45.60125497768352" lon="10.10860450144838"><ele>176.0</ele><time>2026-04-28T16:33:53.011Z</time></trkpt><trkpt lat="45.60128124461339" lon="10.108506370995169"><ele>176.0</ele><time>2026-04-28T16:33:56.011Z</time></trkpt><trkpt lat="45.60126867794831" lon="10.10839568131477"><ele>176.0</ele><time>2026-04-28T16:33:59.011Z</time></trkpt><trkpt lat="45.601204502080186" lon="10.108316962051127"><ele>176.0</ele><time>2026-04-28T16:34:02.011Z</time></trkpt><trkpt lat="45.601124366169465" lon="10.10829027854984"><ele>176.0</ele><time>2026-04-28T16:34:05.011Z</time></trkpt><trkpt lat="45.60105623378234" lon="10.108242880657048"><ele>176.0</ele><time>2026-04-28T16:34:08.011Z</time></trkpt><trkpt lat="45.60098725224869" lon="10.108219025088205"><ele>176.42857142857144</ele><time>2026-04-28T16:34:11.011Z</time></trkpt><trkpt lat="45.600927531003755" lon="10.108173598568252"><ele>176.85714285714286</ele><time>2026-04-28T16:34:14.011Z</time></trkpt><trkpt lat="45.60086465597835" lon="10.108142543988965"><ele>177.28571428571428</ele><time>2026-04-28T16:34:17.011Z</time></trkpt><trkpt lat="45.600799133904644" lon="10.108122284620668"><ele>177.71428571428572</ele><time>2026-04-28T16:34:20.011Z</time></trkpt><trkpt lat="45.60073450097691" lon="10.108073700656055"><ele>178.14285714285714</ele><time>2026-04-28T16:34:23.011Z</time></trkpt><trkpt lat="45.600667899095086" lon="10.10803794504994"><ele>178.57142857142858</ele><time>2026-04-28T16:34:26.011Z</time></trkpt><trkpt lat="45.600602976788096" lon="10.10800551724202"><ele>179.0</ele><time>2026-04-28T16:34:29.011Z</time></trkpt><trkpt lat="45.6005399767326" lon="10.107959998672898"><ele>179.00000000000003</ele><time>2026-04-28T16:34:32.011Z</time></trkpt><trkpt lat="45.60048578993653" lon="10.107903607734476"><ele>179.0</ele><time>2026-04-28T16:34:35.011Z</time></trkpt><trkpt lat="45.60043330790816" lon="10.107842683709915"><ele>179.0</ele><time>2026-04-28T16:34:38.011Z</time></trkpt><trkpt lat="45.60038071412972" lon="10.107787011920243"><ele>179.0</ele><time>2026-04-28T16:34:41.011Z</time></trkpt><trkpt lat="45.60030022216514" lon="10.107759624141197"><ele>179.0</ele><time>2026-04-28T16:34:44.011Z</time></trkpt><trkpt lat="45.60024267381329" lon="10.107704081596179"><ele>179.00000000000003</ele><time>2026-04-28T16:34:47.011Z</time></trkpt><trkpt lat="45.60018933080135" lon="10.107637369172592"><ele>179.0</ele><time>2026-04-28T16:34:50.011Z</time></trkpt><trkpt lat="45.6001197826758" lon="10.107592725187741"><ele>178.85714285714286</ele><time>2026-04-28T16:34:53.011Z</time></trkpt><trkpt lat="45.600063814913575" lon="10.107527993089766"><ele>178.71428571428572</ele><time>2026-04-28T16:34:56.011Z</time></trkpt><trkpt lat="45.60000075832692" lon="10.107486088844404"><ele>178.57142857142856</ele><time>2026-04-28T16:34:59.011Z</time></trkpt><trkpt lat="45.59993134064477" lon="10.107453071359142"><ele>178.42857142857144</ele><time>2026-04-28T16:35:02.011Z</time></trkpt><trkpt lat="45.59987253698223" lon="10.10739315992207"><ele>178.28571428571428</ele><time>2026-04-28T16:35:05.011Z</time></trkpt><trkpt lat="45.599802017391234" lon="10.107359510863962"><ele>178.14285714285714</ele><time>2026-04-28T16:35:08.011Z</time></trkpt><trkpt lat="45.59971989318302" lon="10.107321129556624"><ele>178.0</ele><time>2026-04-28T16:35:11.011Z</time></trkpt><trkpt lat="45.59965867783503" lon="10.107255940429363"><ele>178.0</ele><time>2026-04-28T16:35:14.011Z</time></trkpt><trkpt lat="45.59960358637393" lon="10.107189075488636"><ele>178.0</ele><time>2026-04-28T16:35:17.011Z</time></trkpt><trkpt lat="45.59953269362191" lon="10.107135593616254"><ele>178.0</ele><time>2026-04-28T16:35:20.003Z</time></trkpt><trkpt lat="45.59946938779483" lon="10.1070675141795"><ele>178.0</ele><time>2026-04-28T16:35:23.003Z</time></trkpt><trkpt lat="45.5994114600772" lon="10.107008782538141"><ele>178.0</ele><time>2026-04-28T16:35:26.003Z</time></trkpt><trkpt lat="45.599353353054504" lon="10.106937692219983"><ele>178.0</ele><time>2026-04-28T16:35:29.003Z</time></trkpt><trkpt lat="45.59928073388735" lon="10.106889629184122"><ele>178.0</ele><time>2026-04-28T16:35:32.003Z</time></trkpt><trkpt lat="45.59921221308088" lon="10.106840348923802"><ele>178.0</ele><time>2026-04-28T16:35:35.003Z</time></trkpt><trkpt lat="45.59915542316885" lon="10.106782177389485"><ele>178.0</ele><time>2026-04-28T16:35:38.003Z</time></trkpt><trkpt lat="45.5990925765535" lon="10.106729655096668"><ele>178.0</ele><time>2026-04-28T16:35:41.003Z</time></trkpt><trkpt lat="45.59902971257384" lon="10.106681001315845"><ele>178.0</ele><time>2026-04-28T16:35:44.003Z</time></trkpt><trkpt lat="45.5989481920847" lon="10.106640092291626"><ele>178.0</ele><time>2026-04-28T16:35:47.003Z</time></trkpt><trkpt lat="45.59885691952512" lon="10.106618437643052"><ele>178.0</ele><time>2026-04-28T16:35:50.003Z</time></trkpt><trkpt lat="45.598785408934745" lon="10.106583396576736"><ele>178.0</ele><time>2026-04-28T16:35:53.003Z</time></trkpt><trkpt lat="45.59871057179732" lon="10.106554121031014"><ele>178.0</ele><time>2026-04-28T16:35:56.003Z</time></trkpt><trkpt lat="45.598666934197496" lon="10.10644704718872"><ele>178.0</ele><time>2026-04-28T16:35:59.003Z</time></trkpt><trkpt lat="45.59860362396538" lon="10.106386397790324"><ele>178.0</ele><time>2026-04-28T16:36:02.003Z</time></trkpt><trkpt lat="45.598537206189285" lon="10.10633007986314"><ele>178.0</ele><time>2026-04-28T16:36:05.003Z</time></trkpt><trkpt lat="45.59846814874324" lon="10.106286136327547"><ele>178.16666666666669</ele><time>2026-04-28T16:36:08.002Z</time></trkpt><trkpt lat="45.59840033254586" lon="10.10628993737758"><ele>178.33333333333334</ele><time>2026-04-28T16:36:10.002Z</time></trkpt><trkpt lat="45.59831048838495" lon="10.106256578013413"><ele>178.5</ele><time>2026-04-28T16:36:13.002Z</time></trkpt><trkpt lat="45.59822258791553" lon="10.106229705628706"><ele>178.66666666666666</ele><time>2026-04-28T16:36:16.002Z</time></trkpt><trkpt lat="45.59815553507247" lon="10.10620979555908"><ele>178.83333333333331</ele><time>2026-04-28T16:36:18.002Z</time></trkpt><trkpt lat="45.598070356618514" lon="10.106211314657564"><ele>179.0</ele><time>2026-04-28T16:36:21.003Z</time></trkpt><trkpt lat="45.59798990566363" lon="10.106235410690546"><ele>179.0</ele><time>2026-04-28T16:36:24.003Z</time></trkpt><trkpt lat="45.59792617317525" lon="10.106292013720143"><ele>179.0</ele><time>2026-04-28T16:36:27.003Z</time></trkpt><trkpt lat="45.597906427943734" lon="10.106378696121395"><ele>179.0</ele><time>2026-04-28T16:36:30.003Z</time></trkpt><trkpt lat="45.59783225947283" lon="10.10643356774084"><ele>179.0</ele><time>2026-04-28T16:36:33.003Z</time></trkpt><trkpt lat="45.597777501104595" lon="10.106505043087955"><ele>179.0</ele><time>2026-04-28T16:36:36.003Z</time></trkpt><trkpt lat="45.59773314002979" lon="10.106587947740636"><ele>179.0</ele><time>2026-04-28T16:36:39.003Z</time></trkpt><trkpt lat="45.59769956963167" lon="10.106701037476968"><ele>178.33333333333331</ele><time>2026-04-28T16:36:42.003Z</time></trkpt><trkpt lat="45.597668226407066" lon="10.106806880895268"><ele>177.66666666666666</ele><time>2026-04-28T16:36:45.003Z</time></trkpt><trkpt lat="45.59763183406043" lon="10.106914937632647"><ele>177.0</ele><time>2026-04-28T16:36:48.003Z</time></trkpt><trkpt lat="45.59760999412074" lon="10.107030572492558"><ele>176.33333333333334</ele><time>2026-04-28T16:36:51.003Z</time></trkpt><trkpt lat="45.59757552562971" lon="10.107117350017072"><ele>175.66666666666669</ele><time>2026-04-28T16:36:54.003Z</time></trkpt><trkpt lat="45.597539211173434" lon="10.1072176605744"><ele>175.0</ele><time>2026-04-28T16:36:57.003Z</time></trkpt><trkpt lat="45.59750627360154" lon="10.10732694280587"><ele>174.66666666666669</ele><time>2026-04-28T16:37:00.003Z</time></trkpt><trkpt lat="45.597474062765095" lon="10.107432197038818"><ele>174.33333333333334</ele><time>2026-04-28T16:37:03.003Z</time></trkpt><trkpt lat="45.59744959482046" lon="10.107546330412836"><ele>174.0</ele><time>2026-04-28T16:37:06.003Z</time></trkpt><trkpt lat="45.59741441789187" lon="10.107643009842494"><ele>173.66666666666666</ele><time>2026-04-28T16:37:09.003Z</time></trkpt><trkpt lat="45.59737330617258" lon="10.107742298459653"><ele>173.33333333333331</ele><time>2026-04-28T16:37:12.003Z</time></trkpt><trkpt lat="45.59734308649247" lon="10.107835382986938"><ele>173.0</ele><time>2026-04-28T16:37:15.003Z</time></trkpt><trkpt lat="45.597320907130715" lon="10.107934883745274"><ele>173.0</ele><time>2026-04-28T16:37:18.003Z</time></trkpt><trkpt lat="45.59729186167087" lon="10.108022314153203"><ele>173.0</ele><time>2026-04-28T16:37:21.003Z</time></trkpt><trkpt lat="45.597270909428794" lon="10.108138130967589"><ele>173.0</ele><time>2026-04-28T16:37:24.003Z</time></trkpt><trkpt lat="45.59720540828777" lon="10.108206076847036"><ele>173.0</ele><time>2026-04-28T16:37:27.003Z</time></trkpt><trkpt lat="45.59712750282054" lon="10.10827662862631"><ele>173.0</ele><time>2026-04-28T16:37:30.003Z</time></trkpt><trkpt lat="45.597080579693085" lon="10.108339257705314"><ele>173.0</ele><time>2026-04-28T16:37:32.003Z</time></trkpt><trkpt lat="45.59703124916792" lon="10.108405945025558"><ele>173.16666666666666</ele><time>2026-04-28T16:37:34.003Z</time></trkpt><trkpt lat="45.596969230484554" lon="10.108493816125144"><ele>173.33333333333331</ele><time>2026-04-28T16:37:37.003Z</time></trkpt><trkpt lat="45.59690056800683" lon="10.108549899517548"><ele>173.5</ele><time>2026-04-28T16:37:40.003Z</time></trkpt><trkpt lat="45.59682338752391" lon="10.108589634431507"><ele>173.66666666666666</ele><time>2026-04-28T16:37:43.003Z</time></trkpt><trkpt lat="45.59674089895157" lon="10.10862708698833"><ele>173.83333333333334</ele><time>2026-04-28T16:37:46.003Z</time></trkpt><trkpt lat="45.596655571136964" lon="10.108639144665162"><ele>174.0</ele><time>2026-04-28T16:37:49.003Z</time></trkpt><trkpt lat="45.59657889593159" lon="10.108656080250668"><ele>174.0</ele><time>2026-04-28T16:37:52.003Z</time></trkpt><trkpt lat="45.59649977357706" lon="10.108684005498795"><ele>174.0</ele><time>2026-04-28T16:37:55.003Z</time></trkpt><trkpt lat="45.59642724139173" lon="10.108689769161693"><ele>174.0</ele><time>2026-04-28T16:37:58.004Z</time></trkpt><trkpt lat="45.59634659757354" lon="10.10870504631211"><ele>174.0</ele><time>2026-04-28T16:38:01.004Z</time></trkpt><trkpt lat="45.59626967788695" lon="10.108725818155008"><ele>174.0</ele><time>2026-04-28T16:38:04.004Z</time></trkpt><trkpt lat="45.59619956794727" lon="10.108754394918876"><ele>174.0</ele><time>2026-04-28T16:38:08.004Z</time></trkpt><trkpt lat="45.59617876201763" lon="10.108856532982017"><ele>174.14285714285714</ele><time>2026-04-28T16:38:12.002Z</time></trkpt><trkpt lat="45.59616012091462" lon="10.108943390411293"><ele>174.28571428571428</ele><time>2026-04-28T16:38:15.003Z</time></trkpt><trkpt lat="45.59608575081361" lon="10.10897190646237"><ele>174.42857142857144</ele><time>2026-04-28T16:38:19.003Z</time></trkpt><trkpt lat="45.596012184670265" lon="10.108995497996204"><ele>174.57142857142856</ele><time>2026-04-28T16:38:22.003Z</time></trkpt><trkpt lat="45.59593913894574" lon="10.109041306862357"><ele>174.71428571428572</ele><time>2026-04-28T16:38:25.002Z</time></trkpt><trkpt lat="45.595877157483805" lon="10.109070248596796"><ele>174.85714285714286</ele><time>2026-04-28T16:38:28.002Z</time></trkpt><trkpt lat="45.59579922939661" lon="10.109097884724058"><ele>175.0</ele><time>2026-04-28T16:38:31.002Z</time></trkpt><trkpt lat="45.595718977678985" lon="10.109124668647825"><ele>175.0</ele><time>2026-04-28T16:38:34.002Z</time></trkpt><trkpt lat="45.595649169258415" lon="10.109131177986956"><ele>175.0</ele><time>2026-04-28T16:38:36.002Z</time></trkpt><trkpt lat="45.59558112206011" lon="10.109199204214121"><ele>175.0</ele><time>2026-04-28T16:38:40.002Z</time></trkpt><trkpt lat="45.59554299478219" lon="10.10928220239502"><ele>175.0</ele><time>2026-04-28T16:38:42.002Z</time></trkpt><trkpt lat="45.59547471687858" lon="10.10936375147754"><ele>175.0</ele><time>2026-04-28T16:38:45.002Z</time></trkpt><trkpt lat="45.59539619113152" lon="10.109418026782022"><ele>175.0</ele><time>2026-04-28T16:38:48.002Z</time></trkpt><trkpt lat="45.59532863430798" lon="10.109481002309856"><ele>174.83333333333334</ele><time>2026-04-28T16:38:51.002Z</time></trkpt><trkpt lat="45.59526852291489" lon="10.109573196038726"><ele>174.66666666666669</ele><time>2026-04-28T16:38:54.002Z</time></trkpt><trkpt lat="45.59521805376217" lon="10.10966107392572"><ele>174.5</ele><time>2026-04-28T16:38:57.002Z</time></trkpt><trkpt lat="45.59516233771352" lon="10.109745685232914"><ele>174.33333333333334</ele><time>2026-04-28T16:39:00.002Z</time></trkpt><trkpt lat="45.5951324549137" lon="10.109854261809081"><ele>174.16666666666666</ele><time>2026-04-28T16:39:03.003Z</time></trkpt><trkpt lat="45.595096336706334" lon="10.109950280927878"><ele>174.0</ele><time>2026-04-28T16:39:06.003Z</time></trkpt><trkpt lat="45.59506737460446" lon="10.110044449372921"><ele>173.66666666666666</ele><time>2026-04-28T16:39:09.003Z</time></trkpt><trkpt lat="45.595018913981306" lon="10.110144514800389"><ele>173.33333333333334</ele><time>2026-04-28T16:39:12.003Z</time></trkpt><trkpt lat="45.59495113864608" lon="10.110198273193435"><ele>173.0</ele><time>2026-04-28T16:39:15.003Z</time></trkpt><trkpt lat="45.59487789151856" lon="10.110224724524834"><ele>172.66666666666669</ele><time>2026-04-28T16:39:18.003Z</time></trkpt><trkpt lat="45.59481632899847" lon="10.110273035634927"><ele>172.33333333333334</ele><time>2026-04-28T16:39:21.003Z</time></trkpt><trkpt lat="45.59473469368894" lon="10.110292597094983"><ele>172.0</ele><time>2026-04-28T16:39:24.003Z</time></trkpt><trkpt lat="45.594667264918996" lon="10.110352252262787"><ele>172.0</ele><time>2026-04-28T16:39:27.003Z</time></trkpt><trkpt lat="45.594609036116694" lon="10.11040811703631"><ele>172.0</ele><time>2026-04-28T16:39:30.003Z</time></trkpt><trkpt lat="45.594534580599806" lon="10.110454166671031"><ele>172.0</ele><time>2026-04-28T16:39:33.003Z</time></trkpt><trkpt lat="45.59446443466833" lon="10.110520335862127"><ele>172.0</ele><time>2026-04-28T16:39:36.003Z</time></trkpt><trkpt lat="45.59439581925616" lon="10.110578144440357"><ele>172.0</ele><time>2026-04-28T16:39:39.003Z</time></trkpt><trkpt lat="45.59434578458665" lon="10.110660186743681"><ele>172.0</ele><time>2026-04-28T16:39:42.003Z</time></trkpt><trkpt lat="45.594278544002925" lon="10.110738032633591"><ele>171.83333333333334</ele><time>2026-04-28T16:39:45.003Z</time></trkpt><trkpt lat="45.59421239908907" lon="10.110787687057964"><ele>171.66666666666669</ele><time>2026-04-28T16:39:48.003Z</time></trkpt><trkpt lat="45.59414354336428" lon="10.110817210478215"><ele>171.5</ele><time>2026-04-28T16:39:51.003Z</time></trkpt><trkpt lat="45.5940633560475" lon="10.11084822339483"><ele>171.33333333333334</ele><time>2026-04-28T16:39:54.003Z</time></trkpt><trkpt lat="45.59398580204147" lon="10.110874894002311"><ele>171.16666666666666</ele><time>2026-04-28T16:39:57.003Z</time></trkpt><trkpt lat="45.593905700717706" lon="10.110887018597868"><ele>171.0</ele><time>2026-04-28T16:40:00.003Z</time></trkpt><trkpt lat="45.593831565455865" lon="10.110879521036178"><ele>170.99999999999997</ele><time>2026-04-28T16:40:03.003Z</time></trkpt><trkpt lat="45.59376413654872" lon="10.110868981293626"><ele>171.0</ele><time>2026-04-28T16:40:06.003Z</time></trkpt><trkpt lat="45.59368646270271" lon="10.110869253604944"><ele>171.0</ele><time>2026-04-28T16:40:09.003Z</time></trkpt><trkpt lat="45.59361526319212" lon="10.11088175018587"><ele>171.0</ele><time>2026-04-28T16:40:12.003Z</time></trkpt><trkpt lat="45.5935425086072" lon="10.110874931936907"><ele>171.0</ele><time>2026-04-28T16:40:15.003Z</time></trkpt><trkpt lat="45.59347426700787" lon="10.110857906191256"><ele>170.99999999999997</ele><time>2026-04-28T16:40:18.003Z</time></trkpt><trkpt lat="45.593400354107565" lon="10.110887303516717"><ele>171.0</ele><time>2026-04-28T16:40:21.003Z</time></trkpt><trkpt lat="45.593319019496576" lon="10.110868091621123"><ele>171.0</ele><time>2026-04-28T16:40:24.003Z</time></trkpt><trkpt lat="45.59323699258721" lon="10.110865601140352"><ele>171.0</ele><time>2026-04-28T16:40:27.003Z</time></trkpt><trkpt lat="45.59315503655674" lon="10.11086202295732"><ele>171.0</ele><time>2026-04-28T16:40:30.003Z</time></trkpt><trkpt lat="45.59307506547089" lon="10.110884356759117"><ele>171.0</ele><time>2026-04-28T16:40:33.003Z</time></trkpt><trkpt lat="45.592982688399786" lon="10.110864158556655"><ele>171.0</ele><time>2026-04-28T16:40:36.003Z</time></trkpt><trkpt lat="45.592916954017745" lon="10.110845910450797"><ele>171.0</ele><time>2026-04-28T16:40:38.003Z</time></trkpt><trkpt lat="45.592839216084016" lon="10.110856395030469"><ele>171.0</ele><time>2026-04-28T16:40:40.003Z</time></trkpt><trkpt lat="45.59274873158814" lon="10.11085595477777"><ele>171.0</ele><time>2026-04-28T16:40:43.003Z</time></trkpt><trkpt lat="45.59266418567069" lon="10.11085041645143"><ele>171.0</ele><time>2026-04-28T16:40:46.003Z</time></trkpt><trkpt lat="45.59257898689819" lon="10.110839553693843"><ele>171.0</ele><time>2026-04-28T16:40:49.003Z</time></trkpt><trkpt lat="45.59249999508096" lon="10.110795964324517"><ele>171.0</ele><time>2026-04-28T16:40:52.003Z</time></trkpt><trkpt lat="45.59242513907875" lon="10.110741602108371"><ele>171.0</ele><time>2026-04-28T16:40:55.003Z</time></trkpt><trkpt lat="45.59235673519562" lon="10.110687705982256"><ele>170.99999999999997</ele><time>2026-04-28T16:40:58.003Z</time></trkpt><trkpt lat="45.59229463912972" lon="10.110616809431102"><ele>171.0</ele><time>2026-04-28T16:41:01.003Z</time></trkpt><trkpt lat="45.59222834397313" lon="10.110544671907622"><ele>171.0</ele><time>2026-04-28T16:41:04.003Z</time></trkpt><trkpt lat="45.592162869722465" lon="10.110511655321798"><ele>171.0</ele><time>2026-04-28T16:41:07.003Z</time></trkpt><trkpt lat="45.592101277000836" lon="10.110463377096975"><ele>171.0</ele><time>2026-04-28T16:41:10.004Z</time></trkpt><trkpt lat="45.59203928687528" lon="10.110408580280115"><ele>170.99999999999997</ele><time>2026-04-28T16:41:13.004Z</time></trkpt><trkpt lat="45.59197378609204" lon="10.110359585917989"><ele>171.0</ele><time>2026-04-28T16:41:16.004Z</time></trkpt><trkpt lat="45.591904573749225" lon="10.110309726577805"><ele>170.83333333333334</ele><time>2026-04-28T16:41:19.004Z</time></trkpt><trkpt lat="45.591842247896494" lon="10.110242100492618"><ele>170.66666666666666</ele><time>2026-04-28T16:41:22.004Z</time></trkpt><trkpt lat="45.59176907198536" lon="10.110203004554004"><ele>170.5</ele><time>2026-04-28T16:41:25.004Z</time></trkpt><trkpt lat="45.59169159222064" lon="10.110166373845184"><ele>170.33333333333331</ele><time>2026-04-28T16:41:28.004Z</time></trkpt><trkpt lat="45.59161591621093" lon="10.110129503241826"><ele>170.16666666666666</ele><time>2026-04-28T16:41:31.004Z</time></trkpt><trkpt lat="45.591538776615714" lon="10.110125715901413"><ele>170.0</ele><time>2026-04-28T16:41:34.004Z</time></trkpt><trkpt lat="45.59146839204613" lon="10.1101110784842"><ele>170.0</ele><time>2026-04-28T16:41:37.004Z</time></trkpt><trkpt lat="45.591400193915575" lon="10.110117242086343"><ele>170.0</ele><time>2026-04-28T16:41:40.004Z</time></trkpt><trkpt lat="45.59132644022889" lon="10.110100954291866"><ele>170.0</ele><time>2026-04-28T16:41:43.004Z</time></trkpt><trkpt lat="45.591248264201155" lon="10.110090797228413"><ele>170.0</ele><time>2026-04-28T16:41:46.004Z</time></trkpt><trkpt lat="45.591167346441964" lon="10.110093434198221"><ele>170.0</ele><time>2026-04-28T16:41:49.004Z</time></trkpt><trkpt lat="45.591098072925476" lon="10.110102753281119"><ele>170.0</ele><time>2026-04-28T16:41:52.004Z</time></trkpt><trkpt lat="45.591015818925214" lon="10.110080432251184"><ele>169.83333333333331</ele><time>2026-04-28T16:41:55.004Z</time></trkpt><trkpt lat="45.59094231984917" lon="10.110078121064495"><ele>169.66666666666666</ele><time>2026-04-28T16:41:58.004Z</time></trkpt><trkpt lat="45.59086720056761" lon="10.11007301953642"><ele>169.5</ele><time>2026-04-28T16:42:01.004Z</time></trkpt><trkpt lat="45.59079295767884" lon="10.11006148651089"><ele>169.33333333333334</ele><time>2026-04-28T16:42:04.004Z</time></trkpt><trkpt lat="45.590721019774776" lon="10.110084885741148"><ele>169.16666666666669</ele><time>2026-04-28T16:42:07.004Z</time></trkpt><trkpt lat="45.59064744390502" lon="10.110090841169747"><ele>169.0</ele><time>2026-04-28T16:42:10.004Z</time></trkpt><trkpt lat="45.590564051173445" lon="10.110097943000978"><ele>169.0</ele><time>2026-04-28T16:42:14.004Z</time></trkpt><trkpt lat="45.59049269928724" lon="10.11011300108886"><ele>169.0</ele><time>2026-04-28T16:42:17.004Z</time></trkpt><trkpt lat="45.59042134462982" lon="10.11010005494693"><ele>169.0</ele><time>2026-04-28T16:42:20.004Z</time></trkpt><trkpt lat="45.59035544739643" lon="10.110124808607397"><ele>169.0</ele><time>2026-04-28T16:42:23.004Z</time></trkpt><trkpt lat="45.590289665361475" lon="10.110148449661658"><ele>169.0</ele><time>2026-04-28T16:42:26.004Z</time></trkpt><trkpt lat="45.590224511177645" lon="10.110166625021446"><ele>169.0</ele><time>2026-04-28T16:42:29.004Z</time></trkpt><trkpt lat="45.59014664918858" lon="10.110173192545394"><ele>169.0</ele><time>2026-04-28T16:42:32.003Z</time></trkpt><trkpt lat="45.590072102684644" lon="10.110165050379836"><ele>168.83333333333334</ele><time>2026-04-28T16:42:35.003Z</time></trkpt><trkpt lat="45.59000031360229" lon="10.110151659688185"><ele>168.66666666666669</ele><time>2026-04-28T16:42:38.003Z</time></trkpt><trkpt lat="45.58991712970422" lon="10.110180359483364"><ele>168.5</ele><time>2026-04-28T16:42:41.003Z</time></trkpt><trkpt lat="45.58985315293375" lon="10.110194335831315"><ele>168.33333333333334</ele><time>2026-04-28T16:42:43.003Z</time></trkpt><trkpt lat="45.58976193545763" lon="10.110193436994885"><ele>168.16666666666666</ele><time>2026-04-28T16:42:46.003Z</time></trkpt><trkpt lat="45.58967575036168" lon="10.110237244559405"><ele>168.0</ele><time>2026-04-28T16:42:49.003Z</time></trkpt><trkpt lat="45.58961168232299" lon="10.110239286820365"><ele>168.0</ele><time>2026-04-28T16:42:51.003Z</time></trkpt><trkpt lat="45.58954784898954" lon="10.110245684147976"><ele>168.0</ele><time>2026-04-28T16:42:53.003Z</time></trkpt><trkpt lat="45.589483685549936" lon="10.110252829533392"><ele>168.0</ele><time>2026-04-28T16:42:55.003Z</time></trkpt><trkpt lat="45.58938980800374" lon="10.110255642680253"><ele>168.0</ele><time>2026-04-28T16:42:58.003Z</time></trkpt><trkpt lat="45.58930104145372" lon="10.110268771091873"><ele>168.0</ele><time>2026-04-28T16:43:01.004Z</time></trkpt><trkpt lat="45.58921926020033" lon="10.110281072967107"><ele>168.0</ele><time>2026-04-28T16:43:04.004Z</time></trkpt><trkpt lat="45.58914702297479" lon="10.110329411203757"><ele>167.5</ele><time>2026-04-28T16:43:07.004Z</time></trkpt><trkpt lat="45.5890603540869" lon="10.110342721435318"><ele>167.0</ele><time>2026-04-28T16:43:10.004Z</time></trkpt><trkpt lat="45.58897244565377" lon="10.110368390631447"><ele>166.5</ele><time>2026-04-28T16:43:13.004Z</time></trkpt><trkpt lat="45.5888889210522" lon="10.110399556537102"><ele>166.0</ele><time>2026-04-28T16:43:16.004Z</time></trkpt><trkpt lat="45.588814922928506" lon="10.11042793835936"><ele>165.5</ele><time>2026-04-28T16:43:19.004Z</time></trkpt><trkpt lat="45.588739168234675" lon="10.1104560387173"><ele>165.0</ele><time>2026-04-28T16:43:22.004Z</time></trkpt><trkpt lat="45.58865430361861" lon="10.110486315560443"><ele>164.66666666666666</ele><time>2026-04-28T16:43:25.004Z</time></trkpt><trkpt lat="45.5885770683168" lon="10.110501894079915"><ele>164.33333333333334</ele><time>2026-04-28T16:43:28.004Z</time></trkpt><trkpt lat="45.588503794737505" lon="10.110511395386983"><ele>164.0</ele><time>2026-04-28T16:43:31.004Z</time></trkpt><trkpt lat="45.58842810796749" lon="10.110495709815485"><ele>163.66666666666669</ele><time>2026-04-28T16:43:34.004Z</time></trkpt><trkpt lat="45.588342503119364" lon="10.110529683092173"><ele>163.33333333333334</ele><time>2026-04-28T16:43:37.004Z</time></trkpt><trkpt lat="45.58826330767632" lon="10.11054695535269"><ele>163.0</ele><time>2026-04-28T16:43:40.004Z</time></trkpt><trkpt lat="45.5881809784443" lon="10.110544201849875"><ele>163.0</ele><time>2026-04-28T16:43:43.004Z</time></trkpt><trkpt lat="45.588095846876435" lon="10.110536173181538"><ele>163.0</ele><time>2026-04-28T16:43:46.004Z</time></trkpt><trkpt lat="45.58801961411" lon="10.110545425668828"><ele>163.0</ele><time>2026-04-28T16:43:49.004Z</time></trkpt><trkpt lat="45.58794489618057" lon="10.110536198433673"><ele>163.0</ele><time>2026-04-28T16:43:52.004Z</time></trkpt><trkpt lat="45.58787697436989" lon="10.11053251884449"><ele>163.0</ele><time>2026-04-28T16:43:55.004Z</time></trkpt><trkpt lat="45.587808429432165" lon="10.1105115992421"><ele>163.0</ele><time>2026-04-28T16:43:58.004Z</time></trkpt><trkpt lat="45.58774268921998" lon="10.11048726263677"><ele>163.0</ele><time>2026-04-28T16:44:01.004Z</time></trkpt><trkpt lat="45.58767711588439" lon="10.110469713060542"><ele>163.16666666666669</ele><time>2026-04-28T16:44:04.004Z</time></trkpt><trkpt lat="45.58761114556708" lon="10.110446369892138"><ele>163.33333333333334</ele><time>2026-04-28T16:44:07.004Z</time></trkpt><trkpt lat="45.58754292571823" lon="10.110423989018647"><ele>163.5</ele><time>2026-04-28T16:44:10.004Z</time></trkpt><trkpt lat="45.58748061722258" lon="10.110405564973972"><ele>163.66666666666666</ele><time>2026-04-28T16:44:12.004Z</time></trkpt><trkpt lat="45.58739769733691" lon="10.110393531216415"><ele>163.83333333333331</ele><time>2026-04-28T16:44:15.004Z</time></trkpt><trkpt lat="45.587318233429855" lon="10.110359770920073"><ele>164.0</ele><time>2026-04-28T16:44:18.004Z</time></trkpt><trkpt lat="45.58723890707825" lon="10.110331570078456"><ele>163.99999999999997</ele><time>2026-04-28T16:44:21.004Z</time></trkpt><trkpt lat="45.58715946556698" lon="10.110314305115285"><ele>164.0</ele><time>2026-04-28T16:44:24.004Z</time></trkpt><trkpt lat="45.58707393520057" lon="10.110296555077804"><ele>164.0</ele><time>2026-04-28T16:44:27.004Z</time></trkpt><trkpt lat="45.5870076229905" lon="10.110270877878838"><ele>164.0</ele><time>2026-04-28T16:44:30.004Z</time></trkpt><trkpt lat="45.58694327681081" lon="10.110240862015361"><ele>164.0</ele><time>2026-04-28T16:44:33.004Z</time></trkpt><trkpt lat="45.58687559332655" lon="10.110227713866161"><ele>163.99999999999997</ele><time>2026-04-28T16:44:36.003Z</time></trkpt><trkpt lat="45.58680864296935" lon="10.110212811775625"><ele>164.0</ele><time>2026-04-28T16:44:39.004Z</time></trkpt><trkpt lat="45.586742460319925" lon="10.110193095848583"><ele>163.85714285714283</ele><time>2026-04-28T16:44:42.003Z</time></trkpt><trkpt lat="45.58667011149965" lon="10.110168325201142"><ele>163.71428571428572</ele><time>2026-04-28T16:44:45.004Z</time></trkpt><trkpt lat="45.58659562513977" lon="10.110143128751822"><ele>163.57142857142856</ele><time>2026-04-28T16:44:48.004Z</time></trkpt><trkpt lat="45.586524763739995" lon="10.11011690531491"><ele>163.42857142857142</ele><time>2026-04-28T16:44:51.004Z</time></trkpt><trkpt lat="45.58645496219947" lon="10.11009217428104"><ele>163.28571428571428</ele><time>2026-04-28T16:44:54.004Z</time></trkpt><trkpt lat="45.58638701772649" lon="10.110058394977372"><ele>163.14285714285714</ele><time>2026-04-28T16:44:57.004Z</time></trkpt><trkpt lat="45.586314962186414" lon="10.110036913596897"><ele>163.0</ele><time>2026-04-28T16:45:00.004Z</time></trkpt><trkpt lat="45.58623267529492" lon="10.110018594113978"><ele>162.83333333333334</ele><time>2026-04-28T16:45:03.004Z</time></trkpt><trkpt lat="45.586143584530376" lon="10.109993325004353"><ele>162.66666666666669</ele><time>2026-04-28T16:45:06.004Z</time></trkpt><trkpt lat="45.586049430178484" lon="10.109971551190437"><ele>162.5</ele><time>2026-04-28T16:45:09.004Z</time></trkpt><trkpt lat="45.58598646236074" lon="10.10994678132118"><ele>162.33333333333334</ele><time>2026-04-28T16:45:11.004Z</time></trkpt><trkpt lat="45.585903052862385" lon="10.10991290564173"><ele>162.16666666666666</ele><time>2026-04-28T16:45:14.004Z</time></trkpt><trkpt lat="45.58583210877006" lon="10.10992946849554"><ele>162.0</ele><time>2026-04-28T16:45:17.004Z</time></trkpt><trkpt lat="45.585740822120584" lon="10.109947044979844"><ele>162.0</ele><time>2026-04-28T16:45:20.004Z</time></trkpt><trkpt lat="45.58568154345402" lon="10.10991207290869"><ele>162.0</ele><time>2026-04-28T16:45:22.004Z</time></trkpt><trkpt lat="45.585615849499455" lon="10.10988314212654"><ele>162.0</ele><time>2026-04-28T16:45:25.005Z</time></trkpt><trkpt lat="45.58554810234629" lon="10.109862616271787"><ele>162.0</ele><time>2026-04-28T16:45:28.005Z</time></trkpt><trkpt lat="45.585471648319185" lon="10.109831484199008"><ele>162.0</ele><time>2026-04-28T16:45:31.005Z</time></trkpt><trkpt lat="45.585400474980666" lon="10.109841667064828"><ele>162.0</ele><time>2026-04-28T16:45:34.005Z</time></trkpt><trkpt lat="45.58532654023187" lon="10.109870363252979"><ele>162.0</ele><time>2026-04-28T16:45:37.005Z</time></trkpt><trkpt lat="45.58524416282009" lon="10.109902329465346"><ele>161.66666666666666</ele><time>2026-04-28T16:45:40.005Z</time></trkpt><trkpt lat="45.58518551778222" lon="10.109979019955464"><ele>161.33333333333334</ele><time>2026-04-28T16:45:43.005Z</time></trkpt><trkpt lat="45.58516160716727" lon="10.1100624080581"><ele>161.0</ele><time>2026-04-28T16:45:45.005Z</time></trkpt><trkpt lat="45.5851239572882" lon="10.110172920716957"><ele>160.66666666666669</ele><time>2026-04-28T16:45:48.005Z</time></trkpt><trkpt lat="45.58505954075001" lon="10.110252269336472"><ele>160.33333333333334</ele><time>2026-04-28T16:45:51.005Z</time></trkpt><trkpt lat="45.58498260094722" lon="10.110292790695198"><ele>160.0</ele><time>2026-04-28T16:45:54.005Z</time></trkpt><trkpt lat="45.58490628472662" lon="10.110320764899505"><ele>160.0</ele><time>2026-04-28T16:45:57.005Z</time></trkpt><trkpt lat="45.584827613607665" lon="10.110319370226094"><ele>160.0</ele><time>2026-04-28T16:46:00.005Z</time></trkpt><trkpt lat="45.58475337111664" lon="10.110303699667998"><ele>160.0</ele><time>2026-04-28T16:46:03.005Z</time></trkpt><trkpt lat="45.58468917040241" lon="10.110256219334063"><ele>160.0</ele><time>2026-04-28T16:46:06.005Z</time></trkpt><trkpt lat="45.58460625126271" lon="10.110243538534332"><ele>160.0</ele><time>2026-04-28T16:46:09.005Z</time></trkpt><trkpt lat="45.58453631940305" lon="10.110217272119494"><ele>160.0</ele><time>2026-04-28T16:46:12.005Z</time></trkpt><trkpt lat="45.58446272889801" lon="10.110195339731241"><ele>160.14285714285714</ele><time>2026-04-28T16:46:15.005Z</time></trkpt><trkpt lat="45.58439070511981" lon="10.110187148898449"><ele>160.28571428571428</ele><time>2026-04-28T16:46:18.005Z</time></trkpt><trkpt lat="45.58431996483936" lon="10.110164063647234"><ele>160.42857142857144</ele><time>2026-04-28T16:46:21.005Z</time></trkpt><trkpt lat="45.58424987169504" lon="10.110144653114952"><ele>160.57142857142856</ele><time>2026-04-28T16:46:24.005Z</time></trkpt><trkpt lat="45.58417597822427" lon="10.110144184307092"><ele>160.71428571428572</ele><time>2026-04-28T16:46:27.005Z</time></trkpt><trkpt lat="45.5841026123097" lon="10.110144372352385"><ele>160.85714285714286</ele><time>2026-04-28T16:46:30.005Z</time></trkpt><trkpt lat="45.58402891895933" lon="10.110133088084453"><ele>161.0</ele><time>2026-04-28T16:46:33.005Z</time></trkpt><trkpt lat="45.58395662996412" lon="10.110132417563651"><ele>161.0</ele><time>2026-04-28T16:46:36.004Z</time></trkpt><trkpt lat="45.58388577036372" lon="10.110132449195758"><ele>161.0</ele><time>2026-04-28T16:46:39.004Z</time></trkpt><trkpt lat="45.583809138760245" lon="10.110126325696376"><ele>161.0</ele><time>2026-04-28T16:46:42.005Z</time></trkpt><trkpt lat="45.58373371445071" lon="10.110130251242289"><ele>161.0</ele><time>2026-04-28T16:46:45.004Z</time></trkpt><trkpt lat="45.58365400372625" lon="10.110141443226102"><ele>161.0</ele><time>2026-04-28T16:46:48.004Z</time></trkpt><trkpt lat="45.5835665595671" lon="10.110170047195183"><ele>161.0</ele><time>2026-04-28T16:46:51.004Z</time></trkpt><trkpt lat="45.583506207733755" lon="10.110199982921833"><ele>161.0</ele><time>2026-04-28T16:46:53.004Z</time></trkpt><trkpt lat="45.583412172079" lon="10.11022268652504"><ele>161.0</ele><time>2026-04-28T16:46:56.004Z</time></trkpt><trkpt lat="45.583323277179055" lon="10.110253364448399"><ele>161.0</ele><time>2026-04-28T16:46:59.004Z</time></trkpt><trkpt lat="45.5832724885552" lon="10.110313890227044"><ele>161.0</ele><time>2026-04-28T16:47:01.004Z</time></trkpt><trkpt lat="45.58322541896687" lon="10.110377856115182"><ele>161.0</ele><time>2026-04-28T16:47:03.004Z</time></trkpt><trkpt lat="45.58318649680945" lon="10.110448815951912"><ele>161.0</ele><time>2026-04-28T16:47:05.004Z</time></trkpt><trkpt lat="45.58314094861924" lon="10.110567309641468"><ele>161.0</ele><time>2026-04-28T16:47:08.004Z</time></trkpt><trkpt lat="45.58309772175491" lon="10.110674171550592"><ele>161.0</ele><time>2026-04-28T16:47:11.004Z</time></trkpt><trkpt lat="45.58306641169567" lon="10.110788832420527"><ele>161.0</ele><time>2026-04-28T16:47:14.004Z</time></trkpt><trkpt lat="45.583045070144635" lon="10.110901894048263"><ele>161.0</ele><time>2026-04-28T16:47:17.004Z</time></trkpt><trkpt lat="45.58301920258305" lon="10.111008457224221"><ele>161.0</ele><time>2026-04-28T16:47:20.004Z</time></trkpt><trkpt lat="45.58299835510469" lon="10.111125784236968"><ele>161.0</ele><time>2026-04-28T16:47:23.004Z</time></trkpt><trkpt lat="45.58297719982976" lon="10.111255304653023"><ele>160.83333333333331</ele><time>2026-04-28T16:47:26.005Z</time></trkpt><trkpt lat="45.58296136531877" lon="10.111382584811603"><ele>160.66666666666666</ele><time>2026-04-28T16:47:29.005Z</time></trkpt><trkpt lat="45.58293438153777" lon="10.111498735625686"><ele>160.5</ele><time>2026-04-28T16:47:32.005Z</time></trkpt><trkpt lat="45.58291631731937" lon="10.111623183065339"><ele>160.33333333333334</ele><time>2026-04-28T16:47:35.005Z</time></trkpt><trkpt lat="45.58290424336172" lon="10.111740328622847"><ele>160.16666666666669</ele><time>2026-04-28T16:47:38.005Z</time></trkpt><trkpt lat="45.58288984994524" lon="10.111864995248448"><ele>160.0</ele><time>2026-04-28T16:47:41.005Z</time></trkpt><trkpt lat="45.582869614428" lon="10.111978070814502"><ele>160.0</ele><time>2026-04-28T16:47:44.005Z</time></trkpt><trkpt lat="45.58284809321378" lon="10.112103602700811"><ele>160.0</ele><time>2026-04-28T16:47:47.005Z</time></trkpt><trkpt lat="45.58282476877889" lon="10.112213624323228"><ele>160.0</ele><time>2026-04-28T16:47:50.005Z</time></trkpt><trkpt lat="45.582812926090455" lon="10.112339300337483"><ele>160.0</ele><time>2026-04-28T16:47:53.005Z</time></trkpt><trkpt lat="45.58279541241982" lon="10.112445593682285"><ele>160.0</ele><time>2026-04-28T16:47:56.005Z</time></trkpt><trkpt lat="45.58277875774054" lon="10.112569785252521"><ele>160.0</ele><time>2026-04-28T16:47:59.005Z</time></trkpt><trkpt lat="45.58276141915382" lon="10.112681220063072"><ele>160.0</ele><time>2026-04-28T16:48:02.005Z</time></trkpt><trkpt lat="45.58275304650293" lon="10.112802628586351"><ele>160.0</ele><time>2026-04-28T16:48:05.005Z</time></trkpt><trkpt lat="45.582732216650264" lon="10.11290727173894"><ele>160.0</ele><time>2026-04-28T16:48:08.005Z</time></trkpt><trkpt lat="45.58271591857958" lon="10.11301468236298"><ele>160.0</ele><time>2026-04-28T16:48:11.005Z</time></trkpt><trkpt lat="45.582702572016" lon="10.113126016383118"><ele>160.0</ele><time>2026-04-28T16:48:14.005Z</time></trkpt><trkpt lat="45.58268461057728" lon="10.113235837164186"><ele>160.0</ele><time>2026-04-28T16:48:17.005Z</time></trkpt><trkpt lat="45.5826665762167" lon="10.113335203492564"><ele>160.0</ele><time>2026-04-28T16:48:20.005Z</time></trkpt><trkpt lat="45.58264462759761" lon="10.113452121575131"><ele>160.0</ele><time>2026-04-28T16:48:23.005Z</time></trkpt><trkpt lat="45.582622271005384" lon="10.113556279328956"><ele>160.0</ele><time>2026-04-28T16:48:26.005Z</time></trkpt><trkpt lat="45.58259663492024" lon="10.113664885976993"><ele>160.0</ele><time>2026-04-28T16:48:29.005Z</time></trkpt><trkpt lat="45.58257220762112" lon="10.113771911233387"><ele>160.0</ele><time>2026-04-28T16:48:32.005Z</time></trkpt><trkpt lat="45.5825382436399" lon="10.11388512888999"><ele>160.0</ele><time>2026-04-28T16:48:35.005Z</time></trkpt><trkpt lat="45.58253245606487" lon="10.113993025960541"><ele>159.83333333333334</ele><time>2026-04-28T16:48:38.005Z</time></trkpt><trkpt lat="45.582510205161086" lon="10.114116785178657"><ele>159.66666666666669</ele><time>2026-04-28T16:48:41.005Z</time></trkpt><trkpt lat="45.58247810517186" lon="10.114263103507946"><ele>159.5</ele><time>2026-04-28T16:48:45.005Z</time></trkpt><trkpt lat="45.582452970621404" lon="10.114373084475845"><ele>159.33333333333334</ele><time>2026-04-28T16:48:48.005Z</time></trkpt><trkpt lat="45.58242820301149" lon="10.11447465520479"><ele>159.16666666666666</ele><time>2026-04-28T16:48:51.004Z</time></trkpt><trkpt lat="45.5824090966293" lon="10.114582437355264"><ele>159.0</ele><time>2026-04-28T16:48:54.005Z</time></trkpt><trkpt lat="45.58238148818048" lon="10.114688471060985"><ele>159.0</ele><time>2026-04-28T16:48:57.004Z</time></trkpt><trkpt lat="45.58235587491994" lon="10.114792582357406"><ele>159.0</ele><time>2026-04-28T16:49:00.004Z</time></trkpt><trkpt lat="45.58233180389677" lon="10.114897518048881"><ele>159.0</ele><time>2026-04-28T16:49:03.004Z</time></trkpt><trkpt lat="45.58231075647023" lon="10.115000328880267"><ele>159.0</ele><time>2026-04-28T16:49:06.004Z</time></trkpt><trkpt lat="45.58228689907097" lon="10.115090498085475"><ele>159.0</ele><time>2026-04-28T16:49:09.004Z</time></trkpt><trkpt lat="45.58227338079381" lon="10.115198553949618"><ele>159.0</ele><time>2026-04-28T16:49:12.005Z</time></trkpt><trkpt lat="45.58226311696314" lon="10.115308656876785"><ele>159.0</ele><time>2026-04-28T16:49:15.005Z</time></trkpt><trkpt lat="45.58226020274893" lon="10.11541791583755"><ele>159.0</ele><time>2026-04-28T16:49:18.005Z</time></trkpt><trkpt lat="45.582247203151375" lon="10.115535442895137"><ele>159.0</ele><time>2026-04-28T16:49:21.005Z</time></trkpt><trkpt lat="45.58223660178924" lon="10.115635832563976"><ele>159.0</ele><time>2026-04-28T16:49:24.005Z</time></trkpt><trkpt lat="45.58222839496654" lon="10.115739461191714"><ele>159.0</ele><time>2026-04-28T16:49:27.005Z</time></trkpt><trkpt lat="45.582229022806565" lon="10.115860414809587"><ele>159.0</ele><time>2026-04-28T16:49:30.005Z</time></trkpt><trkpt lat="45.582226695977056" lon="10.115975219060983"><ele>158.5</ele><time>2026-04-28T16:49:33.005Z</time></trkpt><trkpt lat="45.58221967784424" lon="10.116089390453004"><ele>158.0</ele><time>2026-04-28T16:49:36.005Z</time></trkpt><trkpt lat="45.582216171286234" lon="10.116202539017445"><ele>157.5</ele><time>2026-04-28T16:49:39.005Z</time></trkpt><trkpt lat="45.582207045984745" lon="10.116314838355633"><ele>157.0</ele><time>2026-04-28T16:49:42.005Z</time></trkpt><trkpt lat="45.58220417271622" lon="10.116422987969607"><ele>156.5</ele><time>2026-04-28T16:49:45.005Z</time></trkpt><trkpt lat="45.58219153348136" lon="10.116532461412898"><ele>156.0</ele><time>2026-04-28T16:49:48.005Z</time></trkpt><trkpt lat="45.58218158931732" lon="10.116644633766791"><ele>156.0</ele><time>2026-04-28T16:49:51.005Z</time></trkpt><trkpt lat="45.58217772050616" lon="10.11675776252473"><ele>156.0</ele><time>2026-04-28T16:49:54.005Z</time></trkpt><trkpt lat="45.58217294258315" lon="10.11687622777453"><ele>156.0</ele><time>2026-04-28T16:49:57.005Z</time></trkpt><trkpt lat="45.58217774866357" lon="10.116994291707362"><ele>156.0</ele><time>2026-04-28T16:50:00.005Z</time></trkpt><trkpt lat="45.582183525806236" lon="10.117108286031085"><ele>156.0</ele><time>2026-04-28T16:50:03.005Z</time></trkpt><trkpt lat="45.58218710819264" lon="10.117230397826178"><ele>156.0</ele><time>2026-04-28T16:50:06.005Z</time></trkpt><trkpt lat="45.58219095751921" lon="10.117346197966897"><ele>155.83333333333334</ele><time>2026-04-28T16:50:09.005Z</time></trkpt><trkpt lat="45.582192272687685" lon="10.117464384855548"><ele>155.66666666666666</ele><time>2026-04-28T16:50:12.005Z</time></trkpt><trkpt lat="45.58221327368294" lon="10.117579808143164"><ele>155.5</ele><time>2026-04-28T16:50:15.005Z</time></trkpt><trkpt lat="45.582276599135156" lon="10.117663674602456"><ele>155.33333333333331</ele><time>2026-04-28T16:50:18.005Z</time></trkpt><trkpt lat="45.58233137894396" lon="10.11775351095642"><ele>155.16666666666666</ele><time>2026-04-28T16:50:21.005Z</time></trkpt><trkpt lat="45.58238380329178" lon="10.11783992973023"><ele>155.0</ele><time>2026-04-28T16:50:24.005Z</time></trkpt><trkpt lat="45.58243193172004" lon="10.117929558927163"><ele>155.0</ele><time>2026-04-28T16:50:27.005Z</time></trkpt><trkpt lat="45.582440778107" lon="10.118036235499972"><ele>155.0</ele><time>2026-04-28T16:50:30.005Z</time></trkpt><trkpt lat="45.58239046782459" lon="10.118125924978507"><ele>155.0</ele><time>2026-04-28T16:50:33.005Z</time></trkpt><trkpt lat="45.582313603794475" lon="10.118170748835606"><ele>155.0</ele><time>2026-04-28T16:50:36.005Z</time></trkpt><trkpt lat="45.582246082041905" lon="10.118221753908237"><ele>155.0</ele><time>2026-04-28T16:50:39.005Z</time></trkpt><trkpt lat="45.58217120870551" lon="10.118265106648938"><ele>155.0</ele><time>2026-04-28T16:50:42.005Z</time></trkpt><trkpt lat="45.582120252081964" lon="10.118343235581555"><ele>155.0</ele><time>2026-04-28T16:50:45.005Z</time></trkpt><trkpt lat="45.58208255678046" lon="10.118450560705446"><ele>155.0</ele><time>2026-04-28T16:50:48.006Z</time></trkpt><trkpt lat="45.582058412248344" lon="10.118552133888908"><ele>155.0</ele><time>2026-04-28T16:50:51.005Z</time></trkpt><trkpt lat="45.58203406653304" lon="10.118658818667981"><ele>155.0</ele><time>2026-04-28T16:50:54.006Z</time></trkpt><trkpt lat="45.58201247136525" lon="10.11876772711162"><ele>155.0</ele><time>2026-04-28T16:50:57.005Z</time></trkpt><trkpt lat="45.58199495784413" lon="10.118872720696965"><ele>155.0</ele><time>2026-04-28T16:51:00.005Z</time></trkpt><trkpt lat="45.581978219932324" lon="10.118980124456657"><ele>155.0</ele><time>2026-04-28T16:51:03.005Z</time></trkpt><trkpt lat="45.58195396757979" lon="10.119083738977489"><ele>155.0</ele><time>2026-04-28T16:51:06.005Z</time></trkpt><trkpt lat="45.58193840271043" lon="10.119190574738173"><ele>155.0</ele><time>2026-04-28T16:51:09.005Z</time></trkpt><trkpt lat="45.58192808510763" lon="10.119299339378706"><ele>155.0</ele><time>2026-04-28T16:51:12.005Z</time></trkpt><trkpt lat="45.58190872123544" lon="10.119411122068053"><ele>155.0</ele><time>2026-04-28T16:51:15.005Z</time></trkpt><trkpt lat="45.58189438276578" lon="10.119515183285037"><ele>155.0</ele><time>2026-04-28T16:51:18.005Z</time></trkpt><trkpt lat="45.58187599635584" lon="10.119622660335212"><ele>155.0</ele><time>2026-04-28T16:51:21.006Z</time></trkpt><trkpt lat="45.58186466183761" lon="10.11972387902901"><ele>155.0</ele><time>2026-04-28T16:51:24.006Z</time></trkpt><trkpt lat="45.581864472547416" lon="10.119835008537384"><ele>155.0</ele><time>2026-04-28T16:51:27.006Z</time></trkpt><trkpt lat="45.581873345022586" lon="10.11995343326166"><ele>155.0</ele><time>2026-04-28T16:51:30.006Z</time></trkpt><trkpt lat="45.58188892107599" lon="10.12005715092006"><ele>155.0</ele><time>2026-04-28T16:51:33.006Z</time></trkpt><trkpt lat="45.58190271842835" lon="10.120165316761419"><ele>155.0</ele><time>2026-04-28T16:51:36.006Z</time></trkpt><trkpt lat="45.58192768177653" lon="10.120265746955896"><ele>155.0</ele><time>2026-04-28T16:51:39.006Z</time></trkpt><trkpt lat="45.58194313532302" lon="10.120365116956046"><ele>155.0</ele><time>2026-04-28T16:51:42.006Z</time></trkpt><trkpt lat="45.58196868461213" lon="10.12046953983668"><ele>155.0</ele><time>2026-04-28T16:51:45.006Z</time></trkpt><trkpt lat="45.58200826122247" lon="10.12057297087767"><ele>155.0</ele><time>2026-04-28T16:51:48.006Z</time></trkpt><trkpt lat="45.582042212744376" lon="10.120671983508416"><ele>155.0</ele><time>2026-04-28T16:51:51.006Z</time></trkpt><trkpt lat="45.58207066547119" lon="10.120768016050782"><ele>155.0</ele><time>2026-04-28T16:51:54.006Z</time></trkpt><trkpt lat="45.582107457804824" lon="10.12087829619488"><ele>154.83333333333331</ele><time>2026-04-28T16:51:57.006Z</time></trkpt><trkpt lat="45.582133686327445" lon="10.1209931890346"><ele>154.66666666666666</ele><time>2026-04-28T16:52:00.006Z</time></trkpt><trkpt lat="45.58214823303528" lon="10.121104336336794"><ele>154.5</ele><time>2026-04-28T16:52:03.006Z</time></trkpt><trkpt lat="45.582155561256805" lon="10.121223958997364"><ele>154.33333333333334</ele><time>2026-04-28T16:52:06.006Z</time></trkpt><trkpt lat="45.58217137998205" lon="10.121347571823604"><ele>154.16666666666669</ele><time>2026-04-28T16:52:09.006Z</time></trkpt><trkpt lat="45.58216124239433" lon="10.12147074589059"><ele>154.0</ele><time>2026-04-28T16:52:12.006Z</time></trkpt><trkpt lat="45.582148328563505" lon="10.121571770543925"><ele>154.33333333333334</ele><time>2026-04-28T16:52:15.006Z</time></trkpt><trkpt lat="45.58215209107119" lon="10.121673116291074"><ele>154.66666666666669</ele><time>2026-04-28T16:52:18.006Z</time></trkpt><trkpt lat="45.58214007238002" lon="10.121781134831343"><ele>155.0</ele><time>2026-04-28T16:52:21.006Z</time></trkpt><trkpt lat="45.582132272929016" lon="10.121901439618659"><ele>155.33333333333334</ele><time>2026-04-28T16:52:24.005Z</time></trkpt><trkpt lat="45.58212764496318" lon="10.122009341409289"><ele>155.66666666666666</ele><time>2026-04-28T16:52:27.005Z</time></trkpt><trkpt lat="45.582124139844304" lon="10.12212328507489"><ele>156.0</ele><time>2026-04-28T16:52:30.004Z</time></trkpt><trkpt lat="45.58211788437266" lon="10.12223799456034"><ele>156.0</ele><time>2026-04-28T16:52:33.003Z</time></trkpt><trkpt lat="45.58211104992832" lon="10.122351415494457"><ele>156.0</ele><time>2026-04-28T16:52:36.003Z</time></trkpt><trkpt lat="45.58211192987312" lon="10.122465429065816"><ele>156.0</ele><time>2026-04-28T16:52:39.003Z</time></trkpt><trkpt lat="45.58209817871915" lon="10.122583067869119"><ele>156.0</ele><time>2026-04-28T16:52:42.002Z</time></trkpt><trkpt lat="45.58209507341266" lon="10.12269573932939"><ele>156.0</ele><time>2026-04-28T16:52:45.002Z</time></trkpt><trkpt lat="45.58208508242703" lon="10.122811520653046"><ele>156.0</ele><time>2026-04-28T16:52:48.002Z</time></trkpt><trkpt lat="45.582070973739" lon="10.122918501488488"><ele>155.83333333333334</ele><time>2026-04-28T16:52:51.002Z</time></trkpt><trkpt lat="45.58206620262144" lon="10.123034939608768"><ele>155.66666666666666</ele><time>2026-04-28T16:52:54.001Z</time></trkpt><trkpt lat="45.58205967702277" lon="10.123150426847447"><ele>155.5</ele><time>2026-04-28T16:52:57Z</time></trkpt><trkpt lat="45.58205376262547" lon="10.12325671977873"><ele>155.33333333333331</ele><time>2026-04-28T16:53:00.001Z</time></trkpt><trkpt lat="45.582047425292615" lon="10.123363949979653"><ele>155.16666666666666</ele><time>2026-04-28T16:53:03.001Z</time></trkpt><trkpt lat="45.58204854376634" lon="10.123481094691865"><ele>155.0</ele><time>2026-04-28T16:53:06.001Z</time></trkpt><trkpt lat="45.582035457518664" lon="10.123591561984808"><ele>154.83333333333331</ele><time>2026-04-28T16:53:09.001Z</time></trkpt><trkpt lat="45.58201507458674" lon="10.123681839729956"><ele>154.66666666666666</ele><time>2026-04-28T16:53:12.001Z</time></trkpt><trkpt lat="45.58195708667285" lon="10.123744531251"><ele>154.5</ele><time>2026-04-28T16:53:15.001Z</time></trkpt><trkpt lat="45.581886715726405" lon="10.123769053505118"><ele>154.33333333333334</ele><time>2026-04-28T16:53:18.001Z</time></trkpt><trkpt lat="45.58180429788369" lon="10.123796443187485"><ele>154.16666666666669</ele><time>2026-04-28T16:53:21.001Z</time></trkpt><trkpt lat="45.58171306485188" lon="10.123811491163432"><ele>154.0</ele><time>2026-04-28T16:53:24.001Z</time></trkpt><trkpt lat="45.5816247784486" lon="10.123825959504584"><ele>153.83333333333334</ele><time>2026-04-28T16:53:27.001Z</time></trkpt><trkpt lat="45.5815397009715" lon="10.123817883026938"><ele>153.66666666666669</ele><time>2026-04-28T16:53:30.001Z</time></trkpt><trkpt lat="45.58145529707963" lon="10.123809296396413"><ele>153.5</ele><time>2026-04-28T16:53:33.001Z</time></trkpt><trkpt lat="45.58137719768799" lon="10.12381609191951"><ele>153.33333333333334</ele><time>2026-04-28T16:53:36.001Z</time></trkpt><trkpt lat="45.581293262891606" lon="10.123812138866844"><ele>153.16666666666666</ele><time>2026-04-28T16:53:39.001Z</time></trkpt><trkpt lat="45.58121673626208" lon="10.123809781258117"><ele>153.0</ele><time>2026-04-28T16:53:42.001Z</time></trkpt><trkpt lat="45.58113106764198" lon="10.123805430606978"><ele>153.0</ele><time>2026-04-28T16:53:45.001Z</time></trkpt><trkpt lat="45.58105014230613" lon="10.12381336669661"><ele>153.0</ele><time>2026-04-28T16:53:48.001Z</time></trkpt><trkpt lat="45.58097295700472" lon="10.123815394134422"><ele>153.0</ele><time>2026-04-28T16:53:51.001Z</time></trkpt><trkpt lat="45.5809006301341" lon="10.123811800712497"><ele>153.0</ele><time>2026-04-28T16:53:54.001Z</time></trkpt><trkpt lat="45.580816413953166" lon="10.123824416068002"><ele>153.0</ele><time>2026-04-28T16:53:57.001Z</time></trkpt><trkpt lat="45.58073664530731" lon="10.123844432044372"><ele>153.0</ele><time>2026-04-28T16:54:00.001Z</time></trkpt><trkpt lat="45.58065408377326" lon="10.123849827287948"><ele>153.0</ele><time>2026-04-28T16:54:03.001Z</time></trkpt><trkpt lat="45.580571888463105" lon="10.123860741029446"><ele>153.0</ele><time>2026-04-28T16:54:06.001Z</time></trkpt><trkpt lat="45.58048602248136" lon="10.123858634250077"><ele>153.0</ele><time>2026-04-28T16:54:09.001Z</time></trkpt><trkpt lat="45.58040261889362" lon="10.123853796330982"><ele>153.0</ele><time>2026-04-28T16:54:12.001Z</time></trkpt><trkpt lat="45.58031566408272" lon="10.123851360224796"><ele>153.0</ele><time>2026-04-28T16:54:15.001Z</time></trkpt><trkpt lat="45.58023613166988" lon="10.123842306768086"><ele>153.0</ele><time>2026-04-28T16:54:18.001Z</time></trkpt><trkpt lat="45.58015119317362" lon="10.12383360795259"><ele>153.0</ele><time>2026-04-28T16:54:21.001Z</time></trkpt><trkpt lat="45.58006787663258" lon="10.123838020553215"><ele>153.0</ele><time>2026-04-28T16:54:24.001Z</time></trkpt><trkpt lat="45.57998354519432" lon="10.12383285599569"><ele>153.0</ele><time>2026-04-28T16:54:27.001Z</time></trkpt><trkpt lat="45.57990596516952" lon="10.12383688002373"><ele>153.0</ele><time>2026-04-28T16:54:30.001Z</time></trkpt><trkpt lat="45.57982646375473" lon="10.123828254701195"><ele>153.0</ele><time>2026-04-28T16:54:33.001Z</time></trkpt><trkpt lat="45.57974227178647" lon="10.123825033187112"><ele>153.0</ele><time>2026-04-28T16:54:36.001Z</time></trkpt><trkpt lat="45.57965913114448" lon="10.123817746866925"><ele>153.0</ele><time>2026-04-28T16:54:39.001Z</time></trkpt><trkpt lat="45.579577048850275" lon="10.123810911445894"><ele>153.0</ele><time>2026-04-28T16:54:42.001Z</time></trkpt><trkpt lat="45.57949970183389" lon="10.123803966981665"><ele>153.0</ele><time>2026-04-28T16:54:45.001Z</time></trkpt><trkpt lat="45.57941848164636" lon="10.123808637937236"><ele>153.0</ele><time>2026-04-28T16:54:48.001Z</time></trkpt><trkpt lat="45.57933569459752" lon="10.123810088627602"><ele>153.0</ele><time>2026-04-28T16:54:51.001Z</time></trkpt><trkpt lat="45.579251125594716" lon="10.123799289512792"><ele>153.0</ele><time>2026-04-28T16:54:54.001Z</time></trkpt><trkpt lat="45.57917104752168" lon="10.12380060979339"><ele>152.83333333333334</ele><time>2026-04-28T16:54:57.001Z</time></trkpt><trkpt lat="45.57908702919842" lon="10.123795134220535"><ele>152.66666666666666</ele><time>2026-04-28T16:55:00.001Z</time></trkpt><trkpt lat="45.5790049421829" lon="10.123807542794763"><ele>152.5</ele><time>2026-04-28T16:55:03.001Z</time></trkpt><trkpt lat="45.578925422595354" lon="10.12380213565187"><ele>152.33333333333331</ele><time>2026-04-28T16:55:06Z</time></trkpt><trkpt lat="45.578842808087614" lon="10.12379931689634"><ele>152.16666666666666</ele><time>2026-04-28T16:55:09.001Z</time></trkpt><trkpt lat="45.5787677293644" lon="10.123798793306927"><ele>152.0</ele><time>2026-04-28T16:55:12.001Z</time></trkpt><trkpt lat="45.57870426227545" lon="10.123808634414155"><ele>151.83333333333331</ele><time>2026-04-28T16:55:14Z</time></trkpt><trkpt lat="45.57862463747897" lon="10.123808885918475"><ele>151.66666666666666</ele><time>2026-04-28T16:55:17Z</time></trkpt><trkpt lat="45.57853827690804" lon="10.123824103972641"><ele>151.5</ele><time>2026-04-28T16:55:20Z</time></trkpt><trkpt lat="45.57845503176709" lon="10.123814293392499"><ele>151.33333333333334</ele><time>2026-04-28T16:55:23Z</time></trkpt><trkpt lat="45.57837544803824" lon="10.123823407484618"><ele>151.16666666666669</ele><time>2026-04-28T16:55:26Z</time></trkpt><trkpt lat="45.57829500918517" lon="10.123831058226079"><ele>151.0</ele><time>2026-04-28T16:55:29Z</time></trkpt><trkpt lat="45.578209557553095" lon="10.123834230820647"><ele>151.0</ele><time>2026-04-28T16:55:32Z</time></trkpt><trkpt lat="45.578125799172064" lon="10.123853510784484"><ele>151.0</ele><time>2026-04-28T16:55:35Z</time></trkpt><trkpt lat="45.578047440552766" lon="10.123860614884988"><ele>151.0</ele><time>2026-04-28T16:55:38Z</time></trkpt><trkpt lat="45.5779641636803" lon="10.123877683379314"><ele>151.0</ele><time>2026-04-28T16:55:41Z</time></trkpt><trkpt lat="45.577879422892096" lon="10.12388685598204"><ele>151.0</ele><time>2026-04-28T16:55:44Z</time></trkpt><trkpt lat="45.577795699566884" lon="10.123905257794794"><ele>151.0</ele><time>2026-04-28T16:55:47Z</time></trkpt><trkpt lat="45.577714417967314" lon="10.123906446343604"><ele>151.0</ele><time>2026-04-28T16:55:50Z</time></trkpt><trkpt lat="45.5776311009149" lon="10.123932582401915"><ele>151.0</ele><time>2026-04-28T16:55:53Z</time></trkpt><trkpt lat="45.57755007414543" lon="10.12394797163073"><ele>151.0</ele><time>2026-04-28T16:55:56Z</time></trkpt><trkpt lat="45.57746807179538" lon="10.1239639269441"><ele>151.0</ele><time>2026-04-28T16:55:59Z</time></trkpt><trkpt lat="45.577390330775344" lon="10.123997118091252"><ele>151.0</ele><time>2026-04-28T16:56:02Z</time></trkpt><trkpt lat="45.577311411203524" lon="10.124027619484995"><ele>151.0</ele><time>2026-04-28T16:56:05Z</time></trkpt><trkpt lat="45.57724138337546" lon="10.124037341645831"><ele>151.00000000000003</ele><time>2026-04-28T16:56:08Z</time></trkpt><trkpt lat="45.57716431198243" lon="10.124040127713844"><ele>151.0</ele><time>2026-04-28T16:56:11Z</time></trkpt><trkpt lat="45.57711644221092" lon="10.124108109217723"><ele>151.0</ele><time>2026-04-28T16:56:13Z</time></trkpt><trkpt lat="45.57706668454397" lon="10.124168527163846"><ele>151.0</ele><time>2026-04-28T16:56:15Z</time></trkpt><trkpt lat="45.57698529757208" lon="10.124176415029138"><ele>151.0</ele><time>2026-04-28T16:56:18Z</time></trkpt><trkpt lat="45.57691396336684" lon="10.12419784187862"><ele>151.00000000000003</ele><time>2026-04-28T16:56:21Z</time></trkpt><trkpt lat="45.576847111881214" lon="10.124260535557777"><ele>151.0</ele><time>2026-04-28T16:56:24.001Z</time></trkpt><trkpt lat="45.57677246058969" lon="10.124278975796472"><ele>150.66666666666669</ele><time>2026-04-28T16:56:27.001Z</time></trkpt><trkpt lat="45.576699641359255" lon="10.124306047710963"><ele>150.33333333333334</ele><time>2026-04-28T16:56:30.001Z</time></trkpt><trkpt lat="45.576617967779505" lon="10.124326589345518"><ele>150.0</ele><time>2026-04-28T16:56:33.001Z</time></trkpt><trkpt lat="45.576539506033704" lon="10.124337924660663"><ele>149.66666666666666</ele><time>2026-04-28T16:56:36.001Z</time></trkpt><trkpt lat="45.57645825134207" lon="10.124358174733336"><ele>149.33333333333331</ele><time>2026-04-28T16:56:39.001Z</time></trkpt><trkpt lat="45.57638800557516" lon="10.12435873108362"><ele>149.0</ele><time>2026-04-28T16:56:42.001Z</time></trkpt><trkpt lat="45.576310339188105" lon="10.124356995860406"><ele>149.0</ele><time>2026-04-28T16:56:45.001Z</time></trkpt><trkpt lat="45.5762369096374" lon="10.124362502391966"><ele>149.0</ele><time>2026-04-28T16:56:48.001Z</time></trkpt><trkpt lat="45.57616051858896" lon="10.124362356740832"><ele>149.0</ele><time>2026-04-28T16:56:51.001Z</time></trkpt><trkpt lat="45.57608931511229" lon="10.12435395217216"><ele>149.0</ele><time>2026-04-28T16:56:54.001Z</time></trkpt><trkpt lat="45.57600968713112" lon="10.124379228020528"><ele>149.0</ele><time>2026-04-28T16:56:57.001Z</time></trkpt><trkpt lat="45.57593459432683" lon="10.124385067374414"><ele>149.0</ele><time>2026-04-28T16:57:00.001Z</time></trkpt><trkpt lat="45.57586495043104" lon="10.124396822026652"><ele>149.0</ele><time>2026-04-28T16:57:03.001Z</time></trkpt><trkpt lat="45.575794075894066" lon="10.124403634356794"><ele>148.83333333333331</ele><time>2026-04-28T16:57:06Z</time></trkpt><trkpt lat="45.575708390005545" lon="10.124414159474414"><ele>148.66666666666666</ele><time>2026-04-28T16:57:09.001Z</time></trkpt><trkpt lat="45.575631152712084" lon="10.124462208963893"><ele>148.5</ele><time>2026-04-28T16:57:12Z</time></trkpt><trkpt lat="45.575544325983884" lon="10.124477988833355"><ele>148.33333333333334</ele><time>2026-04-28T16:57:15.001Z</time></trkpt><trkpt lat="45.57545827827852" lon="10.1245143539074"><ele>148.16666666666669</ele><time>2026-04-28T16:57:18.001Z</time></trkpt><trkpt lat="45.57538209844831" lon="10.124585911260313"><ele>148.0</ele><time>2026-04-28T16:57:21Z</time></trkpt><trkpt lat="45.57530991675195" lon="10.124646404934992"><ele>148.0</ele><time>2026-04-28T16:57:24Z</time></trkpt><trkpt lat="45.57525015933415" lon="10.124708609690783"><ele>148.0</ele><time>2026-04-28T16:57:27Z</time></trkpt><trkpt lat="45.57518073020804" lon="10.124748985770193"><ele>148.0</ele><time>2026-04-28T16:57:30Z</time></trkpt><trkpt lat="45.57511116806232" lon="10.12479924744837"><ele>148.0</ele><time>2026-04-28T16:57:33Z</time></trkpt><trkpt lat="45.57503173881527" lon="10.124832106722483"><ele>148.0</ele><time>2026-04-28T16:57:36Z</time></trkpt><trkpt lat="45.57495699079159" lon="10.12487651765591"><ele>148.0</ele><time>2026-04-28T16:57:39Z</time></trkpt><trkpt lat="45.57488069818201" lon="10.124877374895428"><ele>148.0</ele><time>2026-04-28T16:57:42.001Z</time></trkpt><trkpt lat="45.57481019486044" lon="10.124875020472059"><ele>148.0</ele><time>2026-04-28T16:57:44.001Z</time></trkpt><trkpt lat="45.57472397791343" lon="10.124894837769526"><ele>148.0</ele><time>2026-04-28T16:57:47.001Z</time></trkpt><trkpt lat="45.57463810052014" lon="10.124926331389615"><ele>148.0</ele><time>2026-04-28T16:57:50.001Z</time></trkpt><trkpt lat="45.57455519953443" lon="10.124926641319364"><ele>148.0</ele><time>2026-04-28T16:57:53.001Z</time></trkpt><trkpt lat="45.5744847182758" lon="10.124929116506044"><ele>148.0</ele><time>2026-04-28T16:57:56.001Z</time></trkpt><trkpt lat="45.574408846609536" lon="10.124942279660473"><ele>147.71428571428572</ele><time>2026-04-28T16:57:59.001Z</time></trkpt><trkpt lat="45.57433410032587" lon="10.124945990586646"><ele>147.42857142857142</ele><time>2026-04-28T16:58:02.001Z</time></trkpt><trkpt lat="45.57426406248644" lon="10.124961600154329"><ele>147.14285714285714</ele><time>2026-04-28T16:58:05.001Z</time></trkpt><trkpt lat="45.57418810644992" lon="10.124962700812338"><ele>146.85714285714286</ele><time>2026-04-28T16:58:08.001Z</time></trkpt><trkpt lat="45.57411367400466" lon="10.124979243932062"><ele>146.57142857142858</ele><time>2026-04-28T16:58:11.001Z</time></trkpt><trkpt lat="45.57403806429789" lon="10.124999202038456"><ele>146.28571428571428</ele><time>2026-04-28T16:58:14.001Z</time></trkpt><trkpt lat="45.57396807474934" lon="10.124988703476914"><ele>146.0</ele><time>2026-04-28T16:58:17.001Z</time></trkpt><trkpt lat="45.57389198647929" lon="10.125016471202335"><ele>146.0</ele><time>2026-04-28T16:58:20.001Z</time></trkpt><trkpt lat="45.57382434022266" lon="10.12505864874715"><ele>146.0</ele><time>2026-04-28T16:58:23.001Z</time></trkpt><trkpt lat="45.57376202400536" lon="10.125113372049375"><ele>146.0</ele><time>2026-04-28T16:58:26.001Z</time></trkpt><trkpt lat="45.57370618472153" lon="10.125199380774763"><ele>146.0</ele><time>2026-04-28T16:58:30.001Z</time></trkpt><trkpt lat="45.5736448464916" lon="10.125272335643572"><ele>146.0</ele><time>2026-04-28T16:58:34.001Z</time></trkpt><trkpt lat="45.57360773220705" lon="10.125349343542728"><ele>146.0</ele><time>2026-04-28T16:58:37.001Z</time></trkpt><trkpt lat="45.57358540668681" lon="10.125439922717266"><ele>146.0</ele><time>2026-04-28T16:58:40.001Z</time></trkpt><trkpt lat="45.57355720982292" lon="10.125523777411503"><ele>146.0</ele><time>2026-04-28T16:58:43.001Z</time></trkpt><trkpt lat="45.573554958364824" lon="10.125644435341123"><ele>146.0</ele><time>2026-04-28T16:58:47.001Z</time></trkpt><trkpt lat="45.573563877207725" lon="10.125739660065848"><ele>146.0</ele><time>2026-04-28T16:58:50.001Z</time></trkpt><trkpt lat="45.57356707362616" lon="10.125843350600311"><ele>146.0</ele><time>2026-04-28T16:58:53.001Z</time></trkpt><trkpt lat="45.573584546616736" lon="10.125961475650875"><ele>146.0</ele><time>2026-04-28T16:58:57.001Z</time></trkpt><trkpt lat="45.57359936932144" lon="10.126074574003514"><ele>146.0</ele><time>2026-04-28T16:59:00.001Z</time></trkpt><trkpt lat="45.57360827316294" lon="10.12618574765513"><ele>145.83333333333331</ele><time>2026-04-28T16:59:03.001Z</time></trkpt><trkpt lat="45.573625594847805" lon="10.126301787134574"><ele>145.66666666666666</ele><time>2026-04-28T16:59:06.001Z</time></trkpt><trkpt lat="45.5736400191437" lon="10.12641911270116"><ele>145.5</ele><time>2026-04-28T16:59:09.001Z</time></trkpt><trkpt lat="45.573653640385494" lon="10.126537242470638"><ele>145.33333333333334</ele><time>2026-04-28T16:59:12.001Z</time></trkpt><trkpt lat="45.573666019501374" lon="10.126650644104442"><ele>145.16666666666669</ele><time>2026-04-28T16:59:15.001Z</time></trkpt><trkpt lat="45.57367621255736" lon="10.1267657994312"><ele>145.0</ele><time>2026-04-28T16:59:18.001Z</time></trkpt><trkpt lat="45.57371261004662" lon="10.126885169059987"><ele>145.0</ele><time>2026-04-28T16:59:21.001Z</time></trkpt><trkpt lat="45.57374805121624" lon="10.127000503181968"><ele>145.0</ele><time>2026-04-28T16:59:24Z</time></trkpt><trkpt lat="45.5737679600954" lon="10.127090945812803"><ele>145.0</ele><time>2026-04-28T16:59:26.001Z</time></trkpt><trkpt lat="45.573775501704894" lon="10.127229586149177"><ele>145.0</ele><time>2026-04-28T16:59:29.001Z</time></trkpt><trkpt lat="45.57375783032459" lon="10.12733496628308"><ele>145.0</ele><time>2026-04-28T16:59:31.001Z</time></trkpt><trkpt lat="45.573757282114165" lon="10.127426374164813"><ele>145.0</ele><time>2026-04-28T16:59:33.001Z</time></trkpt><trkpt lat="45.573774240313185" lon="10.127530256384869"><ele>145.0</ele><time>2026-04-28T16:59:36.001Z</time></trkpt><trkpt lat="45.573767868171466" lon="10.12765114330919"><ele>145.0</ele><time>2026-04-28T16:59:39.001Z</time></trkpt><trkpt lat="45.57378029671263" lon="10.127763714209756"><ele>145.0</ele><time>2026-04-28T16:59:42.001Z</time></trkpt><trkpt lat="45.57378953690396" lon="10.127869539323463"><ele>145.0</ele><time>2026-04-28T16:59:45.001Z</time></trkpt><trkpt lat="45.57379288864319" lon="10.127987128453483"><ele>145.0</ele><time>2026-04-28T16:59:48.001Z</time></trkpt><trkpt lat="45.573796836812924" lon="10.128099547903126"><ele>145.0</ele><time>2026-04-28T16:59:51.001Z</time></trkpt><trkpt lat="45.57379908036324" lon="10.128203839359225"><ele>144.83333333333334</ele><time>2026-04-28T16:59:54.001Z</time></trkpt><trkpt lat="45.57381906410055" lon="10.128311465736624"><ele>144.66666666666669</ele><time>2026-04-28T16:59:57.001Z</time></trkpt><trkpt lat="45.573840852286615" lon="10.128422984093342"><ele>144.5</ele><time>2026-04-28T17:00:00.001Z</time></trkpt><trkpt lat="45.57384629913042" lon="10.12853050433757"><ele>144.33333333333334</ele><time>2026-04-28T17:00:03.001Z</time></trkpt><trkpt lat="45.57385011318321" lon="10.128628637534026"><ele>144.16666666666666</ele><time>2026-04-28T17:00:06.001Z</time></trkpt><trkpt lat="45.573866760369405" lon="10.128744034489358"><ele>144.0</ele><time>2026-04-28T17:00:10.001Z</time></trkpt><trkpt lat="45.57387174383575" lon="10.128839875595279"><ele>144.00000000000003</ele><time>2026-04-28T17:00:13.001Z</time></trkpt><trkpt lat="45.57387651568877" lon="10.128939620044585"><ele>144.0</ele><time>2026-04-28T17:00:16.001Z</time></trkpt><trkpt lat="45.57389770512986" lon="10.129032114662246"><ele>144.0</ele><time>2026-04-28T17:00:19.001Z</time></trkpt><trkpt lat="45.57393723846394" lon="10.129116194143316"><ele>144.0</ele><time>2026-04-28T17:00:22.001Z</time></trkpt><trkpt lat="45.57397239006076" lon="10.129206190959954"><ele>144.0</ele><time>2026-04-28T17:00:25.001Z</time></trkpt><trkpt lat="45.57398036009997" lon="10.129319122022354"><ele>144.00000000000003</ele><time>2026-04-28T17:00:28.001Z</time></trkpt><trkpt lat="45.57394547092149" lon="10.1294321879467"><ele>144.0</ele><time>2026-04-28T17:00:31.001Z</time></trkpt><trkpt lat="45.57389006142814" lon="10.129513683407897"><ele>144.14285714285717</ele><time>2026-04-28T17:00:34.001Z</time></trkpt><trkpt lat="45.57382226120633" lon="10.12956610889234"><ele>144.28571428571428</ele><time>2026-04-28T17:00:37.001Z</time></trkpt><trkpt lat="45.57374443247184" lon="10.129559300310426"><ele>144.42857142857144</ele><time>2026-04-28T17:00:40.001Z</time></trkpt><trkpt lat="45.57366697061391" lon="10.12951581143094"><ele>144.57142857142858</ele><time>2026-04-28T17:00:43.001Z</time></trkpt><trkpt lat="45.57359358703171" lon="10.129480611062485"><ele>144.71428571428572</ele><time>2026-04-28T17:00:47.001Z</time></trkpt><trkpt lat="45.573529055708185" lon="10.129469987572229"><ele>144.85714285714286</ele><time>2026-04-28T17:00:50.001Z</time></trkpt><trkpt lat="45.573461320723624" lon="10.129487481280997"><ele>145.0</ele><time>2026-04-28T17:00:53.001Z</time></trkpt><trkpt lat="45.573394423630454" lon="10.129490767429722"><ele>145.0</ele><time>2026-04-28T17:00:56.001Z</time></trkpt><trkpt lat="45.57333058197632" lon="10.129502830177268"><ele>145.0</ele><time>2026-04-28T17:00:59.001Z</time></trkpt><trkpt lat="45.57325601585771" lon="10.129507859769463"><ele>145.0</ele><time>2026-04-28T17:01:02.001Z</time></trkpt><trkpt lat="45.5731837289868" lon="10.1295378528886"><ele>145.0</ele><time>2026-04-28T17:01:05.001Z</time></trkpt><trkpt lat="45.57311310856185" lon="10.129540385993112"><ele>145.0</ele><time>2026-04-28T17:01:08.001Z</time></trkpt><trkpt lat="45.57304408355757" lon="10.129550305639901"><ele>145.0</ele><time>2026-04-28T17:01:11.001Z</time></trkpt><trkpt lat="45.572966133278996" lon="10.129566600247738"><ele>145.0</ele><time>2026-04-28T17:01:14.001Z</time></trkpt><trkpt lat="45.57289948741939" lon="10.129572255805032"><ele>145.14285714285714</ele><time>2026-04-28T17:01:17.001Z</time></trkpt><trkpt lat="45.57282236679822" lon="10.129584234372077"><ele>145.2857142857143</ele><time>2026-04-28T17:01:20.001Z</time></trkpt><trkpt lat="45.57275794053457" lon="10.12958833327771"><ele>145.42857142857144</ele><time>2026-04-28T17:01:23.001Z</time></trkpt><trkpt lat="45.572683312452895" lon="10.129608902599719"><ele>145.57142857142858</ele><time>2026-04-28T17:01:26.001Z</time></trkpt><trkpt lat="45.572611521845275" lon="10.129618016345407"><ele>145.71428571428572</ele><time>2026-04-28T17:01:29.001Z</time></trkpt><trkpt lat="45.5725487461602" lon="10.129644206269472"><ele>145.85714285714286</ele><time>2026-04-28T17:01:31.001Z</time></trkpt><trkpt lat="45.5724639853666" lon="10.12966235780171"><ele>146.0</ele><time>2026-04-28T17:01:34.001Z</time></trkpt><trkpt lat="45.57238985215419" lon="10.129691077098371"><ele>146.0</ele><time>2026-04-28T17:01:37.001Z</time></trkpt><trkpt lat="45.572307791265835" lon="10.12970709037112"><ele>146.0</ele><time>2026-04-28T17:01:40.001Z</time></trkpt><trkpt lat="45.572228582550906" lon="10.12972919242782"><ele>146.0</ele><time>2026-04-28T17:01:43.001Z</time></trkpt><trkpt lat="45.57214944830199" lon="10.129753649266418"><ele>146.0</ele><time>2026-04-28T17:01:46.001Z</time></trkpt><trkpt lat="45.57206827375517" lon="10.129797298641446"><ele>146.0</ele><time>2026-04-28T17:01:49.001Z</time></trkpt><trkpt lat="45.571988377507324" lon="10.12982167394554"><ele>146.0</ele><time>2026-04-28T17:01:52.001Z</time></trkpt><trkpt lat="45.57190865544566" lon="10.129822134189492"><ele>145.66666666666666</ele><time>2026-04-28T17:01:55.001Z</time></trkpt><trkpt lat="45.57182658345678" lon="10.129839049830588"><ele>145.33333333333331</ele><time>2026-04-28T17:01:58.001Z</time></trkpt><trkpt lat="45.5717480212024" lon="10.129861381862758"><ele>145.0</ele><time>2026-04-28T17:02:01.002Z</time></trkpt><trkpt lat="45.57167135216432" lon="10.12987614491842"><ele>144.66666666666666</ele><time>2026-04-28T17:02:04.002Z</time></trkpt><trkpt lat="45.571590745327725" lon="10.129884283674993"><ele>144.33333333333334</ele><time>2026-04-28T17:02:07.002Z</time></trkpt><trkpt lat="45.571514893489265" lon="10.129903865444765"><ele>144.0</ele><time>2026-04-28T17:02:10.002Z</time></trkpt><trkpt lat="45.57144056380535" lon="10.129930509990013"><ele>144.0</ele><time>2026-04-28T17:02:13.002Z</time></trkpt><trkpt lat="45.571363271895116" lon="10.129960012941009"><ele>144.0</ele><time>2026-04-28T17:02:16.002Z</time></trkpt><trkpt lat="45.57129392539782" lon="10.130033412304693"><ele>144.0</ele><time>2026-04-28T17:02:19.002Z</time></trkpt><trkpt lat="45.57129420231094" lon="10.13015012740097"><ele>144.0</ele><time>2026-04-28T17:02:22.002Z</time></trkpt><trkpt lat="45.57130472967758" lon="10.130269762787451"><ele>144.0</ele><time>2026-04-28T17:02:25.002Z</time></trkpt><trkpt lat="45.571344645083954" lon="10.130372649965288"><ele>144.0</ele><time>2026-04-28T17:02:28.002Z</time></trkpt><trkpt lat="45.571368040309" lon="10.130476927006905"><ele>144.0</ele><time>2026-04-28T17:02:31.002Z</time></trkpt><trkpt lat="45.571392787009565" lon="10.130586965915262"><ele>144.0</ele><time>2026-04-28T17:02:34.002Z</time></trkpt><trkpt lat="45.571409843040655" lon="10.130701359865203"><ele>144.0</ele><time>2026-04-28T17:02:37.002Z</time></trkpt><trkpt lat="45.57142625722738" lon="10.130817137911928"><ele>144.0</ele><time>2026-04-28T17:02:40.002Z</time></trkpt><trkpt lat="45.57144799390826" lon="10.130928052582158"><ele>144.0</ele><time>2026-04-28T17:02:43.002Z</time></trkpt><trkpt lat="45.57147786739401" lon="10.131040007681465"><ele>144.0</ele><time>2026-04-28T17:02:46.002Z</time></trkpt><trkpt lat="45.571509988930295" lon="10.131152584039025"><ele>144.0</ele><time>2026-04-28T17:02:49.002Z</time></trkpt><trkpt lat="45.571520215596244" lon="10.1312690796225"><ele>144.0</ele><time>2026-04-28T17:02:52.002Z</time></trkpt><trkpt lat="45.571540230133486" lon="10.131385230358074"><ele>144.0</ele><time>2026-04-28T17:02:55.002Z</time></trkpt><trkpt lat="45.57157235203364" lon="10.131485590830932"><ele>144.0</ele><time>2026-04-28T17:02:58.002Z</time></trkpt><trkpt lat="45.571575106907915" lon="10.131592249171561"><ele>144.0</ele><time>2026-04-28T17:03:01.002Z</time></trkpt><trkpt lat="45.57160468793934" lon="10.131697892181133"><ele>144.0</ele><time>2026-04-28T17:03:04.002Z</time></trkpt><trkpt lat="45.57163404925104" lon="10.131811558359704"><ele>144.0</ele><time>2026-04-28T17:03:07.002Z</time></trkpt><trkpt lat="45.57165841784604" lon="10.131917732637557"><ele>144.0</ele><time>2026-04-28T17:03:10.002Z</time></trkpt><trkpt lat="45.57168436639476" lon="10.132029010383718"><ele>144.0</ele><time>2026-04-28T17:03:13.002Z</time></trkpt><trkpt lat="45.5717120843628" lon="10.132136019558523"><ele>144.0</ele><time>2026-04-28T17:03:16.002Z</time></trkpt><trkpt lat="45.571730198640886" lon="10.132240079185607"><ele>144.0</ele><time>2026-04-28T17:03:19.002Z</time></trkpt><trkpt lat="45.571798670492264" lon="10.132319134897852"><ele>144.0</ele><time>2026-04-28T17:03:23.002Z</time></trkpt><trkpt lat="45.57187105089101" lon="10.132344793653274"><ele>144.0</ele><time>2026-04-28T17:03:26.001Z</time></trkpt><trkpt lat="45.571948959139085" lon="10.132314273291717"><ele>144.0</ele><time>2026-04-28T17:03:29.001Z</time></trkpt><trkpt lat="45.57202631233295" lon="10.132274835932277"><ele>144.0</ele><time>2026-04-28T17:03:32.001Z</time></trkpt><trkpt lat="45.57209403603847" lon="10.132250834882502"><ele>144.0</ele><time>2026-04-28T17:03:35.001Z</time></trkpt><trkpt lat="45.57216308109631" lon="10.13221127197435"><ele>144.0</ele><time>2026-04-28T17:03:38.001Z</time></trkpt><trkpt lat="45.57223786543605" lon="10.132198057282208"><ele>144.0</ele><time>2026-04-28T17:03:41.001Z</time></trkpt><trkpt lat="45.57231058551871" lon="10.132183430096275"><ele>144.0</ele><time>2026-04-28T17:03:44.001Z</time></trkpt><trkpt lat="45.57238227872383" lon="10.13216235998922"><ele>144.0</ele><time>2026-04-28T17:03:47.001Z</time></trkpt><trkpt lat="45.57245942964091" lon="10.132150387771237"><ele>144.0</ele><time>2026-04-28T17:03:50.001Z</time></trkpt><trkpt lat="45.57253563349398" lon="10.132149476128804"><ele>144.0</ele><time>2026-04-28T17:03:53.001Z</time></trkpt><trkpt lat="45.57261270868214" lon="10.132130083656048"><ele>144.0</ele><time>2026-04-28T17:03:56.001Z</time></trkpt><trkpt lat="45.57268635917104" lon="10.132133330595744"><ele>144.0</ele><time>2026-04-28T17:03:59.001Z</time></trkpt><trkpt lat="45.572758604893444" lon="10.132142231399063"><ele>144.0</ele><time>2026-04-28T17:04:02.001Z</time></trkpt><trkpt lat="45.57283417914668" lon="10.132141844962023"><ele>144.0</ele><time>2026-04-28T17:04:05.001Z</time></trkpt><trkpt lat="45.57290589002944" lon="10.132167357333424"><ele>144.0</ele><time>2026-04-28T17:04:08.001Z</time></trkpt><trkpt lat="45.57298873069059" lon="10.132165318222443"><ele>144.0</ele><time>2026-04-28T17:04:11.001Z</time></trkpt><trkpt lat="45.57306767912173" lon="10.132157441743745"><ele>144.0</ele><time>2026-04-28T17:04:14.001Z</time></trkpt><trkpt lat="45.57313980024673" lon="10.132145444408943"><ele>144.0</ele><time>2026-04-28T17:04:17.001Z</time></trkpt><trkpt lat="45.57322172906326" lon="10.132131741207845"><ele>143.83333333333334</ele><time>2026-04-28T17:04:20.001Z</time></trkpt><trkpt lat="45.57329987534147" lon="10.132113817078794"><ele>143.66666666666666</ele><time>2026-04-28T17:04:23.001Z</time></trkpt><trkpt lat="45.573379824767194" lon="10.132098176556413"><ele>143.5</ele><time>2026-04-28T17:04:26.001Z</time></trkpt><trkpt lat="45.57345526354139" lon="10.132088819451084"><ele>143.33333333333331</ele><time>2026-04-28T17:04:29.001Z</time></trkpt><trkpt lat="45.57352661994556" lon="10.132047764927496"><ele>143.16666666666666</ele><time>2026-04-28T17:04:32.001Z</time></trkpt><trkpt lat="45.573601147866235" lon="10.13201135659216"><ele>143.0</ele><time>2026-04-28T17:04:35.001Z</time></trkpt><trkpt lat="45.573675597796836" lon="10.131982007516381"><ele>142.99999999999997</ele><time>2026-04-28T17:04:38.001Z</time></trkpt><trkpt lat="45.57375113726013" lon="10.131945349790348"><ele>143.0</ele><time>2026-04-28T17:04:41.001Z</time></trkpt><trkpt lat="45.57382237885974" lon="10.131911921431113"><ele>143.0</ele><time>2026-04-28T17:04:44.001Z</time></trkpt><trkpt lat="45.57388954728468" lon="10.131901938575584"><ele>143.0</ele><time>2026-04-28T17:04:47.001Z</time></trkpt><trkpt lat="45.57396127389004" lon="10.131890875826064"><ele>143.0</ele><time>2026-04-28T17:04:50.001Z</time></trkpt><trkpt lat="45.574033658205735" lon="10.131880871206143"><ele>142.99999999999997</ele><time>2026-04-28T17:04:53.001Z</time></trkpt><trkpt lat="45.57410598036286" lon="10.131897575073582"><ele>143.0</ele><time>2026-04-28T17:04:56.001Z</time></trkpt><trkpt lat="45.57417219593157" lon="10.131925841209588"><ele>142.99999999999997</ele><time>2026-04-28T17:04:59.001Z</time></trkpt><trkpt lat="45.5742306837937" lon="10.13196499448574"><ele>143.0</ele><time>2026-04-28T17:05:02.001Z</time></trkpt><trkpt lat="45.5743046113316" lon="10.132022616179265"><ele>143.0</ele><time>2026-04-28T17:05:06.002Z</time></trkpt><trkpt lat="45.57436327809876" lon="10.1320754842907"><ele>143.0</ele><time>2026-04-28T17:05:09.002Z</time></trkpt><trkpt lat="45.57443518418522" lon="10.132106139640799"><ele>143.0</ele><time>2026-04-28T17:05:12.002Z</time></trkpt><trkpt lat="45.574508177071316" lon="10.132139579142898"><ele>142.99999999999997</ele><time>2026-04-28T17:05:15.002Z</time></trkpt><trkpt lat="45.57457231779803" lon="10.13218411803474"><ele>143.0</ele><time>2026-04-28T17:05:18.002Z</time></trkpt><trkpt lat="45.574638709569264" lon="10.13221100865249"><ele>143.0</ele><time>2026-04-28T17:05:21.002Z</time></trkpt><trkpt lat="45.574710469697436" lon="10.132241606331332"><ele>143.0</ele><time>2026-04-28T17:05:24.002Z</time></trkpt><trkpt lat="45.57478360542868" lon="10.1322854885174"><ele>143.0</ele><time>2026-04-28T17:05:27.002Z</time></trkpt><trkpt lat="45.57486663006566" lon="10.13230364122862"><ele>143.0</ele><time>2026-04-28T17:05:30.002Z</time></trkpt><trkpt lat="45.57493852430467" lon="10.132345736735237"><ele>143.0</ele><time>2026-04-28T17:05:33.001Z</time></trkpt><trkpt lat="45.57501415689056" lon="10.132365900513282"><ele>143.0</ele><time>2026-04-28T17:05:36.002Z</time></trkpt><trkpt lat="45.57508704666198" lon="10.132399853341854"><ele>143.0</ele><time>2026-04-28T17:05:39.002Z</time></trkpt><trkpt lat="45.57516247019833" lon="10.132421362470412"><ele>143.0</ele><time>2026-04-28T17:05:42.001Z</time></trkpt><trkpt lat="45.57523764850935" lon="10.132451802088276"><ele>143.0</ele><time>2026-04-28T17:05:45.001Z</time></trkpt><trkpt lat="45.57532069635842" lon="10.13247137474188"><ele>143.0</ele><time>2026-04-28T17:05:48.001Z</time></trkpt><trkpt lat="45.57539104385505" lon="10.132497773596462"><ele>143.0</ele><time>2026-04-28T17:05:51.001Z</time></trkpt><trkpt lat="45.5754579797372" lon="10.132530625695457"><ele>143.0</ele><time>2026-04-28T17:05:54.001Z</time></trkpt><trkpt lat="45.575526890703976" lon="10.132562387491873"><ele>143.33333333333331</ele><time>2026-04-28T17:05:57.001Z</time></trkpt><trkpt lat="45.575614876239726" lon="10.13258849152028"><ele>143.66666666666666</ele><time>2026-04-28T17:06:00.001Z</time></trkpt><trkpt lat="45.57570007450035" lon="10.132597753570211"><ele>144.0</ele><time>2026-04-28T17:06:03.001Z</time></trkpt><trkpt lat="45.575780798781345" lon="10.132612872478852"><ele>144.33333333333334</ele><time>2026-04-28T17:06:06.001Z</time></trkpt><trkpt lat="45.5758512545701" lon="10.13261021547055"><ele>144.66666666666669</ele><time>2026-04-28T17:06:09.001Z</time></trkpt><trkpt lat="45.57591952079162" lon="10.132623468827084"><ele>145.0</ele><time>2026-04-28T17:06:12.001Z</time></trkpt><trkpt lat="45.57599169578266" lon="10.132641668731983"><ele>145.0</ele><time>2026-04-28T17:06:15.001Z</time></trkpt><trkpt lat="45.576063278393974" lon="10.132653709405314"><ele>145.0</ele><time>2026-04-28T17:06:18.001Z</time></trkpt><trkpt lat="45.57613349106306" lon="10.132648171774074"><ele>145.0</ele><time>2026-04-28T17:06:21.001Z</time></trkpt><trkpt lat="45.57619969690788" lon="10.132654356997504"><ele>145.0</ele><time>2026-04-28T17:06:24.001Z</time></trkpt><trkpt lat="45.57628039950094" lon="10.132685807325295"><ele>145.0</ele><time>2026-04-28T17:06:28.001Z</time></trkpt><trkpt lat="45.57635045204538" lon="10.13268780912192"><ele>145.0</ele><time>2026-04-28T17:06:31.001Z</time></trkpt><trkpt lat="45.57642000685988" lon="10.132694663715517"><ele>145.0</ele><time>2026-04-28T17:06:34.001Z</time></trkpt><trkpt lat="45.576491354713305" lon="10.132696780266356"><ele>144.85714285714286</ele><time>2026-04-28T17:06:37.001Z</time></trkpt><trkpt lat="45.57656198334696" lon="10.13271901996235"><ele>144.71428571428572</ele><time>2026-04-28T17:06:40.001Z</time></trkpt><trkpt lat="45.576631349593505" lon="10.132724713818638"><ele>144.57142857142858</ele><time>2026-04-28T17:06:43.001Z</time></trkpt><trkpt lat="45.576705683619934" lon="10.132743222220792"><ele>144.42857142857144</ele><time>2026-04-28T17:06:46.002Z</time></trkpt><trkpt lat="45.57677781104981" lon="10.132763732514734"><ele>144.28571428571428</ele><time>2026-04-28T17:06:49.002Z</time></trkpt><trkpt lat="45.57684749057872" lon="10.132791189616569"><ele>144.14285714285717</ele><time>2026-04-28T17:06:52.002Z</time></trkpt><trkpt lat="45.576917664751996" lon="10.132812009642139"><ele>144.0</ele><time>2026-04-28T17:06:55.002Z</time></trkpt><trkpt lat="45.57698868569964" lon="10.132833616806924"><ele>144.14285714285717</ele><time>2026-04-28T17:06:58.002Z</time></trkpt><trkpt lat="45.57705693981216" lon="10.132859838324425"><ele>144.28571428571428</ele><time>2026-04-28T17:07:01.002Z</time></trkpt><trkpt lat="45.577127914059226" lon="10.132876689195731"><ele>144.42857142857144</ele><time>2026-04-28T17:07:04.002Z</time></trkpt><trkpt lat="45.57720069568957" lon="10.132893997263183"><ele>144.57142857142858</ele><time>2026-04-28T17:07:07.002Z</time></trkpt><trkpt lat="45.577278399029346" lon="10.132902049645011"><ele>144.71428571428572</ele><time>2026-04-28T17:07:10.002Z</time></trkpt><trkpt lat="45.577350036465944" lon="10.132901383042782"><ele>144.85714285714286</ele><time>2026-04-28T17:07:13.002Z</time></trkpt><trkpt lat="45.57742315086094" lon="10.132904762039306"><ele>145.0</ele><time>2026-04-28T17:07:16.002Z</time></trkpt><trkpt lat="45.57748977562676" lon="10.132916096427229"><ele>145.0</ele><time>2026-04-28T17:07:19.002Z</time></trkpt><trkpt lat="45.57755998513593" lon="10.13291735582599"><ele>145.0</ele><time>2026-04-28T17:07:22.002Z</time></trkpt><trkpt lat="45.577627259330015" lon="10.13292430700859"><ele>145.0</ele><time>2026-04-28T17:07:25.002Z</time></trkpt><trkpt lat="45.57769604573208" lon="10.132919105908845"><ele>145.0</ele><time>2026-04-28T17:07:28.002Z</time></trkpt><trkpt lat="45.57776204301534" lon="10.132924803496044"><ele>145.0</ele><time>2026-04-28T17:07:31.002Z</time></trkpt><trkpt lat="45.57782681978031" lon="10.132928466635137"><ele>145.0</ele><time>2026-04-28T17:07:34.002Z</time></trkpt><trkpt lat="45.577893619421076" lon="10.132918000931552"><ele>145.0</ele><time>2026-04-28T17:07:37.001Z</time></trkpt><trkpt lat="45.57795916325485" lon="10.132914429836836"><ele>145.42857142857144</ele><time>2026-04-28T17:07:40.002Z</time></trkpt><trkpt lat="45.578024563095816" lon="10.132917564183634"><ele>145.85714285714286</ele><time>2026-04-28T17:07:43.001Z</time></trkpt><trkpt lat="45.57809133831361" lon="10.132899782527042"><ele>146.28571428571428</ele><time>2026-04-28T17:07:46.002Z</time></trkpt><trkpt lat="45.57815441605932" lon="10.132890741409359"><ele>146.71428571428572</ele><time>2026-04-28T17:07:49.002Z</time></trkpt><trkpt lat="45.57822315379572" lon="10.132892108866892"><ele>147.14285714285714</ele><time>2026-04-28T17:07:52.002Z</time></trkpt><trkpt lat="45.57829090871229" lon="10.132892185083325"><ele>147.57142857142858</ele><time>2026-04-28T17:07:55.002Z</time></trkpt><trkpt lat="45.57835852390993" lon="10.132894943463759"><ele>148.0</ele><time>2026-04-28T17:07:58.002Z</time></trkpt><trkpt lat="45.578427927917296" lon="10.132890203938645"><ele>148.0</ele><time>2026-04-28T17:08:01.002Z</time></trkpt><trkpt lat="45.57850031342595" lon="10.132906444742812"><ele>148.0</ele><time>2026-04-28T17:08:04.002Z</time></trkpt><trkpt lat="45.5785770604658" lon="10.132892890636212"><ele>148.0</ele><time>2026-04-28T17:08:07.002Z</time></trkpt><trkpt lat="45.578649042893396" lon="10.132884686532039"><ele>148.0</ele><time>2026-04-28T17:08:10.002Z</time></trkpt><trkpt lat="45.57872000544054" lon="10.132898745054664"><ele>148.0</ele><time>2026-04-28T17:08:13.002Z</time></trkpt><trkpt lat="45.57888067987054" lon="10.13291468100058"><ele>148.14285714285714</ele><time>2026-04-28T17:08:20.002Z</time></trkpt><trkpt lat="45.57897776938245" lon="10.132882140159927"><ele>148.28571428571428</ele><time>2026-04-28T17:08:24.002Z</time></trkpt><trkpt lat="45.57905736543669" lon="10.132861970183601"><ele>148.42857142857142</ele><time>2026-04-28T17:08:27.002Z</time></trkpt><trkpt lat="45.57912283785931" lon="10.132861467723398"><ele>148.57142857142856</ele><time>2026-04-28T17:08:29.002Z</time></trkpt><trkpt lat="45.57918836676848" lon="10.132837510281126"><ele>148.7142857142857</ele><time>2026-04-28T17:08:31.002Z</time></trkpt><trkpt lat="45.57925173556147" lon="10.132809747788873"><ele>148.85714285714286</ele><time>2026-04-28T17:08:33.002Z</time></trkpt><trkpt lat="45.57931495011511" lon="10.132781455483142"><ele>149.0</ele><time>2026-04-28T17:08:35.002Z</time></trkpt><trkpt lat="45.57940724580857" lon="10.13274398915438"><ele>149.0</ele><time>2026-04-28T17:08:38.002Z</time></trkpt><trkpt lat="45.5794931949044" lon="10.132696959335252"><ele>149.0</ele><time>2026-04-28T17:08:41.002Z</time></trkpt><trkpt lat="45.579582002464065" lon="10.132670060751453"><ele>149.0</ele><time>2026-04-28T17:08:44.002Z</time></trkpt><trkpt lat="45.57966730916114" lon="10.13264681093402"><ele>149.0</ele><time>2026-04-28T17:08:47.002Z</time></trkpt><trkpt lat="45.57974900784245" lon="10.132603339716807"><ele>149.0</ele><time>2026-04-28T17:08:50.002Z</time></trkpt><trkpt lat="45.57982982388694" lon="10.132550689806529"><ele>149.0</ele><time>2026-04-28T17:08:53.002Z</time></trkpt><trkpt lat="45.579916440081256" lon="10.132518566463759"><ele>148.83333333333331</ele><time>2026-04-28T17:08:56.002Z</time></trkpt><trkpt lat="45.57999745861419" lon="10.13250051972924"><ele>148.66666666666666</ele><time>2026-04-28T17:08:59.002Z</time></trkpt><trkpt lat="45.58007153868987" lon="10.132460071454018"><ele>148.5</ele><time>2026-04-28T17:09:03.002Z</time></trkpt><trkpt lat="45.5801518931138" lon="10.132425244759814"><ele>148.33333333333334</ele><time>2026-04-28T17:09:07.003Z</time></trkpt><trkpt lat="45.58021834024428" lon="10.132387898357749"><ele>148.16666666666669</ele><time>2026-04-28T17:09:10.003Z</time></trkpt><trkpt lat="45.5802861869342" lon="10.132338628039141"><ele>148.0</ele><time>2026-04-28T17:09:13.003Z</time></trkpt><trkpt lat="45.58035192280628" lon="10.132293002452535"><ele>147.5</ele><time>2026-04-28T17:09:16.003Z</time></trkpt><trkpt lat="45.58041784995165" lon="10.132245161677632"><ele>147.0</ele><time>2026-04-28T17:09:19.003Z</time></trkpt><trkpt lat="45.580475336661884" lon="10.132180846133103"><ele>146.5</ele><time>2026-04-28T17:09:22.003Z</time></trkpt><trkpt lat="45.58053099404864" lon="10.132117225859528"><ele>146.0</ele><time>2026-04-28T17:09:25.003Z</time></trkpt><trkpt lat="45.58059879635355" lon="10.132058025085572"><ele>145.5</ele><time>2026-04-28T17:09:28.003Z</time></trkpt><trkpt lat="45.58067242314818" lon="10.132001075398605"><ele>145.0</ele><time>2026-04-28T17:09:31.003Z</time></trkpt><trkpt lat="45.580740001098754" lon="10.131938608443305"><ele>145.0</ele><time>2026-04-28T17:09:34.003Z</time></trkpt><trkpt lat="45.58080681698529" lon="10.131875935173534"><ele>145.0</ele><time>2026-04-28T17:09:37.003Z</time></trkpt><trkpt lat="45.580869547696665" lon="10.131809975713326"><ele>145.0</ele><time>2026-04-28T17:09:40.003Z</time></trkpt><trkpt lat="45.58092961400065" lon="10.1317440888533"><ele>145.0</ele><time>2026-04-28T17:09:43.001Z</time></trkpt><trkpt lat="45.58099116423355" lon="10.131686401826645"><ele>145.0</ele><time>2026-04-28T17:09:46.002Z</time></trkpt><trkpt lat="45.58104730771302" lon="10.131626893661146"><ele>145.0</ele><time>2026-04-28T17:09:49.002Z</time></trkpt><trkpt lat="45.58110607323974" lon="10.131564209053165"><ele>145.57142857142858</ele><time>2026-04-28T17:09:52.001Z</time></trkpt><trkpt lat="45.581166693902944" lon="10.131495717790324"><ele>146.14285714285717</ele><time>2026-04-28T17:09:55.002Z</time></trkpt><trkpt lat="45.58122667521247" lon="10.131446219169007"><ele>146.71428571428572</ele><time>2026-04-28T17:09:58.002Z</time></trkpt><trkpt lat="45.58128204825878" lon="10.131379652047832"><ele>147.28571428571428</ele><time>2026-04-28T17:10:01.002Z</time></trkpt><trkpt lat="45.58134259098146" lon="10.131319818287466"><ele>147.85714285714283</ele><time>2026-04-28T17:10:04.002Z</time></trkpt><trkpt lat="45.58139469173503" lon="10.131259463308513"><ele>148.42857142857142</ele><time>2026-04-28T17:10:07.002Z</time></trkpt><trkpt lat="45.58145765243887" lon="10.131207655798715"><ele>149.0</ele><time>2026-04-28T17:10:10.002Z</time></trkpt><trkpt lat="45.581512586920766" lon="10.13114849165527"><ele>149.0</ele><time>2026-04-28T17:10:13.002Z</time></trkpt><trkpt lat="45.58157302478426" lon="10.131085178263717"><ele>149.0</ele><time>2026-04-28T17:10:16.002Z</time></trkpt><trkpt lat="45.58163005916502" lon="10.131032463284233"><ele>149.0</ele><time>2026-04-28T17:10:19.002Z</time></trkpt><trkpt lat="45.58169017588708" lon="10.130991659048346"><ele>149.0</ele><time>2026-04-28T17:10:22.002Z</time></trkpt><trkpt lat="45.581743832232" lon="10.130943801308039"><ele>149.0</ele><time>2026-04-28T17:10:25.002Z</time></trkpt><trkpt lat="45.58180090802554" lon="10.130901245839631"><ele>149.0</ele><time>2026-04-28T17:10:28.002Z</time></trkpt><trkpt lat="45.58186089836517" lon="10.130845044241322"><ele>149.0</ele><time>2026-04-28T17:10:31.002Z</time></trkpt><trkpt lat="45.58193101514407" lon="10.130806186703822"><ele>149.0</ele><time>2026-04-28T17:10:34.002Z</time></trkpt><trkpt lat="45.581995555554805" lon="10.130759491581195"><ele>149.0</ele><time>2026-04-28T17:10:37.002Z</time></trkpt><trkpt lat="45.582064809749255" lon="10.130728881852999"><ele>149.0</ele><time>2026-04-28T17:10:40.002Z</time></trkpt><trkpt lat="45.582136520636" lon="10.13070994555163"><ele>149.0</ele><time>2026-04-28T17:10:43.002Z</time></trkpt><trkpt lat="45.582207865941406" lon="10.13070800623692"><ele>149.0</ele><time>2026-04-28T17:10:46.002Z</time></trkpt><trkpt lat="45.582278676431834" lon="10.130716315290673"><ele>149.0</ele><time>2026-04-28T17:10:49.002Z</time></trkpt><trkpt lat="45.582354125106754" lon="10.13069877131838"><ele>149.0</ele><time>2026-04-28T17:10:52.002Z</time></trkpt><trkpt lat="45.582424613712895" lon="10.130680027652145"><ele>149.28571428571428</ele><time>2026-04-28T17:10:55.002Z</time></trkpt><trkpt lat="45.58249538103988" lon="10.130670382694342"><ele>149.57142857142856</ele><time>2026-04-28T17:10:58.002Z</time></trkpt><trkpt lat="45.582570371999445" lon="10.130661340823917"><ele>149.85714285714286</ele><time>2026-04-28T17:11:01.003Z</time></trkpt><trkpt lat="45.582645158422324" lon="10.130659835454006"><ele>150.14285714285714</ele><time>2026-04-28T17:11:04.003Z</time></trkpt><trkpt lat="45.582716633928314" lon="10.130650207636814"><ele>150.42857142857144</ele><time>2026-04-28T17:11:07.003Z</time></trkpt><trkpt lat="45.5827874534225" lon="10.130635115932574"><ele>150.71428571428572</ele><time>2026-04-28T17:11:10.003Z</time></trkpt><trkpt lat="45.58286210232847" lon="10.130634694941612"><ele>151.0</ele><time>2026-04-28T17:11:13.003Z</time></trkpt><trkpt lat="45.58293483435288" lon="10.1306232135407"><ele>151.0</ele><time>2026-04-28T17:11:16.003Z</time></trkpt><trkpt lat="45.58300931608414" lon="10.130601519265246"><ele>151.0</ele><time>2026-04-28T17:11:19.003Z</time></trkpt><trkpt lat="45.58308651680201" lon="10.130609451522066"><ele>151.0</ele><time>2026-04-28T17:11:22.003Z</time></trkpt><trkpt lat="45.58316372510935" lon="10.130590201050191"><ele>151.0</ele><time>2026-04-28T17:11:25.003Z</time></trkpt><trkpt lat="45.583240776573845" lon="10.130568311711356"><ele>151.0</ele><time>2026-04-28T17:11:28.003Z</time></trkpt><trkpt lat="45.58331741856566" lon="10.130559258395925"><ele>151.0</ele><time>2026-04-28T17:11:31.003Z</time></trkpt><trkpt lat="45.58338956131852" lon="10.130545147333605"><ele>151.0</ele><time>2026-04-28T17:11:34.003Z</time></trkpt><trkpt lat="45.583460599467095" lon="10.130495651204109"><ele>151.0</ele><time>2026-04-28T17:11:37.003Z</time></trkpt><trkpt lat="45.5835292785093" lon="10.130434533242141"><ele>151.0</ele><time>2026-04-28T17:11:40.003Z</time></trkpt><trkpt lat="45.58359679730986" lon="10.130389140967782"><ele>151.0</ele><time>2026-04-28T17:11:43.003Z</time></trkpt><trkpt lat="45.58366239229777" lon="10.13034431992467"><ele>151.0</ele><time>2026-04-28T17:11:46.003Z</time></trkpt><trkpt lat="45.58373404927692" lon="10.130324764725176"><ele>151.0</ele><time>2026-04-28T17:11:49.002Z</time></trkpt><trkpt lat="45.58380595063379" lon="10.130302913378278"><ele>151.00000000000003</ele><time>2026-04-28T17:11:52.002Z</time></trkpt><trkpt lat="45.5838537089232" lon="10.130372839029896"><ele>151.0</ele><time>2026-04-28T17:11:54.002Z</time></trkpt><trkpt lat="45.58385078295989" lon="10.130464227086188"><ele>151.0</ele><time>2026-04-28T17:11:57.002Z</time></trkpt><trkpt lat="45.58386416757405" lon="10.130575365314355"><ele>151.0</ele><time>2026-04-28T17:12:01.002Z</time></trkpt><trkpt lat="45.583872249360844" lon="10.130667499517376"><ele>151.0</ele><time>2026-04-28T17:12:04.002Z</time></trkpt><trkpt lat="45.58387368344357" lon="10.13075962854637"><ele>151.00000000000003</ele><time>2026-04-28T17:12:07.002Z</time></trkpt><trkpt lat="45.58388705383222" lon="10.13084796824193"><ele>151.0</ele><time>2026-04-28T17:12:10.002Z</time></trkpt><trkpt lat="45.5839043736895" lon="10.130948861276362"><ele>151.00000000000003</ele><time>2026-04-28T17:12:13.002Z</time></trkpt><trkpt lat="45.58390393690955" lon="10.131050590069894"><ele>151.0</ele><time>2026-04-28T17:12:16.002Z</time></trkpt><trkpt lat="45.58391647108409" lon="10.131163901036377"><ele>151.0</ele><time>2026-04-28T17:12:19.002Z</time></trkpt><trkpt lat="45.58391829973863" lon="10.131265193333943"><ele>151.0</ele><time>2026-04-28T17:12:22.002Z</time></trkpt><trkpt lat="45.58392389986263" lon="10.131374570098703"><ele>151.0</ele><time>2026-04-28T17:12:25.002Z</time></trkpt><trkpt lat="45.58392487793936" lon="10.131476176605513"><ele>151.00000000000003</ele><time>2026-04-28T17:12:28.002Z</time></trkpt><trkpt lat="45.58392722352434" lon="10.131581910581799"><ele>151.0</ele><time>2026-04-28T17:12:31.002Z</time></trkpt><trkpt lat="45.58394202457248" lon="10.131691763054565"><ele>151.16666666666669</ele><time>2026-04-28T17:12:34.002Z</time></trkpt><trkpt lat="45.5839401466586" lon="10.131792333811594"><ele>151.33333333333334</ele><time>2026-04-28T17:12:37.002Z</time></trkpt><trkpt lat="45.5839364680375" lon="10.131896617841058"><ele>151.5</ele><time>2026-04-28T17:12:40.002Z</time></trkpt><trkpt lat="45.583934908637865" lon="10.132013489173975"><ele>151.66666666666666</ele><time>2026-04-28T17:12:43.002Z</time></trkpt><trkpt lat="45.58393471545115" lon="10.132134987923006"><ele>151.83333333333331</ele><time>2026-04-28T17:12:46.002Z</time></trkpt><trkpt lat="45.583937950196166" lon="10.13225670151096"><ele>152.0</ele><time>2026-04-28T17:12:49.002Z</time></trkpt><trkpt lat="45.5839485037207" lon="10.132378951864425"><ele>152.16666666666666</ele><time>2026-04-28T17:12:52.002Z</time></trkpt><trkpt lat="45.58395836446993" lon="10.132502017341082"><ele>152.33333333333331</ele><time>2026-04-28T17:12:55.002Z</time></trkpt><trkpt lat="45.58396976755747" lon="10.132618073420291"><ele>152.5</ele><time>2026-04-28T17:12:58.002Z</time></trkpt><trkpt lat="45.58398244328912" lon="10.132729912180107"><ele>152.66666666666666</ele><time>2026-04-28T17:13:01.002Z</time></trkpt><trkpt lat="45.58398374074096" lon="10.132849770978789"><ele>152.83333333333334</ele><time>2026-04-28T17:13:04.002Z</time></trkpt><trkpt lat="45.58396275415168" lon="10.13295877723136"><ele>153.0</ele><time>2026-04-28T17:13:07.002Z</time></trkpt><trkpt lat="45.58394608463094" lon="10.133069560167302"><ele>153.0</ele><time>2026-04-28T17:13:10.002Z</time></trkpt><trkpt lat="45.583925856992565" lon="10.133169256444742"><ele>153.0</ele><time>2026-04-28T17:13:13.002Z</time></trkpt><trkpt lat="45.58390438911977" lon="10.133272131134927"><ele>153.0</ele><time>2026-04-28T17:13:16.002Z</time></trkpt><trkpt lat="45.58387935222937" lon="10.133375638324567"><ele>153.0</ele><time>2026-04-28T17:13:19.002Z</time></trkpt><trkpt lat="45.58385672813094" lon="10.133477879375791"><ele>153.0</ele><time>2026-04-28T17:13:22.002Z</time></trkpt><trkpt lat="45.58384118251276" lon="10.13356970512906"><ele>153.0</ele><time>2026-04-28T17:13:25.002Z</time></trkpt><trkpt lat="45.583825918606436" lon="10.133665888393756"><ele>153.0</ele><time>2026-04-28T17:13:28.002Z</time></trkpt><trkpt lat="45.58381713599962" lon="10.133768857211779"><ele>152.83333333333334</ele><time>2026-04-28T17:13:31.002Z</time></trkpt><trkpt lat="45.58380809785554" lon="10.133867307603737"><ele>152.66666666666666</ele><time>2026-04-28T17:13:34.002Z</time></trkpt><trkpt lat="45.583799234381594" lon="10.133991081108473"><ele>152.5</ele><time>2026-04-28T17:13:37.002Z</time></trkpt><trkpt lat="45.58379399623372" lon="10.13409954692925"><ele>152.33333333333331</ele><time>2026-04-28T17:13:40.002Z</time></trkpt><trkpt lat="45.583778068822134" lon="10.134211371372274"><ele>152.16666666666666</ele><time>2026-04-28T17:13:43.002Z</time></trkpt><trkpt lat="45.5837670056502" lon="10.13431824543379"><ele>152.0</ele><time>2026-04-28T17:13:46.002Z</time></trkpt><trkpt lat="45.58375387829595" lon="10.134428053467579"><ele>151.66666666666666</ele><time>2026-04-28T17:13:49.002Z</time></trkpt><trkpt lat="45.58374049233634" lon="10.134537748119584"><ele>151.33333333333331</ele><time>2026-04-28T17:13:52.002Z</time></trkpt><trkpt lat="45.583729877042344" lon="10.134647834146158"><ele>151.0</ele><time>2026-04-28T17:13:55.002Z</time></trkpt><trkpt lat="45.58371552538514" lon="10.134755288256748"><ele>150.66666666666666</ele><time>2026-04-28T17:13:58.002Z</time></trkpt><trkpt lat="45.58369624862228" lon="10.134854332723432"><ele>150.33333333333334</ele><time>2026-04-28T17:14:01.002Z</time></trkpt><trkpt lat="45.583675975997835" lon="10.13496298700337"><ele>150.0</ele><time>2026-04-28T17:14:04.002Z</time></trkpt><trkpt lat="45.58365853976136" lon="10.135060796143508"><ele>149.99999999999997</ele><time>2026-04-28T17:14:07.002Z</time></trkpt><trkpt lat="45.58362977709586" lon="10.135164020149546"><ele>150.0</ele><time>2026-04-28T17:14:10.002Z</time></trkpt><trkpt lat="45.58359153739406" lon="10.135254992903295"><ele>150.0</ele><time>2026-04-28T17:14:13.002Z</time></trkpt><trkpt lat="45.58355892494909" lon="10.135353543130716"><ele>150.0</ele><time>2026-04-28T17:14:16.002Z</time></trkpt><trkpt lat="45.58352143634674" lon="10.1354435836182"><ele>150.0</ele><time>2026-04-28T17:14:19.002Z</time></trkpt><trkpt lat="45.583501710926974" lon="10.135535058479102"><ele>149.99999999999997</ele><time>2026-04-28T17:14:22.002Z</time></trkpt><trkpt lat="45.58348215338229" lon="10.13562965984117"><ele>150.0</ele><time>2026-04-28T17:14:25.002Z</time></trkpt><trkpt lat="45.58345734996845" lon="10.135716674925655"><ele>149.85714285714283</ele><time>2026-04-28T17:14:28.002Z</time></trkpt><trkpt lat="45.58344086727797" lon="10.135817869381544"><ele>149.71428571428572</ele><time>2026-04-28T17:14:31.002Z</time></trkpt><trkpt lat="45.583430306880246" lon="10.135920142139794"><ele>149.57142857142856</ele><time>2026-04-28T17:14:34.002Z</time></trkpt><trkpt lat="45.583419970337" lon="10.136025663368862"><ele>149.42857142857142</ele><time>2026-04-28T17:14:37.002Z</time></trkpt><trkpt lat="45.58340049319288" lon="10.136122796733243"><ele>149.28571428571428</ele><time>2026-04-28T17:14:40.002Z</time></trkpt><trkpt lat="45.58339983638153" lon="10.136234757101956"><ele>149.14285714285714</ele><time>2026-04-28T17:14:43.002Z</time></trkpt><trkpt lat="45.583384114528016" lon="10.13633616611319"><ele>149.0</ele><time>2026-04-28T17:14:46.002Z</time></trkpt><trkpt lat="45.58337062743269" lon="10.136439110456983"><ele>149.0</ele><time>2026-04-28T17:14:49.002Z</time></trkpt><trkpt lat="45.58336632883384" lon="10.136543972066814"><ele>149.0</ele><time>2026-04-28T17:14:52.002Z</time></trkpt><trkpt lat="45.58335352209385" lon="10.136634579874478"><ele>149.0</ele><time>2026-04-28T17:14:55.002Z</time></trkpt><trkpt lat="45.58334377936564" lon="10.136729442135021"><ele>149.0</ele><time>2026-04-28T17:14:58.002Z</time></trkpt><trkpt lat="45.583325805339285" lon="10.136819102814549"><ele>149.0</ele><time>2026-04-28T17:15:01.002Z</time></trkpt><trkpt lat="45.58329550586753" lon="10.13690733559204"><ele>149.0</ele><time>2026-04-28T17:15:04.002Z</time></trkpt><trkpt lat="45.58326299608526" lon="10.13699431153884"><ele>149.0</ele><time>2026-04-28T17:15:07.002Z</time></trkpt><trkpt lat="45.5832457767612" lon="10.137091220898451"><ele>148.83333333333331</ele><time>2026-04-28T17:15:10.002Z</time></trkpt><trkpt lat="45.583210608910434" lon="10.137179285840402"><ele>148.66666666666666</ele><time>2026-04-28T17:15:13.002Z</time></trkpt><trkpt lat="45.583169216813396" lon="10.13727240110962"><ele>148.5</ele><time>2026-04-28T17:15:16.002Z</time></trkpt><trkpt lat="45.58313401876171" lon="10.137371239522928"><ele>148.33333333333334</ele><time>2026-04-28T17:15:19.002Z</time></trkpt><trkpt lat="45.583114273868745" lon="10.137491121933364"><ele>148.16666666666669</ele><time>2026-04-28T17:15:22.002Z</time></trkpt><trkpt lat="45.583073515092764" lon="10.137609703797203"><ele>148.0</ele><time>2026-04-28T17:15:25.002Z</time></trkpt><trkpt lat="45.583041069756625" lon="10.137733885748926"><ele>148.0</ele><time>2026-04-28T17:15:28.002Z</time></trkpt><trkpt lat="45.58300091521669" lon="10.13785434893687"><ele>148.0</ele><time>2026-04-28T17:15:31.002Z</time></trkpt><trkpt lat="45.582960025312964" lon="10.137970473047282"><ele>148.0</ele><time>2026-04-28T17:15:34.002Z</time></trkpt><trkpt lat="45.58290974544308" lon="10.138071015473248"><ele>148.0</ele><time>2026-04-28T17:15:37.003Z</time></trkpt><trkpt lat="45.58286425692268" lon="10.138172397325102"><ele>148.0</ele><time>2026-04-28T17:15:40.003Z</time></trkpt><trkpt lat="45.58281860590904" lon="10.138265130714315"><ele>148.0</ele><time>2026-04-28T17:15:43.003Z</time></trkpt><trkpt lat="45.58277865807936" lon="10.138363927400492"><ele>147.85714285714286</ele><time>2026-04-28T17:15:46.003Z</time></trkpt><trkpt lat="45.582733584461806" lon="10.138451270510723"><ele>147.71428571428572</ele><time>2026-04-28T17:15:49.003Z</time></trkpt><trkpt lat="45.582699028578375" lon="10.138533583302705"><ele>147.57142857142856</ele><time>2026-04-28T17:15:52.003Z</time></trkpt><trkpt lat="45.58265519566417" lon="10.138609248154134"><ele>147.42857142857144</ele><time>2026-04-28T17:15:55.003Z</time></trkpt><trkpt lat="45.5826164555508" lon="10.138718680186402"><ele>147.28571428571428</ele><time>2026-04-28T17:15:58.003Z</time></trkpt><trkpt lat="45.58258294632409" lon="10.13881629177446"><ele>147.14285714285714</ele><time>2026-04-28T17:16:01.003Z</time></trkpt><trkpt lat="45.58256400960566" lon="10.138904051209323"><ele>147.0</ele><time>2026-04-28T17:16:03.003Z</time></trkpt><trkpt lat="45.5825285094332" lon="10.139006378707371"><ele>147.16666666666666</ele><time>2026-04-28T17:16:06.002Z</time></trkpt><trkpt lat="45.58251156588001" lon="10.139123970789681"><ele>147.33333333333334</ele><time>2026-04-28T17:16:09.003Z</time></trkpt><trkpt lat="45.58247763498293" lon="10.139236240075357"><ele>147.5</ele><time>2026-04-28T17:16:12.002Z</time></trkpt><trkpt lat="45.58245283969816" lon="10.139371778598871"><ele>147.66666666666669</ele><time>2026-04-28T17:16:15.003Z</time></trkpt><trkpt lat="45.58243594635574" lon="10.139461802510908"><ele>147.83333333333334</ele><time>2026-04-28T17:16:17.003Z</time></trkpt><trkpt lat="45.58241708713652" lon="10.139582760508851"><ele>148.0</ele><time>2026-04-28T17:16:20.003Z</time></trkpt><trkpt lat="45.582399503130034" lon="10.139709522126083"><ele>148.0</ele><time>2026-04-28T17:16:23.003Z</time></trkpt><trkpt lat="45.58237064793993" lon="10.139821390876465"><ele>148.0</ele><time>2026-04-28T17:16:26.003Z</time></trkpt><trkpt lat="45.58235461798065" lon="10.13993257839212"><ele>148.0</ele><time>2026-04-28T17:16:29.003Z</time></trkpt><trkpt lat="45.58233260656446" lon="10.140052231574645"><ele>148.0</ele><time>2026-04-28T17:16:32.003Z</time></trkpt><trkpt lat="45.58231953022949" lon="10.14017479829103"><ele>148.0</ele><time>2026-04-28T17:16:35.003Z</time></trkpt><trkpt lat="45.58230114299887" lon="10.140282678300728"><ele>148.0</ele><time>2026-04-28T17:16:38.003Z</time></trkpt><trkpt lat="45.582282107053864" lon="10.14039809210076"><ele>148.0</ele><time>2026-04-28T17:16:41.003Z</time></trkpt><trkpt lat="45.58225860547911" lon="10.140513297772067"><ele>148.0</ele><time>2026-04-28T17:16:44.003Z</time></trkpt><trkpt lat="45.58223271816468" lon="10.140627552648043"><ele>148.0</ele><time>2026-04-28T17:16:47.003Z</time></trkpt><trkpt lat="45.58221353371054" lon="10.140743980019652"><ele>148.0</ele><time>2026-04-28T17:16:50.003Z</time></trkpt><trkpt lat="45.58220620269137" lon="10.140853296415989"><ele>148.0</ele><time>2026-04-28T17:16:53.003Z</time></trkpt><trkpt lat="45.58218079832527" lon="10.140963153707665"><ele>148.0</ele><time>2026-04-28T17:16:56.003Z</time></trkpt><trkpt lat="45.582167092284166" lon="10.141075237460734"><ele>148.0</ele><time>2026-04-28T17:16:59.003Z</time></trkpt><trkpt lat="45.582161988154525" lon="10.141185060449946"><ele>148.0</ele><time>2026-04-28T17:17:02.003Z</time></trkpt><trkpt lat="45.58216462279193" lon="10.141290716727504"><ele>148.0</ele><time>2026-04-28T17:17:05.003Z</time></trkpt><trkpt lat="45.58215712467373" lon="10.14138786478412"><ele>148.0</ele><time>2026-04-28T17:17:08.003Z</time></trkpt><trkpt lat="45.58215204894418" lon="10.141506235648642"><ele>148.0</ele><time>2026-04-28T17:17:11.003Z</time></trkpt><trkpt lat="45.582157424780426" lon="10.141622820423486"><ele>148.0</ele><time>2026-04-28T17:17:14.003Z</time></trkpt><trkpt lat="45.58215690295567" lon="10.141740929048957"><ele>147.85714285714286</ele><time>2026-04-28T17:17:17.003Z</time></trkpt><trkpt lat="45.58215680576268" lon="10.141840985801316"><ele>147.71428571428572</ele><time>2026-04-28T17:17:20.003Z</time></trkpt><trkpt lat="45.58216452816674" lon="10.141931263551658"><ele>147.57142857142856</ele><time>2026-04-28T17:17:23.003Z</time></trkpt><trkpt lat="45.582166874675636" lon="10.142027612599097"><ele>147.42857142857144</ele><time>2026-04-28T17:17:26.003Z</time></trkpt><trkpt lat="45.58216872401053" lon="10.142121207769886"><ele>147.28571428571428</ele><time>2026-04-28T17:17:29.003Z</time></trkpt><trkpt lat="45.58216161441178" lon="10.142225712940443"><ele>147.14285714285714</ele><time>2026-04-28T17:17:32.003Z</time></trkpt><trkpt lat="45.58215998581865" lon="10.142334201422349"><ele>147.0</ele><time>2026-04-28T17:17:35.003Z</time></trkpt><trkpt lat="45.582155373626385" lon="10.14245419227378"><ele>146.83333333333334</ele><time>2026-04-28T17:17:38.003Z</time></trkpt><trkpt lat="45.582136180212665" lon="10.142576104614117"><ele>146.66666666666666</ele><time>2026-04-28T17:17:41.003Z</time></trkpt><trkpt lat="45.58211143615136" lon="10.142694424561158"><ele>146.5</ele><time>2026-04-28T17:17:44.003Z</time></trkpt><trkpt lat="45.58210067825259" lon="10.142819195077061"><ele>146.33333333333331</ele><time>2026-04-28T17:17:47.003Z</time></trkpt><trkpt lat="45.58209326906367" lon="10.142931480559982"><ele>146.16666666666666</ele><time>2026-04-28T17:17:50.003Z</time></trkpt><trkpt lat="45.582087320229775" lon="10.143053621555094"><ele>146.0</ele><time>2026-04-28T17:17:53.003Z</time></trkpt><trkpt lat="45.58206517411136" lon="10.143169792429363"><ele>145.66666666666666</ele><time>2026-04-28T17:17:56.003Z</time></trkpt><trkpt lat="45.582052876733634" lon="10.143286239426942"><ele>145.33333333333331</ele><time>2026-04-28T17:17:59.003Z</time></trkpt><trkpt lat="45.582036151948294" lon="10.14339240502167"><ele>145.0</ele><time>2026-04-28T17:18:02.004Z</time></trkpt><trkpt lat="45.582015256647054" lon="10.143503422499217"><ele>144.66666666666666</ele><time>2026-04-28T17:18:05.004Z</time></trkpt><trkpt lat="45.58199142690026" lon="10.143618542905116"><ele>144.33333333333334</ele><time>2026-04-28T17:18:08.002Z</time></trkpt><trkpt lat="45.581954407247814" lon="10.1437227099699"><ele>144.0</ele><time>2026-04-28T17:18:11.003Z</time></trkpt><trkpt lat="45.58195521358856" lon="10.143815429136762"><ele>144.00000000000003</ele><time>2026-04-28T17:18:14.002Z</time></trkpt><trkpt lat="45.58195726347554" lon="10.143908385402119"><ele>144.0</ele><time>2026-04-28T17:18:17.002Z</time></trkpt><trkpt lat="45.581966016316414" lon="10.144001784571666"><ele>144.0</ele><time>2026-04-28T17:18:20.002Z</time></trkpt><trkpt lat="45.58197878779016" lon="10.14410012827064"><ele>144.0</ele><time>2026-04-28T17:18:23.002Z</time></trkpt><trkpt lat="45.58198617239602" lon="10.1442137791456"><ele>144.0</ele><time>2026-04-28T17:18:26.002Z</time></trkpt><trkpt lat="45.58200239260338" lon="10.144335206632755"><ele>144.00000000000003</ele><time>2026-04-28T17:18:29.002Z</time></trkpt><trkpt lat="45.58200819431817" lon="10.1444464160164"><ele>144.0</ele><time>2026-04-28T17:18:32.002Z</time></trkpt><trkpt lat="45.5819995288473" lon="10.144556504378533"><ele>144.0</ele><time>2026-04-28T17:18:35.002Z</time></trkpt><trkpt lat="45.58201340567274" lon="10.14467184027843"><ele>144.0</ele><time>2026-04-28T17:18:38.002Z</time></trkpt><trkpt lat="45.58202611140359" lon="10.144789778893456"><ele>144.0</ele><time>2026-04-28T17:18:41.002Z</time></trkpt><trkpt lat="45.58203459329069" lon="10.144902842449797"><ele>144.0</ele><time>2026-04-28T17:18:44.002Z</time></trkpt><trkpt lat="45.58203449890096" lon="10.145010574641173"><ele>144.0</ele><time>2026-04-28T17:18:47.002Z</time></trkpt><trkpt lat="45.58204266040257" lon="10.145120956720051"><ele>144.0</ele><time>2026-04-28T17:18:50.002Z</time></trkpt><trkpt lat="45.582041516431694" lon="10.145240951632243"><ele>144.42857142857144</ele><time>2026-04-28T17:18:53.002Z</time></trkpt><trkpt lat="45.582016393952415" lon="10.14533505600591"><ele>144.85714285714286</ele><time>2026-04-28T17:18:56.002Z</time></trkpt><trkpt lat="45.5820168838637" lon="10.145455102903618"><ele>145.28571428571428</ele><time>2026-04-28T17:18:59.002Z</time></trkpt><trkpt lat="45.58208001573929" lon="10.145544965589878"><ele>145.71428571428572</ele><time>2026-04-28T17:19:02.002Z</time></trkpt><trkpt lat="45.58214035849765" lon="10.145606664332146"><ele>146.14285714285714</ele><time>2026-04-28T17:19:05.003Z</time></trkpt><trkpt lat="45.58217204275625" lon="10.145686688413516"><ele>146.57142857142858</ele><time>2026-04-28T17:19:08.003Z</time></trkpt><trkpt lat="45.58221983776978" lon="10.145748544522789"><ele>147.0</ele><time>2026-04-28T17:19:11.003Z</time></trkpt><trkpt lat="45.58223393441493" lon="10.145840466461122"><ele>147.0</ele><time>2026-04-28T17:19:14.003Z</time></trkpt><trkpt lat="45.58224512843987" lon="10.145958260553869"><ele>147.0</ele><time>2026-04-28T17:19:18.003Z</time></trkpt><trkpt lat="45.582256142418586" lon="10.146075897569453"><ele>147.0</ele><time>2026-04-28T17:19:22.003Z</time></trkpt><trkpt lat="45.58226281342412" lon="10.146166427264337"><ele>147.0</ele><time>2026-04-28T17:19:25.003Z</time></trkpt><trkpt lat="45.58226934994958" lon="10.146273869570411"><ele>147.0</ele><time>2026-04-28T17:19:28.003Z</time></trkpt><trkpt lat="45.58227952654915" lon="10.146371864878462"><ele>147.0</ele><time>2026-04-28T17:19:31.003Z</time></trkpt><trkpt lat="45.58228704527367" lon="10.146480822747659"><ele>146.83333333333334</ele><time>2026-04-28T17:19:34.003Z</time></trkpt><trkpt lat="45.58227994586056" lon="10.146571243411577"><ele>146.66666666666666</ele><time>2026-04-28T17:19:36.003Z</time></trkpt><trkpt lat="45.58227354851563" lon="10.146683753015026"><ele>146.5</ele><time>2026-04-28T17:19:39.003Z</time></trkpt><trkpt lat="45.58226443168607" lon="10.146793923160148"><ele>146.33333333333331</ele><time>2026-04-28T17:19:42.003Z</time></trkpt><trkpt lat="45.582282134423046" lon="10.146913951048276"><ele>146.16666666666666</ele><time>2026-04-28T17:19:45.003Z</time></trkpt><trkpt lat="45.58229887693694" lon="10.147027201923517"><ele>146.0</ele><time>2026-04-28T17:19:48.003Z</time></trkpt><trkpt lat="45.58230315143478" lon="10.147146891034344"><ele>146.0</ele><time>2026-04-28T17:19:51.003Z</time></trkpt><trkpt lat="45.582298241624095" lon="10.147264978808536"><ele>146.0</ele><time>2026-04-28T17:19:54.003Z</time></trkpt><trkpt lat="45.58222014259844" lon="10.147277064786767"><ele>146.0</ele><time>2026-04-28T17:19:56.003Z</time></trkpt><trkpt lat="45.58214790795011" lon="10.147282179477488"><ele>146.0</ele><time>2026-04-28T17:19:59.003Z</time></trkpt><trkpt lat="45.582075253225455" lon="10.147285729239167"><ele>146.0</ele><time>2026-04-28T17:20:02.003Z</time></trkpt><trkpt lat="45.58199982374481" lon="10.147279576999185"><ele>146.0</ele><time>2026-04-28T17:20:05.003Z</time></trkpt><trkpt lat="45.58192353806595" lon="10.147289081928124"><ele>146.0</ele><time>2026-04-28T17:20:08.003Z</time></trkpt><trkpt lat="45.581890912143976" lon="10.14736741340233"><ele>146.0</ele><time>2026-04-28T17:20:10.003Z</time></trkpt><trkpt lat="45.58188972016787" lon="10.147483543642334"><ele>146.0</ele><time>2026-04-28T17:20:13.003Z</time></trkpt><trkpt lat="45.581879531423226" lon="10.14759104670969"><ele>146.0</ele><time>2026-04-28T17:20:16.003Z</time></trkpt><trkpt lat="45.58186246358126" lon="10.147691860547502"><ele>146.0</ele><time>2026-04-28T17:20:19.002Z</time></trkpt><trkpt lat="45.58183990203167" lon="10.147795518800738"><ele>146.0</ele><time>2026-04-28T17:20:22.002Z</time></trkpt><trkpt lat="45.58183519863056" lon="10.147913971985863"><ele>146.0</ele><time>2026-04-28T17:20:25.003Z</time></trkpt><trkpt lat="45.58182626997383" lon="10.148025326851485"><ele>146.0</ele><time>2026-04-28T17:20:28.003Z</time></trkpt><trkpt lat="45.58181745269681" lon="10.148135386255573"><ele>146.0</ele><time>2026-04-28T17:20:31.003Z</time></trkpt><trkpt lat="45.58180432945997" lon="10.148242113982498"><ele>146.0</ele><time>2026-04-28T17:20:34.003Z</time></trkpt><trkpt lat="45.5817949864485" lon="10.148352115195408"><ele>146.0</ele><time>2026-04-28T17:20:37.003Z</time></trkpt><trkpt lat="45.5817933260695" lon="10.148471045909472"><ele>146.0</ele><time>2026-04-28T17:20:40.003Z</time></trkpt><trkpt lat="45.581804451543" lon="10.148589997462008"><ele>146.0</ele><time>2026-04-28T17:20:43.003Z</time></trkpt><trkpt lat="45.58180045713579" lon="10.148705578441383"><ele>146.0</ele><time>2026-04-28T17:20:46.003Z</time></trkpt><trkpt lat="45.58181120127474" lon="10.14882683159457"><ele>146.0</ele><time>2026-04-28T17:20:49.003Z</time></trkpt><trkpt lat="45.58179229583366" lon="10.14894218068781"><ele>146.0</ele><time>2026-04-28T17:20:52.003Z</time></trkpt><trkpt lat="45.58179468393221" lon="10.149053302553156"><ele>146.0</ele><time>2026-04-28T17:20:55.004Z</time></trkpt><trkpt lat="45.581795291418466" lon="10.149164849746597"><ele>146.0</ele><time>2026-04-28T17:20:58.004Z</time></trkpt><trkpt lat="45.58180717609218" lon="10.149283722362837"><ele>146.16666666666666</ele><time>2026-04-28T17:21:01.004Z</time></trkpt><trkpt lat="45.58179443645452" lon="10.14939983878882"><ele>146.33333333333331</ele><time>2026-04-28T17:21:04.004Z</time></trkpt><trkpt lat="45.581790700040514" lon="10.149511784344107"><ele>146.5</ele><time>2026-04-28T17:21:07.004Z</time></trkpt><trkpt lat="45.58178951956495" lon="10.149623942202966"><ele>146.66666666666666</ele><time>2026-04-28T17:21:10.004Z</time></trkpt><trkpt lat="45.58178539386733" lon="10.149726929717355"><ele>146.83333333333334</ele><time>2026-04-28T17:21:13.004Z</time></trkpt><trkpt lat="45.58177497150822" lon="10.149832799111998"><ele>147.0</ele><time>2026-04-28T17:21:16.004Z</time></trkpt><trkpt lat="45.58178125646275" lon="10.149956704071501"><ele>147.16666666666666</ele><time>2026-04-28T17:21:19.004Z</time></trkpt><trkpt lat="45.58178431293282" lon="10.150078351979714"><ele>147.33333333333334</ele><time>2026-04-28T17:21:22.004Z</time></trkpt><trkpt lat="45.58179573445777" lon="10.150195419471265"><ele>147.5</ele><time>2026-04-28T17:21:25.004Z</time></trkpt><trkpt lat="45.58184319979546" lon="10.150296707957313"><ele>147.66666666666669</ele><time>2026-04-28T17:21:28.004Z</time></trkpt><trkpt lat="45.581893617374966" lon="10.15035216917106"><ele>147.83333333333334</ele><time>2026-04-28T17:21:30.004Z</time></trkpt><trkpt lat="45.581946602697926" lon="10.15044081777995"><ele>148.0</ele><time>2026-04-28T17:21:33.004Z</time></trkpt><trkpt lat="45.58199839289973" lon="10.150528812301735"><ele>148.66666666666669</ele><time>2026-04-28T17:21:36.004Z</time></trkpt><trkpt lat="45.58205717769967" lon="10.15060779104057"><ele>149.33333333333334</ele><time>2026-04-28T17:21:39.004Z</time></trkpt><trkpt lat="45.582097245050335" lon="10.150712362277442"><ele>150.0</ele><time>2026-04-28T17:21:42.004Z</time></trkpt><trkpt lat="45.582153835280266" lon="10.15079377141373"><ele>150.66666666666666</ele><time>2026-04-28T17:21:45.004Z</time></trkpt><trkpt lat="45.58221196999605" lon="10.150865618474109"><ele>151.33333333333331</ele><time>2026-04-28T17:21:48.004Z</time></trkpt><trkpt lat="45.58227117429921" lon="10.150935879220544"><ele>152.0</ele><time>2026-04-28T17:21:51.004Z</time></trkpt><trkpt lat="45.582342241906616" lon="10.151004390107039"><ele>152.16666666666666</ele><time>2026-04-28T17:21:54.004Z</time></trkpt><trkpt lat="45.58239715176125" lon="10.151081617765469"><ele>152.33333333333331</ele><time>2026-04-28T17:21:57.004Z</time></trkpt><trkpt lat="45.582463567336646" lon="10.151143333696437"><ele>152.5</ele><time>2026-04-28T17:22:00.004Z</time></trkpt><trkpt lat="45.58252232854379" lon="10.15120850718909"><ele>152.66666666666666</ele><time>2026-04-28T17:22:03.004Z</time></trkpt><trkpt lat="45.5825908340904" lon="10.151267731220054"><ele>152.83333333333334</ele><time>2026-04-28T17:22:06.004Z</time></trkpt><trkpt lat="45.5826676189676" lon="10.151315469434355"><ele>153.0</ele><time>2026-04-28T17:22:09.004Z</time></trkpt><trkpt lat="45.58273896924275" lon="10.151377564369335"><ele>153.0</ele><time>2026-04-28T17:22:13.004Z</time></trkpt><trkpt lat="45.58279846768225" lon="10.151430119963148"><ele>153.0</ele><time>2026-04-28T17:22:16.004Z</time></trkpt><trkpt lat="45.582882022095056" lon="10.15146684568498"><ele>153.0</ele><time>2026-04-28T17:22:19.003Z</time></trkpt><trkpt lat="45.582964848315044" lon="10.151512745209805"><ele>153.0</ele><time>2026-04-28T17:22:22.003Z</time></trkpt><trkpt lat="45.5830273681928" lon="10.151557651183442"><ele>153.0</ele><time>2026-04-28T17:22:25.003Z</time></trkpt><trkpt lat="45.58309729775374" lon="10.15160002541238"><ele>153.0</ele><time>2026-04-28T17:22:28.003Z</time></trkpt><trkpt lat="45.58314198822507" lon="10.151664291348093"><ele>153.5</ele><time>2026-04-28T17:22:31.003Z</time></trkpt><trkpt lat="45.58321234904521" lon="10.151716289663915"><ele>154.0</ele><time>2026-04-28T17:22:34.003Z</time></trkpt><trkpt lat="45.58329620139292" lon="10.15172442984962"><ele>154.5</ele><time>2026-04-28T17:22:37.003Z</time></trkpt><trkpt lat="45.58335952872201" lon="10.151719870840145"><ele>155.0</ele><time>2026-04-28T17:22:39.003Z</time></trkpt><trkpt lat="45.583426057272256" lon="10.1517408824849"><ele>155.5</ele><time>2026-04-28T17:22:41.003Z</time></trkpt><trkpt lat="45.58350556540375" lon="10.151757689195406"><ele>156.0</ele><time>2026-04-28T17:22:44.003Z</time></trkpt><trkpt lat="45.58359005783907" lon="10.15177719998177"><ele>156.0</ele><time>2026-04-28T17:22:47.003Z</time></trkpt><trkpt lat="45.5836699636367" lon="10.151770726380786"><ele>156.0</ele><time>2026-04-28T17:22:50.003Z</time></trkpt><trkpt lat="45.583741086794575" lon="10.151747375719685"><ele>156.0</ele><time>2026-04-28T17:22:53.003Z</time></trkpt><trkpt lat="45.583818918747816" lon="10.151750698320695"><ele>156.0</ele><time>2026-04-28T17:22:56.003Z</time></trkpt><trkpt lat="45.58389592564805" lon="10.151753907293344"><ele>156.0</ele><time>2026-04-28T17:22:59.003Z</time></trkpt><trkpt lat="45.58397165054314" lon="10.151800987515182"><ele>156.0</ele><time>2026-04-28T17:23:02.003Z</time></trkpt><trkpt lat="45.58405265421131" lon="10.151803444850719"><ele>156.0</ele><time>2026-04-28T17:23:05.003Z</time></trkpt><trkpt lat="45.58412477482456" lon="10.15177989658133"><ele>156.0</ele><time>2026-04-28T17:23:08.003Z</time></trkpt><trkpt lat="45.58418810379825" lon="10.151726991519505"><ele>156.0</ele><time>2026-04-28T17:23:11.003Z</time></trkpt><trkpt lat="45.58423579396734" lon="10.15163359097942"><ele>156.0</ele><time>2026-04-28T17:23:14.003Z</time></trkpt><trkpt lat="45.584267714497834" lon="10.151543098381303"><ele>156.0</ele><time>2026-04-28T17:23:17.003Z</time></trkpt><trkpt lat="45.58435988251358" lon="10.15152730191332"><ele>156.0</ele><time>2026-04-28T17:23:20.003Z</time></trkpt><trkpt lat="45.58451168000002" lon="10.151543219991423"><ele>156.16666666666666</ele><time>2026-04-28T17:23:24.003Z</time></trkpt><trkpt lat="45.58458040187513" lon="10.15152986990199"><ele>156.33333333333334</ele><time>2026-04-28T17:23:26.003Z</time></trkpt><trkpt lat="45.584662448582534" lon="10.151486062912051"><ele>156.5</ele><time>2026-04-28T17:23:29.003Z</time></trkpt><trkpt lat="45.58474857597612" lon="10.151472497010763"><ele>156.66666666666669</ele><time>2026-04-28T17:23:32.003Z</time></trkpt><trkpt lat="45.58481103053019" lon="10.151460219502365"><ele>156.83333333333334</ele><time>2026-04-28T17:23:34.003Z</time></trkpt><trkpt lat="45.58488260166518" lon="10.151414951141614"><ele>157.0</ele><time>2026-04-28T17:23:37.003Z</time></trkpt><trkpt lat="45.58513236295138" lon="10.151404416339973"><ele>157.0</ele><time>2026-04-28T17:23:46.003Z</time></trkpt><trkpt lat="45.58521745326598" lon="10.15141461534379"><ele>157.0</ele><time>2026-04-28T17:23:49.003Z</time></trkpt><trkpt lat="45.58529690929068" lon="10.151401962120483"><ele>157.0</ele><time>2026-04-28T17:23:52.003Z</time></trkpt><trkpt lat="45.585383133580784" lon="10.151390624978378"><ele>157.0</ele><time>2026-04-28T17:23:55.003Z</time></trkpt><trkpt lat="45.585459970345084" lon="10.151447858575048"><ele>157.0</ele><time>2026-04-28T17:23:58.003Z</time></trkpt><trkpt lat="45.58553122127211" lon="10.151502160936312"><ele>157.0</ele><time>2026-04-28T17:24:01.003Z</time></trkpt><trkpt lat="45.5856082345831" lon="10.151529125705213"><ele>157.66666666666669</ele><time>2026-04-28T17:24:04.003Z</time></trkpt><trkpt lat="45.58567203611869" lon="10.151576894415365"><ele>158.33333333333334</ele><time>2026-04-28T17:24:07.003Z</time></trkpt><trkpt lat="45.58572371412712" lon="10.151651080197347"><ele>159.0</ele><time>2026-04-28T17:24:10.003Z</time></trkpt><trkpt lat="45.585800220383526" lon="10.15170248712386"><ele>159.66666666666666</ele><time>2026-04-28T17:24:13.003Z</time></trkpt><trkpt lat="45.58587644003641" lon="10.1517355282683"><ele>160.33333333333331</ele><time>2026-04-28T17:24:16.003Z</time></trkpt><trkpt lat="45.585955048643335" lon="10.151761951570455"><ele>161.0</ele><time>2026-04-28T17:24:19.004Z</time></trkpt><trkpt lat="45.58603115773885" lon="10.15178245816751"><ele>161.0</ele><time>2026-04-28T17:24:22.004Z</time></trkpt><trkpt lat="45.58610791997974" lon="10.151798459094353"><ele>161.0</ele><time>2026-04-28T17:24:25.004Z</time></trkpt><trkpt lat="45.5861901822546" lon="10.151777107767483"><ele>161.0</ele><time>2026-04-28T17:24:28.003Z</time></trkpt><trkpt lat="45.58627262788356" lon="10.151745025435588"><ele>161.0</ele><time>2026-04-28T17:24:31.003Z</time></trkpt><trkpt lat="45.58634476125709" lon="10.15169729734241"><ele>161.0</ele><time>2026-04-28T17:24:34.003Z</time></trkpt><trkpt lat="45.58641692878734" lon="10.151697604648156"><ele>161.0</ele><time>2026-04-28T17:24:37.003Z</time></trkpt><trkpt lat="45.586490815648396" lon="10.15172137925079"><ele>161.5</ele><time>2026-04-28T17:24:40.003Z</time></trkpt><trkpt lat="45.586568556086064" lon="10.151703422976393"><ele>162.0</ele><time>2026-04-28T17:24:43.003Z</time></trkpt><trkpt lat="45.586639985682936" lon="10.151686228287051"><ele>162.5</ele><time>2026-04-28T17:24:46.002Z</time></trkpt><trkpt lat="45.58677171485938" lon="10.151675822142677"><ele>163.0</ele><time>2026-04-28T17:24:51Z</time></trkpt><trkpt lat="45.58684221223446" lon="10.151659948299146"><ele>163.5</ele><time>2026-04-28T17:24:54.999Z</time></trkpt><trkpt lat="45.58691553209572" lon="10.151633709202105"><ele>164.0</ele><time>2026-04-28T17:24:57.999Z</time></trkpt><trkpt lat="45.58705797595913" lon="10.151592202733042"><ele>164.5</ele><time>2026-04-28T17:25:02.998Z</time></trkpt><trkpt lat="45.58713617565946" lon="10.151546689939666"><ele>165.0</ele><time>2026-04-28T17:25:05.998Z</time></trkpt><trkpt lat="45.58722867334845" lon="10.151552511696611"><ele>165.5</ele><time>2026-04-28T17:25:08.998Z</time></trkpt><trkpt lat="45.58743176051951" lon="10.151561610772497"><ele>166.0</ele><time>2026-04-28T17:25:15.997Z</time></trkpt><trkpt lat="45.58755856351054" lon="10.151638611513304"><ele>166.0</ele><time>2026-04-28T17:25:20.997Z</time></trkpt><trkpt lat="45.58761172571611" lon="10.151733073010693"><ele>166.0</ele><time>2026-04-28T17:25:22.997Z</time></trkpt><trkpt lat="45.5876884643329" lon="10.15174317160594"><ele>166.0</ele><time>2026-04-28T17:25:25.997Z</time></trkpt><trkpt lat="45.58779257790841" lon="10.151744501838698"><ele>166.0</ele><time>2026-04-28T17:25:29.997Z</time></trkpt><trkpt lat="45.58800949702721" lon="10.151705916755109"><ele>166.0</ele><time>2026-04-28T17:25:37.996Z</time></trkpt><trkpt lat="45.58808610070464" lon="10.151651428582891"><ele>166.0</ele><time>2026-04-28T17:25:40.996Z</time></trkpt><trkpt lat="45.58816852830079" lon="10.151642986879452"><ele>166.0</ele><time>2026-04-28T17:25:43.996Z</time></trkpt><trkpt lat="45.58823549376288" lon="10.151631991946129"><ele>166.0</ele><time>2026-04-28T17:25:46.996Z</time></trkpt><trkpt lat="45.58830949525461" lon="10.151630450102063"><ele>166.0</ele><time>2026-04-28T17:25:49.996Z</time></trkpt><trkpt lat="45.588385142827285" lon="10.151624070388383"><ele>166.0</ele><time>2026-04-28T17:25:52.996Z</time></trkpt><trkpt lat="45.588457472644386" lon="10.151563740319832"><ele>166.0</ele><time>2026-04-28T17:25:55.996Z</time></trkpt><trkpt lat="45.58852266057749" lon="10.151521734341578"><ele>166.0</ele><time>2026-04-28T17:25:58.996Z</time></trkpt><trkpt lat="45.58859994002857" lon="10.151539687759186"><ele>166.0</ele><time>2026-04-28T17:26:01.996Z</time></trkpt><trkpt lat="45.58866041318987" lon="10.151628038329507"><ele>166.0</ele><time>2026-04-28T17:26:03.996Z</time></trkpt><trkpt lat="45.58871785482231" lon="10.151689682221683"><ele>166.0</ele><time>2026-04-28T17:26:05.996Z</time></trkpt><trkpt lat="45.58877281616766" lon="10.151733685058437"><ele>166.0</ele><time>2026-04-28T17:26:07.996Z</time></trkpt><trkpt lat="45.58896691337517" lon="10.151679009597798"><ele>166.28571428571428</ele><time>2026-04-28T17:26:15.996Z</time></trkpt><trkpt lat="45.58902793853417" lon="10.15163744115636"><ele>166.57142857142858</ele><time>2026-04-28T17:26:18.996Z</time></trkpt><trkpt lat="45.589072221853" lon="10.151545958608137"><ele>166.85714285714286</ele><time>2026-04-28T17:26:21.996Z</time></trkpt><trkpt lat="45.58907458591386" lon="10.151451875256368"><ele>167.14285714285714</ele><time>2026-04-28T17:26:23.996Z</time></trkpt><trkpt lat="45.58911484607416" lon="10.151354679831492"><ele>167.42857142857144</ele><time>2026-04-28T17:26:26.997Z</time></trkpt><trkpt lat="45.58916022100348" lon="10.151268813014074"><ele>167.71428571428572</ele><time>2026-04-28T17:26:29.996Z</time></trkpt><trkpt lat="45.589206402067006" lon="10.151178670148973"><ele>168.0</ele><time>2026-04-28T17:26:32.996Z</time></trkpt><trkpt lat="45.589250994930936" lon="10.151080049899852"><ele>168.0</ele><time>2026-04-28T17:26:35.996Z</time></trkpt><trkpt lat="45.58930522817167" lon="10.15100057427116"><ele>168.0</ele><time>2026-04-28T17:26:38.996Z</time></trkpt><trkpt lat="45.58935753309123" lon="10.150922323214955"><ele>168.0</ele><time>2026-04-28T17:26:41.996Z</time></trkpt><trkpt lat="45.58938038934274" lon="10.150812054835182"><ele>168.0</ele><time>2026-04-28T17:26:44.996Z</time></trkpt><trkpt lat="45.58942958969264" lon="10.150740278462882"><ele>168.0</ele><time>2026-04-28T17:26:47.996Z</time></trkpt><trkpt lat="45.589469636297665" lon="10.150645010665448"><ele>168.0</ele><time>2026-04-28T17:26:50.996Z</time></trkpt><trkpt lat="45.58951958717384" lon="10.150575330519658"><ele>170.33333333333334</ele><time>2026-04-28T17:26:53.996Z</time></trkpt><trkpt lat="45.58959793872049" lon="10.15058305082783"><ele>172.66666666666666</ele><time>2026-04-28T17:26:56.996Z</time></trkpt><trkpt lat="45.58967612710078" lon="10.150597331354096"><ele>175.0</ele><time>2026-04-28T17:26:59.996Z</time></trkpt><trkpt lat="45.58975459471618" lon="10.150636387751321"><ele>177.33333333333331</ele><time>2026-04-28T17:27:02.996Z</time></trkpt><trkpt lat="45.589794960617496" lon="10.150713937940676"><ele>179.66666666666666</ele><time>2026-04-28T17:27:04.996Z</time></trkpt><trkpt lat="45.58983388783786" lon="10.150786351171208"><ele>182.0</ele><time>2026-04-28T17:27:06.996Z</time></trkpt><trkpt lat="45.589883552627974" lon="10.15088024029097"><ele>182.0</ele><time>2026-04-28T17:27:09.996Z</time></trkpt><trkpt lat="45.58993005217094" lon="10.150964765114262"><ele>182.0</ele><time>2026-04-28T17:27:12.996Z</time></trkpt><trkpt lat="45.589961308714614" lon="10.151058662661148"><ele>182.0</ele><time>2026-04-28T17:27:15.996Z</time></trkpt><trkpt lat="45.58995505716628" lon="10.151151907375402"><ele>182.0</ele><time>2026-04-28T17:27:17.996Z</time></trkpt><trkpt lat="45.58996065026059" lon="10.151266902283979"><ele>182.0</ele><time>2026-04-28T17:27:20.996Z</time></trkpt><trkpt lat="45.59000743333847" lon="10.151356773328981"><ele>182.0</ele><time>2026-04-28T17:27:23.996Z</time></trkpt><trkpt lat="45.59007689280134" lon="10.151419532844717"><ele>182.0</ele><time>2026-04-28T17:27:27.996Z</time></trkpt><trkpt lat="45.59013392785646" lon="10.151460461816152"><ele>182.0</ele><time>2026-04-28T17:27:30.996Z</time></trkpt><trkpt lat="45.590209565124844" lon="10.151521194122237"><ele>182.0</ele><time>2026-04-28T17:27:33.996Z</time></trkpt><trkpt lat="45.590283322721305" lon="10.151585885862952"><ele>182.0</ele><time>2026-04-28T17:27:36.996Z</time></trkpt><trkpt lat="45.59035277672779" lon="10.151642085170202"><ele>182.0</ele><time>2026-04-28T17:27:39.996Z</time></trkpt><trkpt lat="45.59043177731957" lon="10.151683354501275"><ele>182.0</ele><time>2026-04-28T17:27:42.996Z</time></trkpt><trkpt lat="45.59052221594988" lon="10.151701564973846"><ele>182.5</ele><time>2026-04-28T17:27:45.996Z</time></trkpt><trkpt lat="45.59060248419906" lon="10.151724657433526"><ele>183.0</ele><time>2026-04-28T17:27:48.996Z</time></trkpt><trkpt lat="45.590687628604556" lon="10.151763650497161"><ele>183.5</ele><time>2026-04-28T17:27:51.996Z</time></trkpt><trkpt lat="45.5907647529184" lon="10.151793967559419"><ele>184.0</ele><time>2026-04-28T17:27:54.996Z</time></trkpt><trkpt lat="45.590975852171084" lon="10.151805783849746"><ele>184.0</ele><time>2026-04-28T17:28:02.997Z</time></trkpt><trkpt lat="45.59102692838722" lon="10.15186107703538"><ele>184.0</ele><time>2026-04-28T17:28:04.997Z</time></trkpt><trkpt lat="45.59110935398337" lon="10.151879744917695"><ele>184.0</ele><time>2026-04-28T17:28:07.997Z</time></trkpt><trkpt lat="45.59118797578017" lon="10.151888788472517"><ele>184.0</ele><time>2026-04-28T17:28:10.997Z</time></trkpt><trkpt lat="45.59126815275451" lon="10.15188725095675"><ele>184.0</ele><time>2026-04-28T17:28:13.997Z</time></trkpt><trkpt lat="45.591352213148646" lon="10.15190611253199"><ele>184.0</ele><time>2026-04-28T17:28:16.997Z</time></trkpt><trkpt lat="45.59143839264631" lon="10.151921158339837"><ele>184.5</ele><time>2026-04-28T17:28:19.997Z</time></trkpt><trkpt lat="45.59152836280926" lon="10.15193775830814"><ele>185.0</ele><time>2026-04-28T17:28:22.997Z</time></trkpt><trkpt lat="45.591617603073935" lon="10.15196986990795"><ele>185.5</ele><time>2026-04-28T17:28:25.997Z</time></trkpt><trkpt lat="45.59166269959657" lon="10.152051823212098"><ele>186.0</ele><time>2026-04-28T17:28:27.997Z</time></trkpt><trkpt lat="45.591739524634185" lon="10.15211576258182"><ele>186.5</ele><time>2026-04-28T17:28:30.997Z</time></trkpt><trkpt lat="45.591817477681914" lon="10.15215386015961"><ele>187.0</ele><time>2026-04-28T17:28:33.997Z</time></trkpt><trkpt lat="45.591878742026005" lon="10.152226320538682"><ele>187.0</ele><time>2026-04-28T17:28:36.997Z</time></trkpt><trkpt lat="45.59194734405241" lon="10.152269761024856"><ele>187.0</ele><time>2026-04-28T17:28:39.996Z</time></trkpt><trkpt lat="45.59203747272518" lon="10.152280805551014"><ele>187.0</ele><time>2026-04-28T17:28:42.996Z</time></trkpt><trkpt lat="45.5921201069809" lon="10.1522722083681"><ele>187.0</ele><time>2026-04-28T17:28:45.996Z</time></trkpt><trkpt lat="45.592198723552464" lon="10.152285662586388"><ele>187.0</ele><time>2026-04-28T17:28:48.996Z</time></trkpt><trkpt lat="45.5922392125867" lon="10.152385222076353"><ele>187.0</ele><time>2026-04-28T17:28:50.996Z</time></trkpt><trkpt lat="45.59225741615409" lon="10.152506652160977"><ele>186.0</ele><time>2026-04-28T17:28:53.996Z</time></trkpt><trkpt lat="45.5923352775583" lon="10.152564571287408"><ele>185.0</ele><time>2026-04-28T17:28:56.996Z</time></trkpt><trkpt lat="45.59242434657011" lon="10.152573877023427"><ele>184.0</ele><time>2026-04-28T17:28:59.996Z</time></trkpt><trkpt lat="45.59248755375291" lon="10.152570396458477"><ele>183.0</ele><time>2026-04-28T17:29:01.996Z</time></trkpt><trkpt lat="45.592575499980555" lon="10.152567728942653"><ele>182.0</ele><time>2026-04-28T17:29:04.996Z</time></trkpt><trkpt lat="45.5926620545605" lon="10.152564230709133"><ele>181.0</ele><time>2026-04-28T17:29:07.996Z</time></trkpt><trkpt lat="45.59272932121152" lon="10.152573085741324"><ele>181.0</ele><time>2026-04-28T17:29:09.996Z</time></trkpt><trkpt lat="45.59279244019764" lon="10.15257334470763"><ele>181.0</ele><time>2026-04-28T17:29:11.996Z</time></trkpt><trkpt lat="45.592886457045985" lon="10.1526028816098"><ele>181.0</ele><time>2026-04-28T17:29:14.996Z</time></trkpt><trkpt lat="45.59297705608522" lon="10.152599232393094"><ele>181.0</ele><time>2026-04-28T17:29:17.996Z</time></trkpt><trkpt lat="45.59305695258024" lon="10.152572457051637"><ele>181.0</ele><time>2026-04-28T17:29:20.996Z</time></trkpt><trkpt lat="45.59313921240432" lon="10.152556684570632"><ele>181.0</ele><time>2026-04-28T17:29:23.996Z</time></trkpt><trkpt lat="45.5932196768439" lon="10.152568848915488"><ele>181.0</ele><time>2026-04-28T17:29:26.996Z</time></trkpt><trkpt lat="45.59329056387187" lon="10.152511508994616"><ele>181.0</ele><time>2026-04-28T17:29:29.996Z</time></trkpt><trkpt lat="45.593338265639176" lon="10.152448899629874"><ele>181.0</ele><time>2026-04-28T17:29:31.996Z</time></trkpt><trkpt lat="45.59338532388342" lon="10.152348314866295"><ele>181.0</ele><time>2026-04-28T17:29:34.996Z</time></trkpt><trkpt lat="45.593430383853466" lon="10.152257097491725"><ele>181.0</ele><time>2026-04-28T17:29:37.996Z</time></trkpt><trkpt lat="45.59346353935413" lon="10.152145355717467"><ele>181.0</ele><time>2026-04-28T17:29:41.996Z</time></trkpt><trkpt lat="45.593483115998" lon="10.152008651455436"><ele>180.83333333333334</ele><time>2026-04-28T17:29:44.996Z</time></trkpt><trkpt lat="45.5934817170499" lon="10.151873541978954"><ele>180.66666666666669</ele><time>2026-04-28T17:29:47.996Z</time></trkpt><trkpt lat="45.593470501093506" lon="10.151751723927005"><ele>180.5</ele><time>2026-04-28T17:29:50.996Z</time></trkpt><trkpt lat="45.593507815483065" lon="10.15166309275369"><ele>180.33333333333334</ele><time>2026-04-28T17:29:52.996Z</time></trkpt><trkpt lat="45.593552776898214" lon="10.151571521113908"><ele>180.16666666666666</ele><time>2026-04-28T17:29:55.996Z</time></trkpt><trkpt lat="45.59355746214971" lon="10.15144725772118"><ele>180.0</ele><time>2026-04-28T17:29:58.996Z</time></trkpt><trkpt lat="45.59357365221341" lon="10.151331283699937"><ele>180.0</ele><time>2026-04-28T17:30:01.996Z</time></trkpt><trkpt lat="45.59359624540338" lon="10.151211010053833"><ele>180.0</ele><time>2026-04-28T17:30:04.996Z</time></trkpt><trkpt lat="45.593627447192205" lon="10.1510968690234"><ele>180.0</ele><time>2026-04-28T17:30:07.996Z</time></trkpt><trkpt lat="45.59365881137106" lon="10.150982836649208"><ele>180.0</ele><time>2026-04-28T17:30:10.996Z</time></trkpt><trkpt lat="45.59370055660945" lon="10.150883327358645"><ele>180.0</ele><time>2026-04-28T17:30:13.996Z</time></trkpt><trkpt lat="45.59373134685497" lon="10.15076833079238"><ele>180.0</ele><time>2026-04-28T17:30:16.996Z</time></trkpt><trkpt lat="45.593753178013074" lon="10.1506601817776"><ele>180.33333333333334</ele><time>2026-04-28T17:30:19.996Z</time></trkpt><trkpt lat="45.593787525340325" lon="10.150551473125084"><ele>180.66666666666666</ele><time>2026-04-28T17:30:22.996Z</time></trkpt><trkpt lat="45.59380406889067" lon="10.15043848455301"><ele>181.0</ele><time>2026-04-28T17:30:25.996Z</time></trkpt><trkpt lat="45.59382544956757" lon="10.150330039007475"><ele>181.33333333333331</ele><time>2026-04-28T17:30:28.996Z</time></trkpt><trkpt lat="45.59384982224092" lon="10.150218714294807"><ele>181.66666666666666</ele><time>2026-04-28T17:30:31.996Z</time></trkpt><trkpt lat="45.59387412300705" lon="10.150124469478744"><ele>182.0</ele><time>2026-04-28T17:30:34.996Z</time></trkpt><trkpt lat="45.59390361262796" lon="10.150024111948781"><ele>182.0</ele><time>2026-04-28T17:30:37.996Z</time></trkpt><trkpt lat="45.59392994307185" lon="10.149919815381402"><ele>182.0</ele><time>2026-04-28T17:30:40.996Z</time></trkpt><trkpt lat="45.59394818699431" lon="10.149814128010522"><ele>182.0</ele><time>2026-04-28T17:30:43.997Z</time></trkpt><trkpt lat="45.593987853034896" lon="10.149699178047884"><ele>182.0</ele><time>2026-04-28T17:30:46.996Z</time></trkpt><trkpt lat="45.59401743202952" lon="10.149593945511915"><ele>182.0</ele><time>2026-04-28T17:30:49.996Z</time></trkpt><trkpt lat="45.594057751176805" lon="10.149496045768913"><ele>182.0</ele><time>2026-04-28T17:30:52.996Z</time></trkpt><trkpt lat="45.59409488924262" lon="10.149390324544125"><ele>182.33333333333331</ele><time>2026-04-28T17:30:55.996Z</time></trkpt><trkpt lat="45.59414804343125" lon="10.1492934905248"><ele>182.66666666666666</ele><time>2026-04-28T17:30:58.996Z</time></trkpt><trkpt lat="45.59420558290777" lon="10.14921694423274"><ele>183.0</ele><time>2026-04-28T17:31:01.996Z</time></trkpt><trkpt lat="45.59424820877648" lon="10.149120296664144"><ele>183.33333333333334</ele><time>2026-04-28T17:31:04.996Z</time></trkpt><trkpt lat="45.59427780446268" lon="10.149013369274568"><ele>183.66666666666669</ele><time>2026-04-28T17:31:07.996Z</time></trkpt><trkpt lat="45.59430501770069" lon="10.148904839871465"><ele>184.0</ele><time>2026-04-28T17:31:10.996Z</time></trkpt><trkpt lat="45.594317045155826" lon="10.148799068230634"><ele>184.33333333333334</ele><time>2026-04-28T17:31:13.996Z</time></trkpt><trkpt lat="45.59432600326584" lon="10.148698400384852"><ele>184.66666666666669</ele><time>2026-04-28T17:31:16.996Z</time></trkpt><trkpt lat="45.594333622824024" lon="10.148594359578743"><ele>185.0</ele><time>2026-04-28T17:31:19.996Z</time></trkpt><trkpt lat="45.59432487752485" lon="10.148475858624556"><ele>185.33333333333334</ele><time>2026-04-28T17:31:22.996Z</time></trkpt><trkpt lat="45.594324214583025" lon="10.148381736639056"><ele>185.66666666666666</ele><time>2026-04-28T17:31:24.996Z</time></trkpt><trkpt lat="45.594330126020246" lon="10.148253907321404"><ele>186.0</ele><time>2026-04-28T17:31:27.997Z</time></trkpt><trkpt lat="45.59434249588782" lon="10.148130682087762"><ele>186.83333333333334</ele><time>2026-04-28T17:31:30.997Z</time></trkpt><trkpt lat="45.59435751354498" lon="10.148007506121347"><ele>187.66666666666666</ele><time>2026-04-28T17:31:33.997Z</time></trkpt><trkpt lat="45.59436625802556" lon="10.147894080110236"><ele>188.5</ele><time>2026-04-28T17:31:36.997Z</time></trkpt><trkpt lat="45.59436585323292" lon="10.147770995831989"><ele>189.33333333333331</ele><time>2026-04-28T17:31:39.997Z</time></trkpt><trkpt lat="45.59438320803006" lon="10.147661826632168"><ele>190.16666666666666</ele><time>2026-04-28T17:31:42.997Z</time></trkpt><trkpt lat="45.59438959909548" lon="10.14753558220508"><ele>191.0</ele><time>2026-04-28T17:31:45.997Z</time></trkpt><trkpt lat="45.594403317725565" lon="10.147421914989934"><ele>191.0</ele><time>2026-04-28T17:31:48.997Z</time></trkpt><trkpt lat="45.594433822617276" lon="10.147307721872089"><ele>191.0</ele><time>2026-04-28T17:31:51.997Z</time></trkpt><trkpt lat="45.594522055691286" lon="10.14729402823961"><ele>191.0</ele><time>2026-04-28T17:31:54.997Z</time></trkpt><trkpt lat="45.59459050136213" lon="10.147305206059162"><ele>191.0</ele><time>2026-04-28T17:31:57.997Z</time></trkpt><trkpt lat="45.59466877867907" lon="10.147319199378469"><ele>191.0</ele><time>2026-04-28T17:32:00.997Z</time></trkpt><trkpt lat="45.59474834019351" lon="10.147339278340649"><ele>191.0</ele><time>2026-04-28T17:32:03.997Z</time></trkpt><trkpt lat="45.59482334400484" lon="10.147350637873528"><ele>189.83333333333331</ele><time>2026-04-28T17:32:06.997Z</time></trkpt><trkpt lat="45.59489422332712" lon="10.147373560726866"><ele>188.66666666666666</ele><time>2026-04-28T17:32:09.997Z</time></trkpt><trkpt lat="45.59496931510325" lon="10.147391235688614"><ele>187.5</ele><time>2026-04-28T17:32:12.997Z</time></trkpt><trkpt lat="45.59504692409193" lon="10.147397694829332"><ele>186.33333333333334</ele><time>2026-04-28T17:32:15.997Z</time></trkpt><trkpt lat="45.59512357897242" lon="10.147414556464238"><ele>185.16666666666669</ele><time>2026-04-28T17:32:18.997Z</time></trkpt><trkpt lat="45.59520171320769" lon="10.147369607217575"><ele>184.0</ele><time>2026-04-28T17:32:21.997Z</time></trkpt><trkpt lat="45.59524779982192" lon="10.147268988186065"><ele>183.66666666666669</ele><time>2026-04-28T17:32:24.997Z</time></trkpt><trkpt lat="45.59524814997145" lon="10.147156136256248"><ele>183.33333333333334</ele><time>2026-04-28T17:32:27.997Z</time></trkpt><trkpt lat="45.59524086634507" lon="10.14705057867149"><ele>183.0</ele><time>2026-04-28T17:32:30.997Z</time></trkpt><trkpt lat="45.59523393999413" lon="10.146928419505068"><ele>182.66666666666666</ele><time>2026-04-28T17:32:33.997Z</time></trkpt><trkpt lat="45.5952331688389" lon="10.146815184930777"><ele>182.33333333333331</ele><time>2026-04-28T17:32:36.997Z</time></trkpt><trkpt lat="45.595209387339146" lon="10.146695397151097"><ele>182.0</ele><time>2026-04-28T17:32:39.997Z</time></trkpt><trkpt lat="45.59521222397724" lon="10.146574665668991"><ele>181.0</ele><time>2026-04-28T17:32:42.997Z</time></trkpt><trkpt lat="45.59521660534532" lon="10.14645646235141"><ele>180.0</ele><time>2026-04-28T17:32:45.997Z</time></trkpt><trkpt lat="45.595207737576764" lon="10.14633555269306"><ele>179.0</ele><time>2026-04-28T17:32:48.996Z</time></trkpt><trkpt lat="45.59519801261667" lon="10.146211328064187"><ele>178.0</ele><time>2026-04-28T17:32:51.996Z</time></trkpt><trkpt lat="45.595195863509886" lon="10.146094777681299"><ele>177.0</ele><time>2026-04-28T17:32:54.996Z</time></trkpt><trkpt lat="45.59518446117677" lon="10.14597553928444"><ele>176.0</ele><time>2026-04-28T17:32:57.997Z</time></trkpt><trkpt lat="45.595182044687135" lon="10.145858460522161"><ele>176.0</ele><time>2026-04-28T17:33:00.996Z</time></trkpt><trkpt lat="45.59517387348931" lon="10.145738160032622"><ele>176.0</ele><time>2026-04-28T17:33:03.996Z</time></trkpt><trkpt lat="45.59517509193908" lon="10.145617664023087"><ele>176.0</ele><time>2026-04-28T17:33:06.996Z</time></trkpt><trkpt lat="45.5951761447094" lon="10.145506134366915"><ele>176.0</ele><time>2026-04-28T17:33:09.996Z</time></trkpt><trkpt lat="45.59518463262175" lon="10.145381338715845"><ele>176.0</ele><time>2026-04-28T17:33:12.996Z</time></trkpt><trkpt lat="45.59518829790913" lon="10.145256641763972"><ele>176.0</ele><time>2026-04-28T17:33:15.996Z</time></trkpt><trkpt lat="45.59520222849961" lon="10.145150706776471"><ele>175.33333333333331</ele><time>2026-04-28T17:33:18.996Z</time></trkpt><trkpt lat="45.59521263845529" lon="10.145031566181252"><ele>174.66666666666666</ele><time>2026-04-28T17:33:21.996Z</time></trkpt><trkpt lat="45.595233232304736" lon="10.144933169889208"><ele>174.0</ele><time>2026-04-28T17:33:24.996Z</time></trkpt><trkpt lat="45.595241341649796" lon="10.14482532619197"><ele>173.33333333333334</ele><time>2026-04-28T17:33:27.996Z</time></trkpt><trkpt lat="45.59526904543325" lon="10.144717175067976"><ele>172.66666666666669</ele><time>2026-04-28T17:33:30.996Z</time></trkpt><trkpt lat="45.5952925256962" lon="10.144611953113513"><ele>172.0</ele><time>2026-04-28T17:33:33.996Z</time></trkpt><trkpt lat="45.59532527390117" lon="10.144504625612429"><ele>172.5</ele><time>2026-04-28T17:33:36.996Z</time></trkpt><trkpt lat="45.59535993364646" lon="10.144393239494637"><ele>173.0</ele><time>2026-04-28T17:33:39.996Z</time></trkpt><trkpt lat="45.595371569820394" lon="10.144275148449816"><ele>173.5</ele><time>2026-04-28T17:33:42.996Z</time></trkpt><trkpt lat="45.59539240518649" lon="10.144166563473139"><ele>174.0</ele><time>2026-04-28T17:33:45.996Z</time></trkpt><trkpt lat="45.5954095737625" lon="10.14406805528569"><ele>174.5</ele><time>2026-04-28T17:33:48.996Z</time></trkpt><trkpt lat="45.595425115323174" lon="10.143970369226428"><ele>175.0</ele><time>2026-04-28T17:33:51.996Z</time></trkpt><trkpt lat="45.59547376205064" lon="10.143873971159964"><ele>175.0</ele><time>2026-04-28T17:33:54.996Z</time></trkpt><trkpt lat="45.595499394134244" lon="10.143763998835487"><ele>175.0</ele><time>2026-04-28T17:33:57.996Z</time></trkpt><trkpt lat="45.59552646713908" lon="10.143658583288698"><ele>175.0</ele><time>2026-04-28T17:34:00.996Z</time></trkpt><trkpt lat="45.59554883000652" lon="10.143543940386166"><ele>175.0</ele><time>2026-04-28T17:34:03.996Z</time></trkpt><trkpt lat="45.59556443460141" lon="10.14342990790312"><ele>175.0</ele><time>2026-04-28T17:34:06.996Z</time></trkpt><trkpt lat="45.59559651084408" lon="10.14332474101243"><ele>175.0</ele><time>2026-04-28T17:34:09.996Z</time></trkpt><trkpt lat="45.59561314638769" lon="10.143237831348818"><ele>174.14285714285714</ele><time>2026-04-28T17:34:11.996Z</time></trkpt><trkpt lat="45.595626309606565" lon="10.14314895040834"><ele>173.28571428571428</ele><time>2026-04-28T17:34:13.996Z</time></trkpt><trkpt lat="45.595632028609735" lon="10.14304085638551"><ele>172.42857142857144</ele><time>2026-04-28T17:34:16.996Z</time></trkpt><trkpt lat="45.59565127896326" lon="10.14293594915114"><ele>171.57142857142856</ele><time>2026-04-28T17:34:19.996Z</time></trkpt><trkpt lat="45.59569273606609" lon="10.142848009568661"><ele>170.71428571428572</ele><time>2026-04-28T17:34:22.996Z</time></trkpt><trkpt lat="45.59575515257249" lon="10.142792021864862"><ele>169.85714285714286</ele><time>2026-04-28T17:34:25.996Z</time></trkpt><trkpt lat="45.59579211837472" lon="10.142699811719492"><ele>169.0</ele><time>2026-04-28T17:34:28.996Z</time></trkpt><trkpt lat="45.59580966744866" lon="10.142568442798888"><ele>169.0</ele><time>2026-04-28T17:34:31.996Z</time></trkpt><trkpt lat="45.59579062050855" lon="10.142457832424494"><ele>169.0</ele><time>2026-04-28T17:34:34.996Z</time></trkpt><trkpt lat="45.59577199119304" lon="10.142351187831416"><ele>169.0</ele><time>2026-04-28T17:34:37.996Z</time></trkpt><trkpt lat="45.59576852923454" lon="10.14223943630719"><ele>169.0</ele><time>2026-04-28T17:34:40.996Z</time></trkpt><trkpt lat="45.595750428334824" lon="10.14215267489559"><ele>169.0</ele><time>2026-04-28T17:34:42.996Z</time></trkpt><trkpt lat="45.59574112619649" lon="10.14204786915972"><ele>169.0</ele><time>2026-04-28T17:34:44.996Z</time></trkpt><trkpt lat="45.59573427059452" lon="10.141957935184884"><ele>169.0</ele><time>2026-04-28T17:34:46.996Z</time></trkpt><trkpt lat="45.59574537139779" lon="10.141837280415787"><ele>168.66666666666669</ele><time>2026-04-28T17:34:49.996Z</time></trkpt><trkpt lat="45.59571507051993" lon="10.141710440235482"><ele>168.33333333333334</ele><time>2026-04-28T17:34:52.996Z</time></trkpt><trkpt lat="45.59569702139015" lon="10.141586860700809"><ele>168.0</ele><time>2026-04-28T17:34:55.996Z</time></trkpt><trkpt lat="45.59568850027825" lon="10.14147648197933"><ele>167.66666666666666</ele><time>2026-04-28T17:34:58.997Z</time></trkpt><trkpt lat="45.59566288416822" lon="10.141391078216186"><ele>167.33333333333331</ele><time>2026-04-28T17:35:00.997Z</time></trkpt><trkpt lat="45.59563833316676" lon="10.14130640240275"><ele>167.0</ele><time>2026-04-28T17:35:02.996Z</time></trkpt><trkpt lat="45.59561946394854" lon="10.141220514206758"><ele>166.83333333333331</ele><time>2026-04-28T17:35:04.996Z</time></trkpt><trkpt lat="45.595592063029116" lon="10.141115034974645"><ele>166.66666666666666</ele><time>2026-04-28T17:35:07.996Z</time></trkpt><trkpt lat="45.595571665693136" lon="10.14099563290292"><ele>166.5</ele><time>2026-04-28T17:35:11.996Z</time></trkpt><trkpt lat="45.59553839993141" lon="10.140892059554114"><ele>166.33333333333334</ele><time>2026-04-28T17:35:14.996Z</time></trkpt><trkpt lat="45.59551381878238" lon="10.140792259560074"><ele>166.16666666666669</ele><time>2026-04-28T17:35:17.996Z</time></trkpt><trkpt lat="45.595482308717045" lon="10.140685402575146"><ele>166.0</ele><time>2026-04-28T17:35:20.996Z</time></trkpt><trkpt lat="45.59547529462628" lon="10.140577615078284"><ele>165.83333333333334</ele><time>2026-04-28T17:35:23.996Z</time></trkpt><trkpt lat="45.59549685738773" lon="10.140468218061844"><ele>165.66666666666669</ele><time>2026-04-28T17:35:26.996Z</time></trkpt><trkpt lat="45.5954940983883" lon="10.140360898669304"><ele>165.5</ele><time>2026-04-28T17:35:29.996Z</time></trkpt><trkpt lat="45.59547967622146" lon="10.140241064259925"><ele>165.33333333333334</ele><time>2026-04-28T17:35:32.996Z</time></trkpt><trkpt lat="45.59547231490174" lon="10.140115681366371"><ele>165.16666666666666</ele><time>2026-04-28T17:35:35.996Z</time></trkpt><trkpt lat="45.5954611202111" lon="10.139996315229704"><ele>165.0</ele><time>2026-04-28T17:35:38.996Z</time></trkpt><trkpt lat="45.595451941294876" lon="10.139867691600788"><ele>165.0</ele><time>2026-04-28T17:35:41.996Z</time></trkpt><trkpt lat="45.59544788201222" lon="10.139771934490964"><ele>165.0</ele><time>2026-04-28T17:35:43.996Z</time></trkpt><trkpt lat="45.59544914698545" lon="10.139645103979543"><ele>165.0</ele><time>2026-04-28T17:35:46.996Z</time></trkpt><trkpt lat="45.595437570772695" lon="10.139510936006486"><ele>165.0</ele><time>2026-04-28T17:35:49.996Z</time></trkpt><trkpt lat="45.595426292027085" lon="10.139388703371507"><ele>165.0</ele><time>2026-04-28T17:35:52.996Z</time></trkpt><trkpt lat="45.595417583373916" lon="10.139262271358282"><ele>165.0</ele><time>2026-04-28T17:35:55.996Z</time></trkpt><trkpt lat="45.59541188394519" lon="10.139149048157808"><ele>165.33333333333334</ele><time>2026-04-28T17:35:58.996Z</time></trkpt><trkpt lat="45.59542042829645" lon="10.139042954622488"><ele>165.66666666666666</ele><time>2026-04-28T17:36:01.996Z</time></trkpt><trkpt lat="45.59541447567032" lon="10.138930318531227"><ele>166.0</ele><time>2026-04-28T17:36:04.996Z</time></trkpt><trkpt lat="45.59539516177504" lon="10.138819295427435"><ele>166.33333333333331</ele><time>2026-04-28T17:36:07.996Z</time></trkpt><trkpt lat="45.59540707132851" lon="10.138699472756706"><ele>166.66666666666666</ele><time>2026-04-28T17:36:10.996Z</time></trkpt><trkpt lat="45.595375001704596" lon="10.13858852648025"><ele>167.0</ele><time>2026-04-28T17:36:14.996Z</time></trkpt><trkpt lat="45.59530689114166" lon="10.138547040947273"><ele>166.28571428571428</ele><time>2026-04-28T17:36:17.996Z</time></trkpt><trkpt lat="45.59525255058058" lon="10.138469789504825"><ele>165.57142857142858</ele><time>2026-04-28T17:36:20.996Z</time></trkpt><trkpt lat="45.59524712540365" lon="10.138377126371397"><ele>164.85714285714286</ele><time>2026-04-28T17:36:23.996Z</time></trkpt><trkpt lat="45.59523870660999" lon="10.138281043258727"><ele>164.14285714285714</ele><time>2026-04-28T17:36:26.996Z</time></trkpt><trkpt lat="45.59524414681968" lon="10.138187585411302"><ele>163.42857142857142</ele><time>2026-04-28T17:36:29.996Z</time></trkpt><trkpt lat="45.59524096923332" lon="10.138086993995197"><ele>162.71428571428572</ele><time>2026-04-28T17:36:31.996Z</time></trkpt><trkpt lat="45.59523367579866" lon="10.137980119849702"><ele>162.0</ele><time>2026-04-28T17:36:34.996Z</time></trkpt><trkpt lat="45.59523992591393" lon="10.137853300791933"><ele>162.0</ele><time>2026-04-28T17:36:37.996Z</time></trkpt><trkpt lat="45.59522918479054" lon="10.137736589326176"><ele>162.0</ele><time>2026-04-28T17:36:40.996Z</time></trkpt><trkpt lat="45.595228793747694" lon="10.137618432770132"><ele>162.0</ele><time>2026-04-28T17:36:43.996Z</time></trkpt><trkpt lat="45.59524657230618" lon="10.137509821044961"><ele>162.0</ele><time>2026-04-28T17:36:46.996Z</time></trkpt><trkpt lat="45.59526568903133" lon="10.137393068819927"><ele>162.0</ele><time>2026-04-28T17:36:49.996Z</time></trkpt><trkpt lat="45.59526915035201" lon="10.137262533412889"><ele>162.0</ele><time>2026-04-28T17:36:52.996Z</time></trkpt><trkpt lat="45.59522863648728" lon="10.137184151783774"><ele>162.0</ele><time>2026-04-28T17:36:55.996Z</time></trkpt><trkpt lat="45.595168748926916" lon="10.137151898246582"><ele>162.0</ele><time>2026-04-28T17:36:57.996Z</time></trkpt><trkpt lat="45.59510519374345" lon="10.137159273092315"><ele>162.0</ele><time>2026-04-28T17:36:59.997Z</time></trkpt><trkpt lat="45.59501408372699" lon="10.137144790381655"><ele>162.0</ele><time>2026-04-28T17:37:02.996Z</time></trkpt><trkpt lat="45.59494497156484" lon="10.137144850178592"><ele>162.0</ele><time>2026-04-28T17:37:04.996Z</time></trkpt><trkpt lat="45.59485460924775" lon="10.13713621869423"><ele>162.0</ele><time>2026-04-28T17:37:07.996Z</time></trkpt><trkpt lat="45.59479134650855" lon="10.13709006717022"><ele>162.0</ele><time>2026-04-28T17:37:09.997Z</time></trkpt><trkpt lat="45.594744779572856" lon="10.136998056698657"><ele>162.0</ele><time>2026-04-28T17:37:12.996Z</time></trkpt><trkpt lat="45.59470675600904" lon="10.136907974855328"><ele>162.0</ele><time>2026-04-28T17:37:15.996Z</time></trkpt><trkpt lat="45.59467685206882" lon="10.136800634357163"><ele>162.0</ele><time>2026-04-28T17:37:18.996Z</time></trkpt><trkpt lat="45.59466456305482" lon="10.136691183147184"><ele>162.0</ele><time>2026-04-28T17:37:21.996Z</time></trkpt><trkpt lat="45.594643506985165" lon="10.136571663060424"><ele>162.0</ele><time>2026-04-28T17:37:24.996Z</time></trkpt><trkpt lat="45.594637954945064" lon="10.13645681254338"><ele>162.33333333333334</ele><time>2026-04-28T17:37:27.996Z</time></trkpt><trkpt lat="45.59464479687644" lon="10.13634642529038"><ele>162.66666666666666</ele><time>2026-04-28T17:37:30.996Z</time></trkpt><trkpt lat="45.59463651057477" lon="10.136223917506442"><ele>163.0</ele><time>2026-04-28T17:37:33.996Z</time></trkpt><trkpt lat="45.59463320591594" lon="10.136121507661768"><ele>163.33333333333331</ele><time>2026-04-28T17:37:36.996Z</time></trkpt><trkpt lat="45.59462550067149" lon="10.136008826052922"><ele>163.66666666666666</ele><time>2026-04-28T17:37:39.996Z</time></trkpt><trkpt lat="45.59462098847929" lon="10.135907566970824"><ele>164.0</ele><time>2026-04-28T17:37:42.996Z</time></trkpt><trkpt lat="45.59460295091703" lon="10.135792598994875"><ele>164.16666666666666</ele><time>2026-04-28T17:37:45.997Z</time></trkpt><trkpt lat="45.59458328354764" lon="10.135676490237394"><ele>164.33333333333331</ele><time>2026-04-28T17:37:48.997Z</time></trkpt><trkpt lat="45.59456860170245" lon="10.135563638012137"><ele>164.5</ele><time>2026-04-28T17:37:51.997Z</time></trkpt><trkpt lat="45.594524542805125" lon="10.135459347345563"><ele>164.66666666666666</ele><time>2026-04-28T17:37:54.997Z</time></trkpt><trkpt lat="45.594500950074625" lon="10.135349226460415"><ele>164.83333333333334</ele><time>2026-04-28T17:37:57.997Z</time></trkpt><trkpt lat="45.59447848213636" lon="10.135229852080792"><ele>165.0</ele><time>2026-04-28T17:38:00.997Z</time></trkpt><trkpt lat="45.594456148083765" lon="10.13510952070689"><ele>164.5</ele><time>2026-04-28T17:38:03.997Z</time></trkpt><trkpt lat="45.59444942869119" lon="10.134988527101461"><ele>164.0</ele><time>2026-04-28T17:38:06.997Z</time></trkpt><trkpt lat="45.5944492999744" lon="10.134871791063635"><ele>163.5</ele><time>2026-04-28T17:38:09.997Z</time></trkpt><trkpt lat="45.5944174452719" lon="10.13475074621898"><ele>163.0</ele><time>2026-04-28T17:38:12.997Z</time></trkpt><trkpt lat="45.59436811580905" lon="10.134693117648466"><ele>162.5</ele><time>2026-04-28T17:38:14.997Z</time></trkpt><trkpt lat="45.59433536567977" lon="10.134613411550905"><ele>162.0</ele><time>2026-04-28T17:38:16.997Z</time></trkpt><trkpt lat="45.59437668738747" lon="10.134538353498188"><ele>160.0</ele><time>2026-04-28T17:38:18.997Z</time></trkpt><trkpt lat="45.59444458380319" lon="10.134502278339603"><ele>160.0</ele><time>2026-04-28T17:38:21.997Z</time></trkpt><trkpt lat="45.59449060846167" lon="10.134411489008759"><ele>160.0</ele><time>2026-04-28T17:38:24.997Z</time></trkpt><trkpt lat="45.594530182379536" lon="10.134330433120432"><ele>164.0</ele><time>2026-04-28T17:38:27.997Z</time></trkpt><trkpt lat="45.59456486443749" lon="10.134408376432308"><ele>164.0</ele><time>2026-04-28T17:38:29.997Z</time></trkpt><trkpt lat="45.594566119926995" lon="10.134508624837498"><ele>164.0</ele><time>2026-04-28T17:38:33.997Z</time></trkpt><trkpt lat="45.59453619843308" lon="10.134597487617945"><ele>164.0</ele><time>2026-04-28T17:38:37.997Z</time></trkpt></trkseg></trk></gpx>